Darstellungsparameter: Aktuell verwendete Einstellungen:
Skalierung der Graphiken ... ?
xyx+y,   Skalierungsfaktor:      Skalierung: Modus: x, Faktor: 1
Darstellungszeitraum ... ?
Vom - - bis: - -   Zeitraum: 12.08.2020 - 11.11.2020
Min/Max/Avg-Anzeige ... ?
Zeige MMA aktuell
Zeige MMA Monat
Zeige MMA alles
Zeige --A aktuell
Zeige --A Monat
Zeige --A alles
Keine MMA-Anzeige
MMA:
Average (ber die Originaldaten)
MMA-Basis: 12.08.2020 - 11.11.2020
Quicknavigation für Darstellung... ?
Tage:      1T, 2T, 3T, 5T -1T -2T -3T -5T +1T +2T +3T +5T
Wochen: 1W, 2W, 3W -1W -2W -3W +1W +2W +3W
Monate: 1M, 3M, 6M -1M -3M -6M +1M +3M +6M
Jahre:    1J, 3J, 5J, 10J -1J -3J -5J -10J +1J +3J +5J +10J
Nutze für die Darstellung ... ?
Originaldaten oder Mittelwerte auf ...
Stundenbasis Tagesbasis Wochenbasis
Monatsbasis Jahresbasis      Datenbasis: Original-Daten
Darstellen als:
Statistik (Auto) Statistik J:M      Darstellung:
Zur Graphik,    zurück zur Übersicht aller Sensoren.
 
Tabellarische Datenbersicht: ?
 
Sensor: Nr:Datum:Temp:Feuchte:
Aussen-T/F 1 12-08-2020 00:02:17 21.3 C 40 %
2 12-08-2020 00:12:17 21.1 C 40 %
3 12-08-2020 00:22:17 21.1 C 40 %
4 12-08-2020 00:32:18 21 C 40 %
5 12-08-2020 00:42:18 20.8 C 40 %
6 12-08-2020 00:52:17 20.7 C 40 %
7 12-08-2020 01:02:18 20.6 C 40 %
8 12-08-2020 01:12:18 20.7 C 40 %
9 12-08-2020 01:22:17 20.6 C 40 %
10 12-08-2020 01:32:17 20.5 C 40 %
11 12-08-2020 01:42:17 20.5 C 40 %
12 12-08-2020 01:52:17 20.5 C 40 %
13 12-08-2020 02:02:18 20.6 C 40 %
14 12-08-2020 02:12:18 20.6 C 40 %
15 12-08-2020 02:22:17 20.5 C 40 %
16 12-08-2020 02:32:18 20.4 C 40 %
17 12-08-2020 02:42:18 20.4 C 40 %
18 12-08-2020 02:52:17 20.4 C 40 %
19 12-08-2020 03:02:17 20.4 C 40 %
20 12-08-2020 03:12:17 20.5 C 40 %
21 12-08-2020 03:22:17 20.4 C 40 %
22 12-08-2020 03:32:17 20.2 C 40 %
23 12-08-2020 03:42:17 20.2 C 40 %
24 12-08-2020 03:52:18 20 C 40 %
25 12-08-2020 04:02:17 20 C 40 %
Sensor: Nr:Datum:Temp:Feuchte:
Aussen-T/F 26 12-08-2020 04:12:17 19.8 C 40 %
27 12-08-2020 04:22:17 19.7 C 40 %
28 12-08-2020 04:32:17 19.7 C 40 %
29 12-08-2020 04:42:17 19.6 C 40 %
30 12-08-2020 04:52:18 19.7 C 40 %
31 12-08-2020 05:02:17 19.7 C 40 %
32 12-08-2020 05:12:17 19.7 C 40 %
33 12-08-2020 05:22:17 19.6 C 40 %
34 12-08-2020 05:32:17 19.5 C 40 %
35 12-08-2020 05:42:17 19.5 C 40 %
36 12-08-2020 05:52:17 19.6 C 40 %
37 12-08-2020 06:02:17 19.5 C 40 %
38 12-08-2020 06:12:17 19.4 C 40 %
39 12-08-2020 06:22:17 19.3 C 40 %
40 12-08-2020 06:32:17 19.3 C 40 %
41 12-08-2020 06:42:17 19.3 C 40 %
42 12-08-2020 06:52:18 19.4 C 40 %
43 12-08-2020 07:02:17 19.6 C 40 %
44 12-08-2020 07:12:17 19.7 C 40 %
45 12-08-2020 07:22:17 19.7 C 40 %
46 12-08-2020 07:32:17 19.8 C 40 %
47 12-08-2020 07:42:17 20 C 40 %
48 12-08-2020 07:52:17 20.1 C 40 %
49 12-08-2020 08:02:18 20.4 C 40 %
50 12-08-2020 08:12:18 20.6 C 40 %
Sensor: Nr:Datum:Temp:Feuchte:
Aussen-T/F 51 12-08-2020 08:22:17 20.8 C 41 %
52 12-08-2020 08:32:17 20.8 C 41 %
53 12-08-2020 08:42:17 20.8 C 41 %
54 12-08-2020 08:52:17 20.7 C 41 %
55 12-08-2020 09:02:17 20.6 C 41 %
56 12-08-2020 09:12:17 20.6 C 41 %
57 12-08-2020 09:22:17 20.9 C 41 %
58 12-08-2020 09:32:17 21.2 C 39 %
59 12-08-2020 09:42:18 21.3 C 39 %
60 12-08-2020 09:52:17 21.4 C 39 %
61 12-08-2020 10:02:18 21.6 C 39 %
62 12-08-2020 10:12:18 21.9 C 38 %
63 12-08-2020 10:22:17 22.3 C 37 %
64 12-08-2020 10:32:18 22.9 C 36 %
65 12-08-2020 10:42:18 23.9 C 31 %
66 12-08-2020 10:52:17 25.1 C 28 %
67 12-08-2020 11:02:17 25.9 C 27 %
68 12-08-2020 11:12:17 26.6 C 26 %
69 12-08-2020 11:22:17 27 C 25 %
70 12-08-2020 11:32:17 27.7 C 25 %
71 12-08-2020 11:42:18 28.9 C 24 %
72 12-08-2020 11:52:17 29.1 C 23 %
73 12-08-2020 12:02:17 28.8 C 22 %
74 12-08-2020 12:12:17 28.5 C 23 %
75 12-08-2020 12:22:17 28.4 C 23 %
Sensor: Nr:Datum:Temp:Feuchte:
Aussen-T/F 76 12-08-2020 12:32:17 28.4 C 23 %
77 12-08-2020 12:42:17 28.6 C 23 %
78 12-08-2020 12:52:17 28.9 C 23 %
79 12-08-2020 13:02:18 29.4 C 22 %
80 12-08-2020 13:12:18 29.8 C 23 %
81 12-08-2020 13:22:17 29.7 C 22 %
82 12-08-2020 13:32:18 30.2 C 21 %
83 12-08-2020 13:42:18 30.7 C 22 %
84 12-08-2020 13:52:17 31 C 21 %
85 12-08-2020 14:02:17 31.1 C 21 %
86 12-08-2020 14:12:17 31.8 C 20 %
87 12-08-2020 14:22:17 32.5 C 20 %
88 12-08-2020 14:32:18 35.9 C 20 %
89 12-08-2020 14:42:18 36.9 C 20 %
90 12-08-2020 14:52:17 38 C 20 %
91 12-08-2020 15:02:17 40.3 C 20 %
92 12-08-2020 15:12:17 39.9 C 20 %
93 12-08-2020 15:22:17 39.7 C 20 %
94 12-08-2020 15:32:17 38.4 C 20 %
95 12-08-2020 15:42:17 39.6 C 20 %
96 12-08-2020 15:52:18 40.7 C 20 %
97 12-08-2020 16:02:18 40.3 C 20 %
98 12-08-2020 16:12:18 38.6 C 20 %
99 12-08-2020 16:22:18 39.8 C 20 %
100 12-08-2020 16:32:17 39.9 C 20 %
Sensor: Nr:Datum:Temp:Feuchte:
Aussen-T/F 101 12-08-2020 16:42:18 37.4 C 20 %
102 12-08-2020 16:52:17 36.5 C 20 %
103 12-08-2020 17:02:18 35.3 C 20 %
104 12-08-2020 17:12:18 31.9 C 20 %
105 12-08-2020 17:22:17 30.9 C 20 %
106 12-08-2020 17:32:18 30.2 C 21 %
107 12-08-2020 17:42:18 29.7 C 21 %
108 12-08-2020 17:52:18 29.3 C 21 %
109 12-08-2020 18:02:17 28.8 C 20 %
110 12-08-2020 18:12:18 28 C 20 %
111 12-08-2020 18:22:17 26.9 C 21 %
112 12-08-2020 18:32:17 26.8 C 21 %
113 12-08-2020 18:42:17 26.6 C 22 %
114 12-08-2020 18:52:18 26.2 C 23 %
115 12-08-2020 19:02:17 23.5 C 31 %
116 12-08-2020 19:12:17 22.4 C 34 %
117 12-08-2020 19:22:17 21.8 C 39 %
118 12-08-2020 19:32:17 21.8 C 40 %
119 12-08-2020 19:42:17 21.6 C 40 %
120 12-08-2020 19:52:17 21.5 C 40 %
121 12-08-2020 20:02:17 21.5 C 40 %
122 12-08-2020 20:12:17 21.5 C 38 %
123 12-08-2020 20:22:17 21.5 C 39 %
124 12-08-2020 20:32:17 21.3 C 40 %
125 12-08-2020 20:42:17 21.2 C 38 %
Sensor: Nr:Datum:Temp:Feuchte:
Aussen-T/F 126 12-08-2020 20:52:17 21.1 C 39 %
127 12-08-2020 21:02:17 21.2 C 39 %
128 12-08-2020 21:12:18 21.2 C 39 %
129 12-08-2020 21:22:18 21.2 C 39 %
130 12-08-2020 21:32:17 21.2 C 39 %
131 12-08-2020 21:42:17 21.1 C 39 %
132 12-08-2020 21:52:17 20.8 C 40 %
133 12-08-2020 22:02:18 20.9 C 40 %
134 12-08-2020 22:12:18 20.9 C 40 %
135 12-08-2020 22:22:17 21 C 38 %
136 12-08-2020 22:32:18 21 C 38 %
137 12-08-2020 22:42:18 20.9 C 40 %
138 12-08-2020 22:52:17 20.7 C 39 %
139 12-08-2020 23:02:17 20.4 C 39 %
140 12-08-2020 23:12:17 20.2 C 40 %
141 12-08-2020 23:22:17 20.1 C 40 %
142 12-08-2020 23:32:17 20.2 C 40 %
143 12-08-2020 23:42:17 20.2 C 40 %
144 12-08-2020 23:52:17 20.2 C 40 %
145 13-08-2020 00:02:18 20.4 C 40 %
146 13-08-2020 00:12:18 20.5 C 39 %
147 13-08-2020 00:22:18 20.6 C 39 %
148 13-08-2020 00:32:17 20.3 C 40 %
149 13-08-2020 00:42:17 20.3 C 40 %
150 13-08-2020 00:52:18 20.5 C 39 %
Sensor: Nr:Datum:Temp:Feuchte:
Aussen-T/F 151 13-08-2020 01:02:18 20.2 C 40 %
152 13-08-2020 01:12:18 20 C 40 %
153 13-08-2020 01:22:18 20 C 40 %
154 13-08-2020 01:32:17 19.9 C 41 %
155 13-08-2020 01:42:17 19.8 C 41 %
156 13-08-2020 01:52:17 19.9 C 40 %
157 13-08-2020 02:02:18 19.9 C 40 %
158 13-08-2020 02:12:18 19.8 C 40 %
159 13-08-2020 02:22:18 19.5 C 41 %
160 13-08-2020 02:32:17 19.2 C 42 %
161 13-08-2020 02:42:17 19.3 C 42 %
162 13-08-2020 02:52:17 19.3 C 41 %
163 13-08-2020 03:02:18 19.3 C 41 %
164 13-08-2020 03:12:18 19.2 C 41 %
165 13-08-2020 03:22:17 19.1 C 41 %
166 13-08-2020 03:32:18 19.1 C 41 %
167 13-08-2020 03:42:18 19 C 41 %
168 13-08-2020 03:52:17 19.2 C 41 %
169 13-08-2020 04:02:17 19.1 C 41 %
170 13-08-2020 04:12:17 18.9 C 42 %
171 13-08-2020 04:22:17 18.9 C 42 %
172 13-08-2020 04:32:17 19.2 C 41 %
173 13-08-2020 04:42:17 19.4 C 42 %
174 13-08-2020 04:52:18 19.6 C 42 %
175 13-08-2020 05:02:18 19.7 C 41 %
Sensor: Nr:Datum:Temp:Feuchte:
Aussen-T/F 176 13-08-2020 05:12:18 19.6 C 41 %
177 13-08-2020 05:22:17 19.7 C 41 %
178 13-08-2020 05:32:17 19.8 C 41 %
179 13-08-2020 05:42:17 19.9 C 41 %
180 13-08-2020 05:52:17 19.9 C 41 %
181 13-08-2020 06:02:17 19.8 C 41 %
182 13-08-2020 06:12:17 19.7 C 41 %
183 13-08-2020 06:22:17 19.7 C 41 %
184 13-08-2020 06:32:17 19.6 C 41 %
185 13-08-2020 06:42:17 19.6 C 41 %
186 13-08-2020 06:52:18 19.5 C 40 %
187 13-08-2020 07:02:18 19.5 C 40 %
188 13-08-2020 07:12:18 19.4 C 40 %
189 13-08-2020 07:22:17 19.5 C 40 %
190 13-08-2020 07:32:18 19.5 C 40 %
191 13-08-2020 07:42:18 19.5 C 40 %
192 13-08-2020 07:52:18 19.6 C 40 %
193 13-08-2020 08:02:17 19.7 C 40 %
194 13-08-2020 08:12:17 19.5 C 40 %
195 13-08-2020 08:22:17 19.5 C 40 %
196 13-08-2020 08:32:17 19.6 C 40 %
197 13-08-2020 08:42:17 19.7 C 40 %
198 13-08-2020 08:52:17 19.7 C 40 %
199 13-08-2020 09:02:18 20 C 40 %
200 13-08-2020 09:12:18 20.3 C 40 %
Sensor: Nr:Datum:Temp:Feuchte:
Aussen-T/F 201 13-08-2020 09:22:17 20.7 C 40 %
202 13-08-2020 09:32:18 20.9 C 40 %
203 13-08-2020 09:42:18 21.3 C 39 %
204 13-08-2020 09:52:18 21.7 C 39 %
205 13-08-2020 10:02:18 22.2 C 38 %
206 13-08-2020 10:12:18 22.6 C 35 %
207 13-08-2020 10:22:17 22.7 C 35 %
208 13-08-2020 10:32:17 22.7 C 36 %
209 13-08-2020 10:42:18 22.9 C 36 %
210 13-08-2020 10:52:17 24 C 34 %
211 13-08-2020 11:02:17 24.8 C 33 %
212 13-08-2020 11:12:17 25.7 C 31 %
213 13-08-2020 11:22:18 26.4 C 30 %
214 13-08-2020 11:32:17 27.3 C 29 %
215 13-08-2020 11:42:17 28.7 C 27 %
216 13-08-2020 11:52:18 28.4 C 27 %
217 13-08-2020 12:02:18 28.9 C 26 %
218 13-08-2020 12:12:18 28.9 C 26 %
219 13-08-2020 12:22:17 29.1 C 26 %
220 13-08-2020 12:32:18 28.6 C 26 %
221 13-08-2020 12:42:18 28.5 C 25 %
222 13-08-2020 12:52:17 28.7 C 25 %
223 13-08-2020 13:02:17 28.9 C 25 %
224 13-08-2020 13:12:17 29.4 C 24 %
225 13-08-2020 13:22:17 30.3 C 23 %
Sensor: Nr:Datum:Temp:Feuchte:
Aussen-T/F 226 13-08-2020 13:32:18 30.1 C 23 %
227 13-08-2020 13:42:18 30.3 C 23 %
228 13-08-2020 13:52:17 30.3 C 23 %
229 13-08-2020 14:02:17 31.2 C 21 %
230 13-08-2020 14:12:17 32.1 C 20 %
231 13-08-2020 14:22:18 32.5 C 20 %
232 13-08-2020 14:32:17 32.6 C 20 %
233 13-08-2020 14:42:17 32.2 C 20 %
234 13-08-2020 14:52:17 32.8 C 20 %
235 13-08-2020 15:02:18 33.7 C 20 %
236 13-08-2020 15:12:18 32.7 C 20 %
237 13-08-2020 15:22:17 31.3 C 20 %
238 13-08-2020 15:32:17 30.7 C 20 %
239 13-08-2020 15:42:17 29.9 C 20 %
240 13-08-2020 15:52:17 30.1 C 20 %
241 13-08-2020 16:02:18 29.7 C 20 %
242 13-08-2020 16:12:18 29.4 C 20 %
243 13-08-2020 16:22:17 29.2 C 20 %
244 13-08-2020 16:32:17 29.2 C 20 %
245 13-08-2020 16:42:18 29.8 C 20 %
246 13-08-2020 16:52:17 29.3 C 20 %
247 13-08-2020 17:02:17 28.9 C 20 %
248 13-08-2020 17:12:17 28.9 C 20 %
249 13-08-2020 17:22:18 29.2 C 21 %
250 13-08-2020 17:32:17 30.5 C 20 %
Sensor: Nr:Datum:Temp:Feuchte:
Aussen-T/F 251 13-08-2020 17:42:17 30.2 C 20 %
252 13-08-2020 17:52:17 31.8 C 20 %
253 13-08-2020 18:02:17 32.3 C 20 %
254 13-08-2020 18:12:17 30.5 C 20 %
255 13-08-2020 18:22:17 28.8 C 21 %
256 13-08-2020 18:32:18 28.4 C 22 %
257 13-08-2020 18:42:18 27.7 C 24 %
258 13-08-2020 18:52:17 27.4 C 25 %
259 13-08-2020 19:02:18 27.7 C 25 %
260 13-08-2020 19:12:18 27.9 C 24 %
261 13-08-2020 19:22:17 27.3 C 25 %
262 13-08-2020 19:32:17 27 C 25 %
263 13-08-2020 19:42:17 26.4 C 26 %
264 13-08-2020 19:52:17 26 C 27 %
265 13-08-2020 20:02:17 25.7 C 28 %
266 13-08-2020 20:12:17 25.4 C 28 %
267 13-08-2020 20:22:18 25.1 C 29 %
268 13-08-2020 20:32:18 24.5 C 30 %
269 13-08-2020 20:42:18 24.1 C 30 %
270 13-08-2020 20:52:18 23.5 C 32 %
271 13-08-2020 21:02:18 23.4 C 31 %
272 13-08-2020 21:12:18 23.1 C 31 %
273 13-08-2020 21:22:18 23.4 C 31 %
274 13-08-2020 21:32:17 23.3 C 31 %
275 13-08-2020 21:42:17 23.5 C 31 %
Sensor: Nr:Datum:Temp:Feuchte:
Aussen-T/F 276 13-08-2020 21:52:17 23.4 C 31 %
277 13-08-2020 22:02:18 23.4 C 31 %
278 13-08-2020 22:12:18 23.2 C 31 %
279 13-08-2020 22:22:17 23.3 C 31 %
280 13-08-2020 22:32:17 23.5 C 31 %
281 13-08-2020 22:42:17 23.9 C 30 %
282 13-08-2020 22:52:18 23.9 C 30 %
283 13-08-2020 23:02:18 23.3 C 30 %
284 13-08-2020 23:12:18 22.9 C 32 %
285 13-08-2020 23:22:17 22.9 C 32 %
286 13-08-2020 23:32:17 22.9 C 32 %
287 13-08-2020 23:42:18 22.9 C 31 %
288 13-08-2020 23:52:17 22.7 C 32 %
289 14-08-2020 00:02:17 22.5 C 32 %
290 14-08-2020 00:12:18 22.6 C 32 %
291 14-08-2020 00:22:17 22.4 C 32 %
292 14-08-2020 00:32:17 22.2 C 33 %
293 14-08-2020 00:42:17 22.4 C 32 %
294 14-08-2020 00:52:17 22.1 C 33 %
295 14-08-2020 01:02:17 22.1 C 33 %
296 14-08-2020 01:12:18 22 C 33 %
297 14-08-2020 01:22:17 22 C 33 %
298 14-08-2020 01:32:18 21.7 C 35 %
299 14-08-2020 01:42:18 21.6 C 35 %
300 14-08-2020 01:52:17 21.5 C 35 %
Sensor: Nr:Datum:Temp:Feuchte:
Aussen-T/F 301 14-08-2020 02:02:17 21.4 C 35 %
302 14-08-2020 02:12:18 21.3 C 35 %
303 14-08-2020 02:22:18 21.2 C 35 %
304 14-08-2020 02:32:18 20.9 C 37 %
305 14-08-2020 02:42:18 20.7 C 36 %
306 14-08-2020 02:52:17 20.2 C 37 %
307 14-08-2020 03:02:18 19.9 C 38 %
308 14-08-2020 03:12:18 20 C 38 %
309 14-08-2020 03:22:17 19.6 C 39 %
310 14-08-2020 03:32:17 19.5 C 39 %
311 14-08-2020 03:42:17 19.5 C 39 %
312 14-08-2020 03:52:17 19.6 C 38 %
313 14-08-2020 04:02:17 19.4 C 38 %
314 14-08-2020 04:12:17 19.3 C 38 %
315 14-08-2020 04:22:18 19.1 C 38 %
316 14-08-2020 04:32:17 18.9 C 40 %
317 14-08-2020 04:42:17 18.7 C 40 %
318 14-08-2020 04:52:18 18.7 C 40 %
319 14-08-2020 05:02:18 18.6 C 41 %
320 14-08-2020 05:12:18 18.3 C 41 %
321 14-08-2020 05:22:18 18.5 C 41 %
322 14-08-2020 05:32:18 18.5 C 41 %
323 14-08-2020 05:42:18 18.6 C 41 %
324 14-08-2020 05:52:17 18.8 C 40 %
325 14-08-2020 06:02:18 18.9 C 40 %
Sensor: Nr:Datum:Temp:Feuchte:
Aussen-T/F 326 14-08-2020 06:12:18 18.7 C 40 %
327 14-08-2020 06:22:17 18.7 C 40 %
328 14-08-2020 06:32:17 18.7 C 40 %
329 14-08-2020 06:42:17 18.5 C 40 %
330 14-08-2020 06:52:17 18.9 C 39 %
331 14-08-2020 07:02:17 18.9 C 39 %
332 14-08-2020 07:12:17 19 C 38 %
333 14-08-2020 07:22:17 19.4 C 38 %
334 14-08-2020 07:32:18 19.4 C 38 %
335 14-08-2020 07:42:18 19.5 C 38 %
336 14-08-2020 07:52:17 19.4 C 38 %
337 14-08-2020 08:02:17 19.5 C 39 %
338 14-08-2020 08:12:17 20.1 C 37 %
339 14-08-2020 08:22:17 20.9 C 36 %
340 14-08-2020 08:32:17 21.5 C 34 %
341 14-08-2020 08:42:17 21.4 C 34 %
342 14-08-2020 08:52:17 21.4 C 34 %
343 14-08-2020 09:02:17 20.8 C 36 %
344 14-08-2020 09:12:17 20.8 C 36 %
345 14-08-2020 09:22:17 21 C 36 %
346 14-08-2020 09:32:18 21.1 C 35 %
347 14-08-2020 09:42:18 22.4 C 31 %
348 14-08-2020 09:52:17 22.9 C 30 %
349 14-08-2020 10:02:17 23.5 C 29 %
350 14-08-2020 10:12:18 24.2 C 28 %
Sensor: Nr:Datum:Temp:Feuchte:
Aussen-T/F 351 14-08-2020 10:22:17 24.1 C 27 %
352 14-08-2020 10:32:18 24.3 C 28 %
353 14-08-2020 10:42:18 22.9 C 30 %
354 14-08-2020 10:52:17 23.1 C 29 %
355 14-08-2020 11:02:17 23 C 30 %
356 14-08-2020 11:12:17 22.9 C 30 %
357 14-08-2020 11:22:17 22.8 C 30 %
358 14-08-2020 11:32:17 22.8 C 30 %
359 14-08-2020 11:42:18 23 C 29 %
360 14-08-2020 11:52:17 22.7 C 30 %
361 14-08-2020 12:02:17 22.7 C 30 %
362 14-08-2020 12:12:18 22.9 C 30 %
363 14-08-2020 12:22:17 22.9 C 30 %
364 14-08-2020 12:32:17 22.9 C 30 %
365 14-08-2020 12:42:17 22.9 C 30 %
366 14-08-2020 12:52:17 23.2 C 29 %
367 14-08-2020 13:02:17 23.4 C 29 %
368 14-08-2020 13:12:18 23.7 C 29 %
369 14-08-2020 13:22:18 24 C 28 %
370 14-08-2020 13:32:17 24.2 C 28 %
371 14-08-2020 13:42:17 25.1 C 27 %
372 14-08-2020 13:52:17 25.6 C 26 %
373 14-08-2020 14:02:18 27 C 25 %
374 14-08-2020 14:12:18 27.6 C 25 %
375 14-08-2020 14:22:18 27.1 C 24 %
Sensor: Nr:Datum:Temp:Feuchte:
Aussen-T/F 376 14-08-2020 14:32:17 30.2 C 21 %
377 14-08-2020 14:42:17 29.9 C 21 %
378 14-08-2020 14:52:17 31.7 C 20 %
379 14-08-2020 15:02:17 33.3 C 20 %
380 14-08-2020 15:12:17 31.2 C 20 %
381 14-08-2020 15:22:18 30.2 C 20 %
382 14-08-2020 15:32:17 34.3 C 20 %
383 14-08-2020 15:42:17 35.4 C 20 %
384 14-08-2020 15:52:18 34.2 C 20 %
385 14-08-2020 16:02:18 33 C 20 %
386 14-08-2020 16:12:18 33.9 C 20 %
387 14-08-2020 16:22:17 30.7 C 20 %
388 14-08-2020 16:32:17 32.7 C 20 %
389 14-08-2020 16:42:17 31 C 20 %
390 14-08-2020 16:52:17 31.6 C 20 %
391 14-08-2020 17:02:17 33.9 C 20 %
392 14-08-2020 17:12:17 34.3 C 20 %
393 14-08-2020 17:22:17 35.1 C 20 %
394 14-08-2020 17:32:17 34.9 C 20 %
395 14-08-2020 17:42:17 34.7 C 20 %
396 14-08-2020 17:52:17 34.4 C 20 %
397 14-08-2020 18:02:18 34.2 C 20 %
398 14-08-2020 18:12:18 31.7 C 20 %
399 14-08-2020 18:22:17 31.2 C 20 %
400 14-08-2020 18:32:17 30.7 C 20 %
Sensor: Nr:Datum:Temp:Feuchte:
Aussen-T/F 401 14-08-2020 18:42:17 30.7 C 20 %
402 14-08-2020 18:52:18 30.3 C 20 %
403 14-08-2020 19:02:17 30.4 C 20 %
404 14-08-2020 19:12:17 29.6 C 20 %
405 14-08-2020 19:22:17 28.6 C 20 %
406 14-08-2020 19:32:17 28.2 C 21 %
407 14-08-2020 19:42:17 28.3 C 20 %
408 14-08-2020 19:52:17 27.7 C 21 %
409 14-08-2020 20:02:17 27.1 C 21 %
410 14-08-2020 20:12:17 26.8 C 22 %
411 14-08-2020 20:22:17 26.3 C 23 %
412 14-08-2020 20:32:17 26.1 C 23 %
413 14-08-2020 20:42:17 25.9 C 24 %
414 14-08-2020 20:52:18 25.4 C 25 %
415 14-08-2020 21:02:18 24.9 C 26 %
416 14-08-2020 21:12:18 24.5 C 26 %
417 14-08-2020 21:22:17 24.1 C 27 %
418 14-08-2020 21:32:17 24 C 27 %
419 14-08-2020 21:42:17 24 C 27 %
420 14-08-2020 21:52:17 23.9 C 27 %
421 14-08-2020 22:02:17 23.8 C 28 %
422 14-08-2020 22:12:17 23.3 C 30 %
423 14-08-2020 22:22:17 23 C 30 %
424 14-08-2020 22:32:18 22.9 C 31 %
425 14-08-2020 22:42:18 22.8 C 31 %
Sensor: Nr:Datum:Temp:Feuchte:
Aussen-T/F 426 14-08-2020 22:52:18 22.7 C 31 %
427 14-08-2020 23:02:17 22.6 C 31 %
428 14-08-2020 23:12:17 22.5 C 31 %
429 14-08-2020 23:22:17 22.4 C 31 %
430 14-08-2020 23:32:17 22.1 C 31 %
431 14-08-2020 23:42:17 22.2 C 32 %
432 14-08-2020 23:52:17 22.5 C 32 %
433 15-08-2020 00:02:17 22.2 C 31 %
434 15-08-2020 00:12:17 22 C 32 %
435 15-08-2020 00:22:17 21.8 C 33 %
436 15-08-2020 00:32:18 21.9 C 33 %
437 15-08-2020 00:42:18 21.7 C 34 %
438 15-08-2020 00:52:17 21.9 C 34 %
439 15-08-2020 01:02:18 21.9 C 34 %
440 15-08-2020 01:12:18 21.8 C 34 %
441 15-08-2020 01:22:17 21.5 C 34 %
442 15-08-2020 01:32:18 21.2 C 35 %
443 15-08-2020 01:42:18 21.2 C 34 %
444 15-08-2020 01:52:18 21 C 35 %
445 15-08-2020 02:02:17 20.8 C 36 %
446 15-08-2020 02:12:18 20.4 C 36 %
447 15-08-2020 02:22:17 20.2 C 36 %
448 15-08-2020 02:32:18 20.2 C 36 %
449 15-08-2020 02:42:18 19.8 C 38 %
450 15-08-2020 02:52:17 19.5 C 39 %
Sensor: Nr:Datum:Temp:Feuchte:
Aussen-T/F 451 15-08-2020 03:02:18 19.4 C 39 %
452 15-08-2020 03:12:18 19.4 C 40 %
453 15-08-2020 03:22:17 19.3 C 39 %
454 15-08-2020 03:32:17 19.2 C 40 %
455 15-08-2020 03:42:17 19 C 40 %
456 15-08-2020 03:52:18 18.7 C 41 %
457 15-08-2020 04:02:17 18.6 C 41 %
458 15-08-2020 04:12:17 18.6 C 42 %
459 15-08-2020 04:22:17 18.5 C 41 %
460 15-08-2020 04:32:18 18.5 C 42 %
461 15-08-2020 04:42:18 18.3 C 41 %
462 15-08-2020 04:52:17 18.1 C 41 %
463 15-08-2020 05:02:18 18.3 C 42 %
464 15-08-2020 05:12:18 18.2 C 42 %
465 15-08-2020 05:22:17 18.3 C 42 %
466 15-08-2020 05:32:17 18.5 C 42 %
467 15-08-2020 05:42:17 18.5 C 42 %
468 15-08-2020 05:52:18 18.5 C 41 %
469 15-08-2020 06:02:17 18.5 C 42 %
470 15-08-2020 06:12:17 18.3 C 41 %
471 15-08-2020 06:22:17 18.3 C 41 %
472 15-08-2020 06:32:17 18.1 C 42 %
473 15-08-2020 06:42:17 18.1 C 42 %
474 15-08-2020 06:52:18 18.1 C 42 %
475 15-08-2020 07:02:17 18.3 C 42 %
Sensor: Nr:Datum:Temp:Feuchte:
Aussen-T/F 476 15-08-2020 07:12:17 18.7 C 42 %
477 15-08-2020 07:22:18 19.1 C 41 %
478 15-08-2020 07:32:18 19.3 C 41 %
479 15-08-2020 07:42:18 19.7 C 40 %
480 15-08-2020 07:52:17 19.9 C 39 %
481 15-08-2020 08:02:17 20.3 C 37 %
482 15-08-2020 08:12:17 20.6 C 36 %
483 15-08-2020 08:22:17 20.9 C 36 %
484 15-08-2020 08:32:17 20.7 C 36 %
485 15-08-2020 08:42:17 21.2 C 35 %
486 15-08-2020 08:52:17 21.5 C 35 %
487 15-08-2020 09:02:17 21.9 C 35 %
488 15-08-2020 09:12:17 21.7 C 34 %
489 15-08-2020 09:22:17 22.3 C 33 %
490 15-08-2020 09:32:17 22.8 C 32 %
491 15-08-2020 09:42:17 22.6 C 32 %
492 15-08-2020 09:52:17 22.9 C 32 %
493 15-08-2020 10:02:18 23.4 C 31 %
494 15-08-2020 10:12:18 24.2 C 30 %
495 15-08-2020 10:22:17 24.5 C 29 %
496 15-08-2020 10:32:18 25.1 C 28 %
497 15-08-2020 10:42:18 24.9 C 29 %
498 15-08-2020 10:52:17 25.6 C 27 %
499 15-08-2020 11:02:18 26.2 C 27 %
500 15-08-2020 11:12:18 26 C 26 %
Sensor: Nr:Datum:Temp:Feuchte:
Aussen-T/F 501 15-08-2020 11:22:17 26.4 C 26 %
502 15-08-2020 11:32:17 27 C 25 %
503 15-08-2020 11:42:17 27.4 C 25 %
504 15-08-2020 11:52:17 30 C 22 %
505 15-08-2020 12:02:18 27.7 C 25 %
506 15-08-2020 12:12:18 26.7 C 25 %
507 15-08-2020 12:22:17 26.7 C 25 %
508 15-08-2020 12:32:17 27.6 C 25 %
509 15-08-2020 12:42:18 27.7 C 24 %
510 15-08-2020 12:52:17 27.2 C 25 %
511 15-08-2020 13:02:18 27.5 C 25 %
512 15-08-2020 13:12:18 27.3 C 24 %
513 15-08-2020 13:22:18 27.4 C 24 %
514 15-08-2020 13:32:17 27.7 C 24 %
515 15-08-2020 13:42:17 27.4 C 24 %
516 15-08-2020 13:52:17 27.7 C 24 %
517 15-08-2020 14:02:18 28.3 C 23 %
518 15-08-2020 14:12:18 29 C 22 %
519 15-08-2020 14:22:18 29.1 C 22 %
520 15-08-2020 14:32:17 27.4 C 23 %
521 15-08-2020 14:42:17 25.9 C 25 %
522 15-08-2020 14:52:17 25.6 C 25 %
523 15-08-2020 15:02:18 25.5 C 25 %
524 15-08-2020 15:12:18 25.3 C 24 %
525 15-08-2020 15:22:17 25.3 C 25 %
Sensor: Nr:Datum:Temp:Feuchte:
Aussen-T/F 526 15-08-2020 15:32:18 25.2 C 25 %
527 15-08-2020 15:42:18 24.7 C 27 %
528 15-08-2020 15:52:17 24.4 C 27 %
529 15-08-2020 16:02:17 23.4 C 30 %
530 15-08-2020 16:12:17 22.9 C 33 %
531 15-08-2020 16:22:18 22.9 C 33 %
532 15-08-2020 16:32:17 22.9 C 33 %
533 15-08-2020 16:42:17 23 C 31 %
534 15-08-2020 16:52:17 23.8 C 31 %
535 15-08-2020 17:02:17 24.8 C 30 %
536 15-08-2020 17:12:17 23.9 C 31 %
537 15-08-2020 17:22:17 24.5 C 30 %
538 15-08-2020 17:32:17 25.7 C 28 %
539 15-08-2020 17:42:17 26.1 C 27 %
540 15-08-2020 17:52:17 25.6 C 28 %
541 15-08-2020 18:02:17 25 C 28 %
542 15-08-2020 18:12:17 24.7 C 29 %
543 15-08-2020 18:22:18 24.3 C 30 %
544 15-08-2020 18:32:17 24.1 C 30 %
545 15-08-2020 18:42:17 23.7 C 31 %
546 15-08-2020 18:52:17 23.6 C 32 %
547 15-08-2020 19:02:17 23.5 C 32 %
548 15-08-2020 19:12:17 23.4 C 32 %
549 15-08-2020 19:22:17 23.5 C 32 %
550 15-08-2020 19:32:18 23.7 C 32 %
Sensor: Nr:Datum:Temp:Feuchte:
Aussen-T/F 551 15-08-2020 19:42:18 23.7 C 32 %
552 15-08-2020 19:52:18 23.1 C 32 %
553 15-08-2020 20:02:17 23.5 C 33 %
554 15-08-2020 20:12:17 23.5 C 33 %
555 15-08-2020 20:22:17 23.2 C 33 %
556 15-08-2020 20:32:17 22.8 C 34 %
557 15-08-2020 20:42:17 22.5 C 33 %
558 15-08-2020 20:52:17 22.3 C 33 %
559 15-08-2020 21:02:17 22.2 C 34 %
560 15-08-2020 21:12:17 21.8 C 35 %
561 15-08-2020 21:22:17 21.7 C 36 %
562 15-08-2020 21:32:17 21.4 C 36 %
563 15-08-2020 21:42:17 21.3 C 37 %
564 15-08-2020 21:52:17 21.2 C 37 %
565 15-08-2020 22:02:17 21.2 C 37 %
566 15-08-2020 22:12:17 21.1 C 37 %
567 15-08-2020 22:22:17 20.9 C 38 %
568 15-08-2020 22:32:17 20.8 C 39 %
569 15-08-2020 22:42:17 20.8 C 39 %
570 15-08-2020 22:52:18 20.6 C 39 %
571 15-08-2020 23:02:17 20.4 C 40 %
572 15-08-2020 23:12:17 20.4 C 40 %
573 15-08-2020 23:22:17 20.1 C 40 %
574 15-08-2020 23:32:17 19.8 C 40 %
575 15-08-2020 23:42:17 19.7 C 41 %
Sensor: Nr:Datum:Temp:Feuchte:
Aussen-T/F 576 15-08-2020 23:52:18 19.4 C 41 %
577 16-08-2020 00:02:18 19.3 C 41 %
578 16-08-2020 00:12:18 19.4 C 41 %
579 16-08-2020 00:22:17 19.4 C 42 %
580 16-08-2020 00:32:17 19.1 C 41 %
581 16-08-2020 00:42:17 19.2 C 42 %
582 16-08-2020 00:52:17 19 C 41 %
583 16-08-2020 01:02:18 19 C 41 %
584 16-08-2020 01:12:18 19.1 C 41 %
585 16-08-2020 01:22:17 19 C 41 %
586 16-08-2020 01:32:18 19.1 C 41 %
587 16-08-2020 01:42:18 19.1 C 41 %
588 16-08-2020 01:52:17 19 C 41 %
589 16-08-2020 02:02:17 19.2 C 40 %
590 16-08-2020 02:12:17 19 C 41 %
591 16-08-2020 02:22:17 18.9 C 42 %
592 16-08-2020 02:32:18 18.7 C 42 %
593 16-08-2020 02:42:18 18.6 C 42 %
594 16-08-2020 02:52:17 18.5 C 42 %
595 16-08-2020 03:02:18 18.5 C 42 %
596 16-08-2020 03:12:18 18.2 C 42 %
597 16-08-2020 03:22:17 18 C 42 %
598 16-08-2020 03:32:17 17.9 C 42 %
599 16-08-2020 03:42:17 17.9 C 42 %
600 16-08-2020 03:52:17 17.9 C 42 %
Sensor: Nr:Datum:Temp:Feuchte:
Aussen-T/F 601 16-08-2020 04:02:17 17.9 C 42 %
602 16-08-2020 04:12:17 18 C 41 %
603 16-08-2020 04:22:17 17.7 C 42 %
604 16-08-2020 04:32:17 18 C 41 %
605 16-08-2020 04:42:17 18.1 C 41 %
606 16-08-2020 04:52:17 18.1 C 41 %
607 16-08-2020 05:02:18 17.8 C 41 %
608 16-08-2020 05:12:18 17.7 C 41 %
609 16-08-2020 05:22:18 17.7 C 41 %
610 16-08-2020 05:32:18 17.4 C 41 %
611 16-08-2020 05:42:18 17.2 C 41 %
612 16-08-2020 05:52:17 17.3 C 41 %
613 16-08-2020 06:02:17 17.3 C 41 %
614 16-08-2020 06:12:17 17.2 C 41 %
615 16-08-2020 06:22:17 17.2 C 41 %
616 16-08-2020 06:32:17 17.1 C 41 %
617 16-08-2020 06:42:17 17.1 C 41 %
618 16-08-2020 06:52:17 17.1 C 41 %
619 16-08-2020 07:02:17 17.2 C 41 %
620 16-08-2020 07:12:17 17.3 C 41 %
621 16-08-2020 07:22:18 17.5 C 41 %
622 16-08-2020 07:32:17 17.7 C 41 %
623 16-08-2020 07:42:18 17.7 C 41 %
624 16-08-2020 07:52:18 17.9 C 41 %
625 16-08-2020 08:02:17 18.2 C 41 %
Sensor: Nr:Datum:Temp:Feuchte:
Aussen-T/F 626 16-08-2020 08:12:17 18.3 C 41 %
627 16-08-2020 08:22:17 18.6 C 41 %
628 16-08-2020 08:32:18 18.8 C 41 %
629 16-08-2020 08:42:18 18.9 C 41 %
630 16-08-2020 08:52:17 19.1 C 41 %
631 16-08-2020 09:02:17 19.3 C 40 %
632 16-08-2020 09:12:17 19.7 C 40 %
633 16-08-2020 09:22:17 20.1 C 39 %
634 16-08-2020 09:32:18 20.6 C 37 %
635 16-08-2020 09:42:18 21.6 C 35 %
636 16-08-2020 09:52:18 22 C 33 %
637 16-08-2020 10:02:18 22.6 C 32 %
638 16-08-2020 10:12:18 23 C 31 %
639 16-08-2020 10:22:17 23.7 C 30 %
640 16-08-2020 10:32:18 24.4 C 29 %
641 16-08-2020 10:42:18 24.9 C 29 %
642 16-08-2020 10:52:17 25.7 C 27 %
643 16-08-2020 11:02:17 26.1 C 26 %
644 16-08-2020 11:12:17 26.9 C 26 %
645 16-08-2020 11:22:18 27.3 C 25 %
646 16-08-2020 11:32:17 28.1 C 24 %
647 16-08-2020 11:42:17 29.2 C 22 %
648 16-08-2020 11:52:17 29.4 C 22 %
649 16-08-2020 12:02:19 28.9 C 22 %
650 16-08-2020 12:12:17 28.6 C 22 %
Sensor: Nr:Datum:Temp:Feuchte:
Aussen-T/F 651 16-08-2020 12:22:17 28.5 C 22 %
652 16-08-2020 12:32:17 28.9 C 23 %
653 16-08-2020 12:42:17 29.4 C 22 %
654 16-08-2020 12:52:17 29.3 C 22 %
655 16-08-2020 13:02:17 29.5 C 22 %
656 16-08-2020 13:12:17 29.4 C 22 %
657 16-08-2020 13:22:17 29.5 C 22 %
658 16-08-2020 13:32:17 30 C 21 %
659 16-08-2020 13:42:17 30 C 21 %
660 16-08-2020 13:52:17 30.1 C 21 %
661 16-08-2020 14:02:18 29.7 C 21 %
662 16-08-2020 14:12:18 31 C 20 %
663 16-08-2020 14:22:17 32.2 C 20 %
664 16-08-2020 14:32:17 33.2 C 20 %
665 16-08-2020 14:42:17 34.5 C 20 %
666 16-08-2020 14:52:17 35 C 20 %
667 16-08-2020 15:13:17 32.1 C 20 %
668 16-08-2020 15:23:36 34.9 C 20 %
669 16-08-2020 15:33:17 37.2 C 20 %
670 16-08-2020 15:43:17 34.7 C 20 %
671 16-08-2020 15:53:17 33.7 C 20 %
672 16-08-2020 16:03:17 38.2 C 20 %
673 16-08-2020 16:13:18 36.8 C 20 %
674 16-08-2020 16:23:17 36.8 C 20 %
675 16-08-2020 16:33:17 33.9 C 20 %
Sensor: Nr:Datum:Temp:Feuchte:
Aussen-T/F 676 16-08-2020 16:43:18 31.4 C 20 %
677 16-08-2020 16:53:17 30.6 C 20 %
678 16-08-2020 17:03:17 29.8 C 20 %
679 16-08-2020 17:13:17 28.8 C 20 %
680 16-08-2020 17:23:17 28.7 C 21 %
681 16-08-2020 17:33:18 28.8 C 20 %
682 16-08-2020 17:43:18 28.5 C 20 %
683 16-08-2020 17:53:18 29.4 C 20 %
684 16-08-2020 18:03:18 31.2 C 20 %
685 16-08-2020 18:13:18 30.4 C 20 %
686 16-08-2020 18:23:18 27.9 C 20 %
687 16-08-2020 18:33:17 27.5 C 21 %
688 16-08-2020 18:43:17 26.8 C 22 %
689 16-08-2020 18:53:17 26.4 C 22 %
690 16-08-2020 19:03:18 26.1 C 22 %
691 16-08-2020 19:13:18 24.8 C 26 %
692 16-08-2020 19:23:18 22.8 C 34 %
693 16-08-2020 19:33:17 22.3 C 34 %
694 16-08-2020 19:43:17 21.9 C 35 %
695 16-08-2020 19:53:17 22.3 C 32 %
696 16-08-2020 20:03:17 22.8 C 31 %
697 16-08-2020 20:13:17 21.2 C 34 %
698 16-08-2020 20:23:17 20.4 C 38 %
699 16-08-2020 20:33:17 20 C 39 %
700 16-08-2020 20:43:17 19.5 C 41 %
Sensor: Nr:Datum:Temp:Feuchte:
Aussen-T/F 701 16-08-2020 20:53:18 19.1 C 41 %
702 16-08-2020 21:03:18 19 C 41 %
703 16-08-2020 21:13:18 19.3 C 41 %
704 16-08-2020 21:23:17 19.3 C 41 %
705 16-08-2020 21:33:17 19.4 C 41 %
706 16-08-2020 21:43:17 19.4 C 41 %
707 16-08-2020 21:53:17 19.2 C 41 %
708 16-08-2020 22:03:17 19.3 C 41 %
709 16-08-2020 22:13:18 19.2 C 41 %
710 16-08-2020 22:23:17 19.2 C 41 %
711 16-08-2020 22:33:17 18.9 C 41 %
712 16-08-2020 22:43:17 18.6 C 42 %
713 16-08-2020 22:53:18 18.3 C 41 %
714 16-08-2020 23:03:17 18 C 41 %
715 16-08-2020 23:13:17 18 C 41 %
716 16-08-2020 23:23:17 17.9 C 41 %
717 16-08-2020 23:33:17 18 C 40 %
718 16-08-2020 23:43:17 18.1 C 40 %
719 16-08-2020 23:53:17 18.1 C 40 %
720 17-08-2020 00:03:17 18.4 C 40 %
721 17-08-2020 00:13:17 18.3 C 40 %
722 17-08-2020 00:23:17 18.4 C 40 %
723 17-08-2020 00:33:17 18.5 C 40 %
724 17-08-2020 00:43:18 18.5 C 40 %
725 17-08-2020 00:53:18 18.5 C 40 %
Sensor: Nr:Datum:Temp:Feuchte:
Aussen-T/F 726 17-08-2020 01:03:18 18.3 C 40 %
727 17-08-2020 01:13:18 18.2 C 40 %
728 17-08-2020 01:23:17 18.1 C 40 %
729 17-08-2020 01:33:18 18.1 C 40 %
730 17-08-2020 01:43:18 18.3 C 40 %
731 17-08-2020 01:53:17 18.2 C 40 %
732 17-08-2020 02:03:18 18.1 C 40 %
733 17-08-2020 02:13:18 18 C 40 %
734 17-08-2020 02:23:17 17.9 C 40 %
735 17-08-2020 02:33:17 17.8 C 40 %
736 17-08-2020 02:43:17 17.7 C 40 %
737 17-08-2020 02:53:17 17.7 C 40 %
738 17-08-2020 03:03:17 18 C 40 %
739 17-08-2020 03:13:17 18.3 C 40 %
740 17-08-2020 03:23:17 18.4 C 40 %
741 17-08-2020 03:33:17 18.6 C 40 %
742 17-08-2020 03:43:17 18.4 C 41 %
743 17-08-2020 03:53:17 18.3 C 41 %
744 17-08-2020 04:03:17 18.2 C 41 %
745 17-08-2020 04:13:17 17.9 C 41 %
746 17-08-2020 04:23:17 17.5 C 41 %
747 17-08-2020 04:33:18 17.2 C 41 %
748 17-08-2020 04:43:18 17.2 C 41 %
749 17-08-2020 04:53:18 17.2 C 41 %
750 17-08-2020 05:03:17 17.2 C 41 %
Sensor: Nr:Datum:Temp:Feuchte:
Aussen-T/F 751 17-08-2020 05:13:17 17.3 C 41 %
752 17-08-2020 05:23:17 17.4 C 41 %
753 17-08-2020 05:33:17 17.6 C 40 %
754 17-08-2020 05:43:17 17.5 C 40 %
755 17-08-2020 05:53:17 17.5 C 40 %
756 17-08-2020 06:03:17 17.4 C 40 %
757 17-08-2020 06:13:17 17.4 C 40 %
758 17-08-2020 06:23:17 17.3 C 40 %
759 17-08-2020 06:33:17 17.1 C 40 %
760 17-08-2020 06:43:17 17 C 40 %
761 17-08-2020 06:53:18 17.1 C 40 %
762 17-08-2020 07:03:18 17.1 C 40 %
763 17-08-2020 07:13:18 17.2 C 40 %
764 17-08-2020 07:23:17 17.4 C 40 %
765 17-08-2020 07:33:18 17.5 C 40 %
766 17-08-2020 07:43:18 17.5 C 40 %
767 17-08-2020 07:53:17 17.6 C 40 %
768 17-08-2020 08:03:17 17.7 C 40 %
769 17-08-2020 08:13:17 17.9 C 40 %
770 17-08-2020 08:23:18 18.1 C 40 %
771 17-08-2020 08:33:18 18.3 C 40 %
772 17-08-2020 08:43:18 18.3 C 40 %
773 17-08-2020 08:53:17 18.8 C 41 %
774 17-08-2020 09:03:17 19.3 C 41 %
775 17-08-2020 09:13:17 19.2 C 41 %
Sensor: Nr:Datum:Temp:Feuchte:
Aussen-T/F 776 17-08-2020 09:23:17 19.2 C 39 %
777 17-08-2020 09:33:17 19.3 C 39 %
778 17-08-2020 09:43:17 19.9 C 40 %
779 17-08-2020 09:53:17 20.3 C 37 %
780 17-08-2020 10:03:18 20.6 C 36 %
781 17-08-2020 10:13:18 20.8 C 35 %
782 17-08-2020 10:23:17 20.6 C 35 %
783 17-08-2020 10:33:17 21 C 34 %
784 17-08-2020 10:43:17 21.4 C 34 %
785 17-08-2020 10:53:17 21.5 C 33 %
786 17-08-2020 11:03:17 21.7 C 33 %
787 17-08-2020 11:13:17 22.4 C 32 %
788 17-08-2020 11:23:17 22.6 C 32 %
789 17-08-2020 11:33:17 23.2 C 31 %
790 17-08-2020 11:43:17 23.7 C 30 %
791 17-08-2020 11:53:18 24.2 C 29 %
792 17-08-2020 12:03:17 24.5 C 29 %
793 17-08-2020 12:13:17 24.2 C 29 %
794 17-08-2020 12:23:17 23.5 C 30 %
795 17-08-2020 12:33:18 23.7 C 30 %
796 17-08-2020 12:43:18 24.2 C 29 %
797 17-08-2020 12:53:17 24.4 C 29 %
798 17-08-2020 13:03:17 25.1 C 28 %
799 17-08-2020 13:13:17 25.6 C 27 %
800 17-08-2020 13:23:17 26 C 26 %
Sensor: Nr:Datum:Temp:Feuchte:
Aussen-T/F 801 17-08-2020 13:33:17 25.9 C 26 %
802 17-08-2020 13:43:17 26.2 C 25 %
803 17-08-2020 13:53:17 25.8 C 26 %
804 17-08-2020 14:03:17 25.9 C 25 %
805 17-08-2020 14:13:17 25.8 C 26 %
806 17-08-2020 14:23:17 26.2 C 25 %
807 17-08-2020 14:33:17 28 C 22 %
808 17-08-2020 14:43:17 30.8 C 20 %
809 17-08-2020 14:53:17 28.7 C 20 %
810 17-08-2020 15:03:17 31.3 C 20 %
811 17-08-2020 15:13:17 31 C 20 %
812 17-08-2020 15:23:17 31.2 C 20 %
813 17-08-2020 15:33:17 31.8 C 20 %
814 17-08-2020 15:43:17 28 C 20 %
815 17-08-2020 15:53:18 28.5 C 20 %
816 17-08-2020 16:03:17 30.5 C 20 %
817 17-08-2020 16:13:17 29.3 C 20 %
818 17-08-2020 16:23:17 31.5 C 20 %
819 17-08-2020 16:33:17 31.5 C 20 %
820 17-08-2020 16:43:17 32.3 C 20 %
821 17-08-2020 16:53:18 32.4 C 20 %
822 17-08-2020 17:03:18 33.2 C 20 %
823 17-08-2020 17:13:18 31.4 C 20 %
824 17-08-2020 17:23:18 31.2 C 20 %
825 17-08-2020 17:33:17 31.2 C 20 %
Sensor: Nr:Datum:Temp:Feuchte:
Aussen-T/F 826 17-08-2020 17:43:17 28.4 C 20 %
827 17-08-2020 17:53:17 27.4 C 20 %
828 17-08-2020 18:03:17 26.7 C 20 %
829 17-08-2020 18:13:17 27.2 C 20 %
830 17-08-2020 18:23:18 27.3 C 20 %
831 17-08-2020 18:33:18 26.6 C 20 %
832 17-08-2020 18:43:18 27 C 20 %
833 17-08-2020 18:53:17 27.4 C 20 %
834 17-08-2020 19:03:18 26.7 C 20 %
835 17-08-2020 19:13:18 26.7 C 20 %
836 17-08-2020 19:23:17 26.2 C 20 %
837 17-08-2020 19:33:17 25.9 C 20 %
838 17-08-2020 19:43:17 25 C 21 %
839 17-08-2020 19:53:17 24.3 C 23 %
840 17-08-2020 20:03:17 24.1 C 22 %
841 17-08-2020 20:13:18 22.3 C 26 %
842 17-08-2020 20:23:17 21.4 C 28 %
843 17-08-2020 20:33:17 21 C 29 %
844 17-08-2020 20:43:17 20.8 C 30 %
845 17-08-2020 20:53:17 20.6 C 31 %
846 17-08-2020 21:03:17 20.3 C 31 %
847 17-08-2020 21:13:17 20.4 C 31 %
848 17-08-2020 21:23:17 20.3 C 32 %
849 17-08-2020 21:33:18 20.3 C 32 %
850 17-08-2020 21:43:18 20.2 C 32 %
Sensor: Nr:Datum:Temp:Feuchte:
Aussen-T/F 851 17-08-2020 21:53:18 20.3 C 32 %
852 17-08-2020 22:03:17 20.3 C 31 %
853 17-08-2020 22:13:17 20.1 C 31 %
854 17-08-2020 22:23:18 20.2 C 32 %
855 17-08-2020 22:33:18 20.1 C 31 %
856 17-08-2020 22:43:18 20 C 31 %
857 17-08-2020 22:53:18 19.8 C 32 %
858 17-08-2020 23:03:18 19.3 C 33 %
859 17-08-2020 23:13:18 19.4 C 33 %
860 17-08-2020 23:23:17 19.5 C 33 %
861 17-08-2020 23:33:18 19.8 C 32 %
862 17-08-2020 23:43:18 19.9 C 32 %
863 17-08-2020 23:53:18 19.8 C 32 %
864 18-08-2020 00:03:18 19.3 C 34 %
865 18-08-2020 00:13:18 19.2 C 33 %
866 18-08-2020 00:23:17 19 C 34 %
867 18-08-2020 00:33:18 18.7 C 35 %
868 18-08-2020 00:43:18 18.5 C 35 %
869 18-08-2020 00:53:18 18.9 C 34 %
870 18-08-2020 01:03:18 18.7 C 35 %
871 18-08-2020 01:13:18 18.6 C 35 %
872 18-08-2020 01:23:18 18.5 C 35 %
873 18-08-2020 01:33:17 18.5 C 35 %
874 18-08-2020 01:43:17 18.5 C 35 %
875 18-08-2020 01:53:18 18.5 C 35 %
Sensor: Nr:Datum:Temp:Feuchte:
Aussen-T/F 876 18-08-2020 02:03:17 18.6 C 35 %
877 18-08-2020 02:13:18 18.5 C 35 %
878 18-08-2020 02:23:17 18.5 C 35 %
879 18-08-2020 02:33:17 18.8 C 34 %
880 18-08-2020 02:43:17 18.7 C 35 %
881 18-08-2020 02:53:18 18.3 C 35 %
882 18-08-2020 03:03:18 18 C 35 %
883 18-08-2020 03:13:18 17.5 C 36 %
884 18-08-2020 03:23:18 17.1 C 36 %
885 18-08-2020 03:33:19 16.8 C 37 %
886 18-08-2020 03:43:19 16.9 C 37 %
887 18-08-2020 03:53:18 16.8 C 37 %
888 18-08-2020 04:03:18 16.6 C 37 %
889 18-08-2020 04:13:18 16.9 C 37 %
890 18-08-2020 04:23:18 16.7 C 37 %
891 18-08-2020 04:33:18 16.5 C 38 %
892 18-08-2020 04:43:18 16.3 C 39 %
893 18-08-2020 04:53:18 16.4 C 38 %
894 18-08-2020 05:03:18 16.4 C 38 %
895 18-08-2020 05:13:18 16.7 C 37 %
896 18-08-2020 05:23:18 16.8 C 37 %
897 18-08-2020 05:33:17 17 C 36 %
898 18-08-2020 05:43:17 16.9 C 37 %
899 18-08-2020 05:53:18 16.8 C 37 %
900 18-08-2020 06:03:18 16.5 C 37 %
Sensor: Nr:Datum:Temp:Feuchte:
Aussen-T/F 901 18-08-2020 06:13:18 16.5 C 37 %
902 18-08-2020 06:23:18 16.7 C 36 %
903 18-08-2020 06:33:17 16.7 C 36 %
904 18-08-2020 06:43:17 16.6 C 37 %
905 18-08-2020 06:53:18 17.5 C 35 %
906 18-08-2020 07:03:18 17.7 C 35 %
907 18-08-2020 07:13:18 17.8 C 35 %
908 18-08-2020 07:23:17 17.9 C 35 %
909 18-08-2020 07:33:18 17.7 C 35 %
910 18-08-2020 07:43:18 17.7 C 35 %
911 18-08-2020 07:53:17 17.8 C 35 %
912 18-08-2020 08:03:18 17.7 C 35 %
913 18-08-2020 08:13:18 17.8 C 35 %
914 18-08-2020 08:23:18 17.9 C 35 %
915 18-08-2020 08:33:18 18.1 C 35 %
916 18-08-2020 08:43:18 18.3 C 35 %
917 18-08-2020 08:53:18 18.3 C 35 %
918 18-08-2020 09:03:17 18.6 C 35 %
919 18-08-2020 09:13:17 18.6 C 35 %
920 18-08-2020 09:23:18 19 C 33 %
921 18-08-2020 09:33:18 19.4 C 33 %
922 18-08-2020 09:43:18 19.4 C 33 %
923 18-08-2020 09:53:18 19.6 C 33 %
924 18-08-2020 10:03:18 20 C 32 %
925 18-08-2020 10:13:19 20.4 C 32 %
Sensor: Nr:Datum:Temp:Feuchte:
Aussen-T/F 926 18-08-2020 10:23:18 20.5 C 32 %
927 18-08-2020 10:33:18 20.8 C 31 %
928 18-08-2020 10:43:18 20.9 C 31 %
929 18-08-2020 10:53:17 21.3 C 30 %
930 18-08-2020 11:03:17 22.1 C 29 %
931 18-08-2020 11:13:17 23 C 27 %
932 18-08-2020 11:23:18 23.5 C 27 %
933 18-08-2020 11:33:18 24.5 C 25 %
934 18-08-2020 11:43:18 27.3 C 21 %
935 18-08-2020 11:53:18 24.1 C 23 %
936 18-08-2020 12:03:18 24.7 C 23 %
937 18-08-2020 12:13:18 24.2 C 23 %
938 18-08-2020 12:23:18 23.4 C 24 %
939 18-08-2020 12:33:18 23.8 C 24 %
940 18-08-2020 12:43:18 24.4 C 24 %
941 18-08-2020 12:53:17 25.4 C 22 %
942 18-08-2020 13:03:17 25.1 C 23 %
943 18-08-2020 13:13:18 24.9 C 23 %
944 18-08-2020 13:23:18 24.6 C 23 %
945 18-08-2020 13:33:17 24.4 C 23 %
946 18-08-2020 13:43:17 24.9 C 23 %
947 18-08-2020 13:53:18 25.1 C 22 %
948 18-08-2020 14:03:18 25.1 C 22 %
949 18-08-2020 14:13:18 26.2 C 22 %
950 18-08-2020 14:23:18 26.5 C 21 %
Sensor: Nr:Datum:Temp:Feuchte:
Aussen-T/F 951 18-08-2020 14:33:18 30.1 C 20 %
952 18-08-2020 14:43:18 30.1 C 20 %
953 18-08-2020 14:53:18 27.5 C 20 %
954 18-08-2020 15:03:18 26.8 C 20 %
955 18-08-2020 15:13:18 26.8 C 20 %
956 18-08-2020 15:23:18 27.7 C 20 %
957 18-08-2020 15:33:17 29.6 C 20 %
958 18-08-2020 15:43:17 27.1 C 20 %
959 18-08-2020 15:53:17 28.3 C 20 %
960 18-08-2020 16:03:17 25.5 C 20 %
961 18-08-2020 16:13:17 24.1 C 20 %
962 18-08-2020 16:23:17 24 C 20 %
963 18-08-2020 16:33:17 23.6 C 21 %
964 18-08-2020 16:43:17 18.2 C 38 %
965 18-08-2020 16:53:17 17.5 C 42 %
966 18-08-2020 17:03:17 17.3 C 41 %
967 18-08-2020 17:13:17 18.1 C 40 %
968 18-08-2020 17:23:17 18.7 C 39 %
969 18-08-2020 17:33:17 19.8 C 37 %
970 18-08-2020 17:43:17 20.3 C 36 %
971 18-08-2020 17:53:17 20.5 C 35 %
972 18-08-2020 18:03:18 20.2 C 35 %
973 18-08-2020 18:13:18 19.2 C 36 %
974 18-08-2020 18:23:17 19.7 C 37 %
975 18-08-2020 18:33:17 19.2 C 37 %
Sensor: Nr:Datum:Temp:Feuchte:
Aussen-T/F 976 18-08-2020 18:43:17 19.5 C 38 %
977 18-08-2020 18:53:17 19.1 C 38 %
978 18-08-2020 19:03:17 18.9 C 39 %
979 18-08-2020 19:13:17 18.4 C 40 %
980 18-08-2020 19:23:17 18.1 C 40 %
981 18-08-2020 19:33:17 18.1 C 40 %
982 18-08-2020 19:43:17 18.1 C 41 %
983 18-08-2020 19:53:17 18.1 C 41 %
984 18-08-2020 20:03:17 18 C 40 %
985 18-08-2020 20:13:17 18.1 C 40 %
986 18-08-2020 20:23:17 17.9 C 41 %
987 18-08-2020 20:33:17 17.8 C 40 %
988 18-08-2020 20:43:17 17.7 C 40 %
989 18-08-2020 20:53:17 17.2 C 40 %
990 18-08-2020 21:03:17 17.1 C 41 %
991 18-08-2020 21:13:17 16.8 C 42 %
992 18-08-2020 21:23:18 16.7 C 41 %
993 18-08-2020 21:33:18 16.5 C 41 %
994 18-08-2020 21:43:18 16.5 C 42 %
995 18-08-2020 21:53:17 16.2 C 42 %
996 18-08-2020 22:03:17 16 C 43 %
997 18-08-2020 22:13:17 16 C 42 %
998 18-08-2020 22:23:17 16 C 42 %
999 18-08-2020 22:33:17 15.9 C 43 %
1000 18-08-2020 22:43:18 15.7 C 42 %
Sensor: Nr:Datum:Temp:Feuchte:
Aussen-T/F 1001 18-08-2020 22:53:17 15.5 C 42 %
1002 18-08-2020 23:03:17 15.2 C 42 %
1003 18-08-2020 23:13:17 15 C 42 %
1004 18-08-2020 23:23:17 14.9 C 43 %
1005 18-08-2020 23:33:17 14.8 C 43 %
1006 18-08-2020 23:43:17 14.7 C 43 %
1007 18-08-2020 23:53:17 14.5 C 43 %
1008 19-08-2020 00:03:18 14.5 C 43 %
1009 19-08-2020 00:13:18 14.5 C 43 %
1010 19-08-2020 00:23:18 14.6 C 42 %
1011 19-08-2020 00:33:18 14.6 C 42 %
1012 19-08-2020 00:43:18 14.4 C 42 %
1013 19-08-2020 00:53:17 14.5 C 42 %
1014 19-08-2020 01:03:17 14.4 C 42 %
1015 19-08-2020 01:13:17 14.2 C 42 %
1016 19-08-2020 01:23:17 14.1 C 42 %
1017 19-08-2020 01:33:17 14 C 42 %
1018 19-08-2020 01:43:17 14 C 42 %
1019 19-08-2020 01:53:17 13.9 C 42 %
1020 19-08-2020 02:03:17 13.8 C 42 %
1021 19-08-2020 02:13:17 13.8 C 42 %
1022 19-08-2020 02:23:17 14.1 C 41 %
1023 19-08-2020 02:33:18 13.7 C 42 %
1024 19-08-2020 02:43:18 13.8 C 42 %
1025 19-08-2020 02:53:17 13.6 C 42 %
Sensor: Nr:Datum:Temp:Feuchte:
Aussen-T/F 1026 19-08-2020 03:03:17 13.8 C 42 %
1027 19-08-2020 03:13:17 13.5 C 42 %
1028 19-08-2020 03:23:17 13.5 C 42 %
1029 19-08-2020 03:33:17 13.6 C 41 %
1030 19-08-2020 03:43:17 13.3 C 41 %
1031 19-08-2020 03:53:17 13.2 C 41 %
1032 19-08-2020 04:03:17 13.2 C 41 %
1033 19-08-2020 04:13:17 13.1 C 41 %
1034 19-08-2020 04:23:17 13.2 C 41 %
1035 19-08-2020 04:33:18 12.9 C 42 %
1036 19-08-2020 04:43:18 12.9 C 42 %
1037 19-08-2020 04:53:17 12.8 C 42 %
1038 19-08-2020 05:03:18 12.8 C 42 %
1039 19-08-2020 05:13:18 12.9 C 42 %
1040 19-08-2020 05:23:17 13 C 41 %
1041 19-08-2020 05:33:17 12.8 C 42 %
1042 19-08-2020 05:43:17 13.1 C 41 %
1043 19-08-2020 05:53:17 12.9 C 42 %
1044 19-08-2020 06:03:17 12.8 C 42 %
1045 19-08-2020 06:13:17 12.8 C 42 %
1046 19-08-2020 06:23:18 13.1 C 41 %
1047 19-08-2020 06:33:18 13 C 41 %
1048 19-08-2020 06:43:18 13.3 C 41 %
1049 19-08-2020 06:53:18 13.5 C 41 %
1050 19-08-2020 07:03:17 13.7 C 41 %
Sensor: Nr:Datum:Temp:Feuchte:
Aussen-T/F 1051 19-08-2020 07:13:17 13.7 C 41 %
1052 19-08-2020 07:23:17 13.9 C 41 %
1053 19-08-2020 07:33:17 13.9 C 41 %
1054 19-08-2020 07:43:17 14.2 C 40 %
1055 19-08-2020 07:53:18 14.3 C 41 %
1056 19-08-2020 08:03:18 14.2 C 41 %
1057 19-08-2020 08:13:18 14.7 C 41 %
1058 19-08-2020 08:23:17 14.7 C 41 %
1059 19-08-2020 08:33:18 15 C 41 %
1060 19-08-2020 08:43:18 15 C 41 %
1061 19-08-2020 08:53:18 15.2 C 41 %
1062 19-08-2020 09:03:17 15 C 40 %
1063 19-08-2020 09:13:18 15 C 40 %
1064 19-08-2020 09:23:17 15.2 C 40 %
1065 19-08-2020 09:33:18 15.9 C 40 %
1066 19-08-2020 09:43:18 15.9 C 40 %
1067 19-08-2020 09:53:17 16 C 40 %
1068 19-08-2020 10:03:17 16 C 40 %
1069 19-08-2020 10:13:17 16.2 C 41 %
1070 19-08-2020 10:23:17 16.6 C 41 %
1071 19-08-2020 10:33:18 17 C 39 %
1072 19-08-2020 10:43:18 17.5 C 38 %
1073 19-08-2020 10:53:17 18.2 C 37 %
1074 19-08-2020 11:03:17 19.3 C 35 %
1075 19-08-2020 11:13:18 19.9 C 35 %
Sensor: Nr:Datum:Temp:Feuchte:
Aussen-T/F 1076 19-08-2020 11:23:17 20.8 C 35 %
1077 19-08-2020 11:33:17 22.5 C 32 %
1078 19-08-2020 11:43:17 25.1 C 29 %
1079 19-08-2020 11:53:17 25.8 C 27 %
1080 19-08-2020 12:03:17 26.7 C 26 %
1081 19-08-2020 12:13:17 24.4 C 27 %
1082 19-08-2020 12:23:18 21.6 C 32 %
1083 19-08-2020 12:33:18 21.4 C 33 %
1084 19-08-2020 12:43:18 21.8 C 33 %
1085 19-08-2020 12:53:17 22.3 C 31 %
1086 19-08-2020 13:03:17 23.4 C 29 %
1087 19-08-2020 13:13:17 25.3 C 26 %
1088 19-08-2020 13:23:17 25.8 C 25 %
1089 19-08-2020 13:33:17 26.2 C 24 %
1090 19-08-2020 13:43:17 26.1 C 23 %
1091 19-08-2020 13:53:17 26.4 C 22 %
1092 19-08-2020 14:03:17 27 C 21 %
1093 19-08-2020 14:13:17 27.2 C 21 %
1094 19-08-2020 14:23:17 27.9 C 20 %
1095 19-08-2020 14:33:18 27 C 21 %
1096 19-08-2020 14:43:18 29.9 C 20 %
1097 19-08-2020 14:53:17 29.2 C 20 %
1098 19-08-2020 15:03:17 27 C 20 %
1099 19-08-2020 15:13:17 27.1 C 20 %
1100 19-08-2020 15:23:17 26.7 C 21 %
Sensor: Nr:Datum:Temp:Feuchte:
Aussen-T/F 1101 19-08-2020 15:33:18 29.6 C 20 %
1102 19-08-2020 15:43:18 30.3 C 20 %
1103 19-08-2020 15:53:18 32.6 C 20 %
1104 19-08-2020 16:03:17 29.1 C 20 %
1105 19-08-2020 16:13:17 27.4 C 21 %
1106 19-08-2020 16:23:18 27 C 22 %
1107 19-08-2020 16:33:18 27.6 C 21 %
1108 19-08-2020 16:43:18 29.9 C 20 %
1109 19-08-2020 16:53:17 31.6 C 20 %
1110 19-08-2020 17:03:18 31.7 C 20 %
1111 19-08-2020 17:13:18 32.8 C 20 %
1112 19-08-2020 17:23:17 31.7 C 20 %
1113 19-08-2020 17:33:17 30.8 C 20 %
1114 19-08-2020 17:43:17 30.7 C 20 %
1115 19-08-2020 17:53:18 32.7 C 20 %
1116 19-08-2020 18:03:17 32 C 20 %
1117 19-08-2020 18:13:17 29.7 C 20 %
1118 19-08-2020 18:23:17 29 C 20 %
1119 19-08-2020 18:33:17 28 C 20 %
1120 19-08-2020 18:43:17 26.5 C 22 %
1121 19-08-2020 18:53:17 25.3 C 23 %
1122 19-08-2020 19:03:18 24.4 C 25 %
1123 19-08-2020 19:13:18 24.1 C 25 %
1124 19-08-2020 19:23:18 23.9 C 26 %
1125 19-08-2020 19:33:18 23.2 C 26 %
Sensor: Nr:Datum:Temp:Feuchte:
Aussen-T/F 1126 19-08-2020 19:43:18 23 C 26 %
1127 19-08-2020 19:53:17 22.9 C 27 %
1128 19-08-2020 20:03:17 22.5 C 28 %
1129 19-08-2020 20:13:17 22.3 C 28 %
1130 19-08-2020 20:23:17 22 C 29 %
1131 19-08-2020 20:33:17 21.7 C 30 %
1132 19-08-2020 20:43:18 21.5 C 30 %
1133 19-08-2020 20:53:17 21.4 C 29 %
1134 19-08-2020 21:03:17 21.3 C 30 %
1135 19-08-2020 21:13:17 21 C 30 %
1136 19-08-2020 21:23:17 20.3 C 32 %
1137 19-08-2020 21:33:17 20.5 C 31 %
1138 19-08-2020 21:43:17 20.4 C 31 %
1139 19-08-2020 21:53:17 20.4 C 32 %
1140 19-08-2020 22:03:17 20.5 C 32 %
1141 19-08-2020 22:13:18 20.5 C 32 %
1142 19-08-2020 22:23:17 20.8 C 32 %
1143 19-08-2020 22:33:17 20.8 C 32 %
1144 19-08-2020 22:43:17 20.9 C 32 %
1145 19-08-2020 22:53:18 20.5 C 32 %
1146 19-08-2020 23:03:18 20.4 C 33 %
1147 19-08-2020 23:13:18 20.3 C 33 %
1148 19-08-2020 23:23:18 20.6 C 33 %
1149 19-08-2020 23:33:17 20.6 C 33 %
1150 19-08-2020 23:43:17 20.6 C 32 %
Sensor: Nr:Datum:Temp:Feuchte:
Aussen-T/F 1151 19-08-2020 23:53:17 19.7 C 35 %
1152 20-08-2020 00:03:18 20.1 C 34 %
1153 20-08-2020 00:13:18 20.1 C 34 %
1154 20-08-2020 00:23:17 20.3 C 34 %
1155 20-08-2020 00:33:17 20.4 C 34 %
1156 20-08-2020 00:43:17 20.3 C 34 %
1157 20-08-2020 00:53:18 20.3 C 34 %
1158 20-08-2020 01:03:18 20.4 C 33 %
1159 20-08-2020 01:13:18 20.7 C 32 %
1160 20-08-2020 01:23:17 20.5 C 33 %
1161 20-08-2020 01:33:18 20.7 C 33 %
1162 20-08-2020 01:43:18 20.4 C 34 %
1163 20-08-2020 01:53:17 20.2 C 34 %
1164 20-08-2020 02:03:18 19.9 C 35 %
1165 20-08-2020 02:13:18 19.2 C 37 %
1166 20-08-2020 02:23:17 19 C 38 %
1167 20-08-2020 02:33:18 19 C 39 %
1168 20-08-2020 02:43:18 19 C 38 %
1169 20-08-2020 02:53:17 19.1 C 38 %
1170 20-08-2020 03:03:17 19.1 C 37 %
1171 20-08-2020 03:13:18 19.1 C 37 %
1172 20-08-2020 03:23:17 19 C 38 %
1173 20-08-2020 03:33:17 19 C 37 %
1174 20-08-2020 03:43:17 18.9 C 38 %
1175 20-08-2020 03:53:17 19.1 C 37 %
Sensor: Nr:Datum:Temp:Feuchte:
Aussen-T/F 1176 20-08-2020 04:03:17 19.1 C 38 %
1177 20-08-2020 04:13:17 19.1 C 37 %
1178 20-08-2020 04:23:17 19.1 C 37 %
1179 20-08-2020 04:33:17 19 C 38 %
1180 20-08-2020 04:43:17 18.6 C 40 %
1181 20-08-2020 04:53:18 18.6 C 41 %
1182 20-08-2020 05:03:17 18.5 C 41 %
1183 20-08-2020 05:13:17 18.4 C 41 %
1184 20-08-2020 05:23:17 18.4 C 41 %
1185 20-08-2020 05:33:17 18.4 C 41 %
1186 20-08-2020 05:43:17 18.5 C 41 %
1187 20-08-2020 05:53:18 18.4 C 41 %
1188 20-08-2020 06:03:18 18.5 C 41 %
1189 20-08-2020 06:13:18 18.4 C 41 %
1190 20-08-2020 06:23:17 18.5 C 40 %
1191 20-08-2020 06:33:17 18.3 C 40 %
1192 20-08-2020 06:43:17 18.3 C 40 %
1193 20-08-2020 06:53:17 18.3 C 40 %
1194 20-08-2020 07:03:17 18.2 C 40 %
1195 20-08-2020 07:13:17 18.5 C 40 %
1196 20-08-2020 07:23:17 18.4 C 40 %
1197 20-08-2020 07:33:17 18.4 C 40 %
1198 20-08-2020 07:43:17 18.7 C 40 %
1199 20-08-2020 07:53:18 19 C 40 %
1200 20-08-2020 08:03:17 19 C 39 %
Sensor: Nr:Datum:Temp:Feuchte:
Aussen-T/F 1201 20-08-2020 08:13:17 18.9 C 40 %
1202 20-08-2020 08:23:17 19.1 C 40 %
1203 20-08-2020 08:33:17 19.3 C 40 %
1204 20-08-2020 08:43:18 19.3 C 40 %
1205 20-08-2020 08:53:17 19.6 C 40 %
1206 20-08-2020 09:03:18 20.4 C 40 %
1207 20-08-2020 09:13:18 20.8 C 37 %
1208 20-08-2020 09:23:17 21.4 C 35 %
1209 20-08-2020 09:33:17 21.8 C 35 %
1210 20-08-2020 09:43:17 21.2 C 36 %
1211 20-08-2020 09:53:17 21.6 C 36 %
1212 20-08-2020 10:03:18 21.6 C 36 %
1213 20-08-2020 10:13:18 21.2 C 37 %
1214 20-08-2020 10:23:18 22.2 C 33 %
1215 20-08-2020 10:33:18 23.6 C 31 %
1216 20-08-2020 10:43:18 23.2 C 31 %
1217 20-08-2020 10:53:17 22.8 C 34 %
1218 20-08-2020 11:03:17 22.9 C 34 %
1219 20-08-2020 11:13:17 24.1 C 31 %
1220 20-08-2020 11:23:17 24.5 C 31 %
1221 20-08-2020 11:33:18 26.2 C 30 %
1222 20-08-2020 11:43:18 27.9 C 26 %
1223 20-08-2020 11:53:17 28.2 C 25 %
1224 20-08-2020 12:03:17 30.4 C 24 %
1225 20-08-2020 12:13:17 27.8 C 25 %
Sensor: Nr:Datum:Temp:Feuchte:
Aussen-T/F 1226 20-08-2020 12:23:17 26.7 C 25 %
1227 20-08-2020 12:33:17 25.9 C 27 %
1228 20-08-2020 12:43:17 26.1 C 26 %
1229 20-08-2020 12:53:17 26.2 C 26 %
1230 20-08-2020 13:03:18 26.9 C 26 %
1231 20-08-2020 13:13:18 27.6 C 25 %
1232 20-08-2020 13:23:17 28 C 24 %
1233 20-08-2020 13:33:17 28 C 24 %
1234 20-08-2020 13:43:17 28.4 C 24 %
1235 20-08-2020 13:53:17 28.9 C 24 %
1236 20-08-2020 14:03:17 29.7 C 23 %
1237 20-08-2020 14:13:17 30.2 C 22 %
1238 20-08-2020 14:23:17 30.9 C 21 %
1239 20-08-2020 14:33:17 34.8 C 20 %
1240 20-08-2020 14:43:17 36.6 C 20 %
1241 20-08-2020 14:53:17 36.5 C 20 %
1242 20-08-2020 15:03:17 36.7 C 20 %
1243 20-08-2020 15:13:17 35.4 C 20 %
1244 20-08-2020 15:23:17 37.2 C 20 %
1245 20-08-2020 15:33:18 37.5 C 20 %
1246 20-08-2020 15:43:18 37.2 C 20 %
1247 20-08-2020 15:53:17 36.9 C 20 %
1248 20-08-2020 16:03:17 36.5 C 20 %
1249 20-08-2020 16:13:17 36.2 C 20 %
1250 20-08-2020 16:23:18 36.2 C 20 %
Sensor: Nr:Datum:Temp:Feuchte:
Aussen-T/F 1251 20-08-2020 16:33:18 33.9 C 20 %
1252 20-08-2020 16:43:18 37 C 20 %
1253 20-08-2020 16:53:18 35.8 C 20 %
1254 20-08-2020 17:03:18 37.4 C 20 %
1255 20-08-2020 17:13:18 35.4 C 20 %
1256 20-08-2020 17:23:17 33.4 C 20 %
1257 20-08-2020 17:33:17 34.2 C 20 %
1258 20-08-2020 17:43:17 34.7 C 20 %
1259 20-08-2020 17:53:17 35.7 C 20 %
1260 20-08-2020 18:03:18 34.7 C 20 %
1261 20-08-2020 18:13:18 33.6 C 20 %
1262 20-08-2020 18:23:17 32.8 C 20 %
1263 20-08-2020 18:33:18 33.4 C 20 %
1264 20-08-2020 18:43:18 33.2 C 20 %
1265 20-08-2020 18:53:17 33 C 20 %
1266 20-08-2020 19:03:18 32.2 C 20 %
1267 20-08-2020 19:13:18 31.8 C 20 %
1268 20-08-2020 19:23:17 30.8 C 20 %
1269 20-08-2020 19:33:17 29.1 C 22 %
1270 20-08-2020 19:43:17 27.8 C 24 %
1271 20-08-2020 19:53:17 27.4 C 23 %
1272 20-08-2020 20:03:18 26.6 C 25 %
1273 20-08-2020 20:13:18 26.3 C 25 %
1274 20-08-2020 20:23:17 25.7 C 26 %
1275 20-08-2020 20:33:17 25.4 C 26 %
Sensor: Nr:Datum:Temp:Feuchte:
Aussen-T/F 1276 20-08-2020 20:43:17 25.2 C 26 %
1277 20-08-2020 20:53:18 25.1 C 26 %
1278 20-08-2020 21:03:18 24.8 C 27 %
1279 20-08-2020 21:13:18 24.7 C 27 %
1280 20-08-2020 21:23:17 24.4 C 27 %
1281 20-08-2020 21:33:17 24.3 C 28 %
1282 20-08-2020 21:43:17 24.2 C 27 %
1283 20-08-2020 21:53:17 24 C 27 %
1284 20-08-2020 22:03:17 24.1 C 27 %
1285 20-08-2020 22:13:17 23.7 C 29 %
1286 20-08-2020 22:23:17 23.6 C 29 %
1287 20-08-2020 22:33:17 23.7 C 28 %
1288 20-08-2020 22:43:17 23.3 C 29 %
1289 20-08-2020 22:53:17 23.3 C 29 %
1290 20-08-2020 23:03:17 23.4 C 28 %
1291 20-08-2020 23:13:17 23.3 C 29 %
1292 20-08-2020 23:23:17 23.3 C 29 %
1293 20-08-2020 23:33:18 23.7 C 28 %
1294 20-08-2020 23:43:18 23.4 C 29 %
1295 20-08-2020 23:53:17 23.3 C 29 %
1296 21-08-2020 00:03:17 23.8 C 28 %
1297 21-08-2020 00:13:17 23.7 C 28 %
1298 21-08-2020 00:23:17 23.3 C 29 %
1299 21-08-2020 00:33:17 24.4 C 27 %
1300 21-08-2020 00:43:18 23.5 C 28 %
Sensor: Nr:Datum:Temp:Feuchte:
Aussen-T/F 1301 21-08-2020 00:53:18 23.3 C 29 %
1302 21-08-2020 01:03:18 23.1 C 29 %
1303 21-08-2020 01:13:18 23.4 C 29 %
1304 21-08-2020 01:23:17 24.3 C 27 %
1305 21-08-2020 01:33:17 23.5 C 29 %
1306 21-08-2020 01:43:17 23 C 29 %
1307 21-08-2020 01:53:18 23.4 C 29 %
1308 21-08-2020 02:03:18 23.6 C 29 %
1309 21-08-2020 02:13:18 23.8 C 28 %
1310 21-08-2020 02:23:17 23.7 C 28 %
1311 21-08-2020 02:33:17 24.4 C 26 %
1312 21-08-2020 02:43:17 25.2 C 26 %
1313 21-08-2020 02:53:18 24.7 C 26 %
1314 21-08-2020 03:03:17 24.9 C 26 %
1315 21-08-2020 03:13:17 25.1 C 26 %
1316 21-08-2020 03:23:17 25.3 C 25 %
1317 21-08-2020 03:33:17 25.1 C 25 %
1318 21-08-2020 03:43:17 24.6 C 26 %
1319 21-08-2020 03:53:17 24.8 C 26 %
1320 21-08-2020 04:03:17 24.6 C 26 %
1321 21-08-2020 04:13:18 24.4 C 26 %
1322 21-08-2020 04:23:18 24.8 C 26 %
1323 21-08-2020 04:33:18 23.9 C 28 %
1324 21-08-2020 04:43:18 23.8 C 27 %
1325 21-08-2020 04:53:17 23.5 C 29 %
Sensor: Nr:Datum:Temp:Feuchte:
Aussen-T/F 1326 21-08-2020 05:03:17 23.1 C 29 %
1327 21-08-2020 05:13:17 23 C 29 %
1328 21-08-2020 05:23:17 22.9 C 30 %
1329 21-08-2020 05:33:17 22.6 C 30 %
1330 21-08-2020 05:43:17 22.6 C 30 %
1331 21-08-2020 05:53:17 22.4 C 31 %
1332 21-08-2020 06:03:18 22.5 C 30 %
1333 21-08-2020 06:13:18 22.4 C 31 %
1334 21-08-2020 06:23:17 22.3 C 31 %
1335 21-08-2020 06:33:17 22.4 C 31 %
1336 21-08-2020 06:43:17 22.5 C 30 %
1337 21-08-2020 06:53:17 22.7 C 30 %
1338 21-08-2020 07:03:17 22.6 C 30 %
1339 21-08-2020 07:13:17 22.9 C 30 %
1340 21-08-2020 07:23:17 22.7 C 30 %
1341 21-08-2020 07:33:17 22.9 C 30 %
1342 21-08-2020 07:43:17 22.9 C 30 %
1343 21-08-2020 07:53:17 23.4 C 29 %
1344 21-08-2020 08:03:17 23.8 C 29 %
1345 21-08-2020 08:13:17 24 C 28 %
1346 21-08-2020 08:23:17 24.2 C 28 %
1347 21-08-2020 08:33:17 24.7 C 28 %
1348 21-08-2020 08:43:17 24.7 C 28 %
1349 21-08-2020 08:53:17 24.8 C 28 %
1350 21-08-2020 09:03:17 25.3 C 27 %
Sensor: Nr:Datum:Temp:Feuchte:
Aussen-T/F 1351 21-08-2020 09:13:17 26.4 C 26 %
1352 21-08-2020 09:23:17 25.9 C 27 %
1353 21-08-2020 09:33:18 25.6 C 27 %
1354 21-08-2020 09:43:18 25.2 C 27 %
1355 21-08-2020 09:53:17 25.2 C 27 %
1356 21-08-2020 10:03:18 26 C 26 %
1357 21-08-2020 10:13:18 26.8 C 24 %
1358 21-08-2020 10:23:17 26.5 C 25 %
1359 21-08-2020 10:33:18 26.6 C 25 %
1360 21-08-2020 10:43:18 27 C 24 %
1361 21-08-2020 10:53:18 27.3 C 24 %
1362 21-08-2020 11:03:17 27.6 C 23 %
1363 21-08-2020 11:13:17 27.9 C 23 %
1364 21-08-2020 11:23:17 28 C 22 %
1365 21-08-2020 11:33:17 27.3 C 23 %
1366 21-08-2020 11:43:17 26.9 C 23 %
1367 21-08-2020 11:53:17 26.6 C 24 %
1368 21-08-2020 12:03:18 26.9 C 23 %
1369 21-08-2020 12:13:18 27.4 C 23 %
1370 21-08-2020 12:23:18 27.6 C 24 %
1371 21-08-2020 12:33:17 27.8 C 23 %
1372 21-08-2020 12:43:17 27.8 C 23 %
1373 21-08-2020 12:53:17 28.6 C 22 %
1374 21-08-2020 13:03:18 29.4 C 21 %
1375 21-08-2020 13:13:18 29.5 C 21 %
Sensor: Nr:Datum:Temp:Feuchte:
Aussen-T/F 1376 21-08-2020 13:23:17 29.3 C 21 %
1377 21-08-2020 13:33:17 29.2 C 21 %
1378 21-08-2020 13:43:17 29.5 C 21 %
1379 21-08-2020 13:53:17 28.9 C 22 %
1380 21-08-2020 14:03:17 28.1 C 22 %
1381 21-08-2020 14:13:17 28 C 22 %
1382 21-08-2020 14:23:17 28.1 C 24 %
1383 21-08-2020 14:33:17 28.3 C 23 %
1384 21-08-2020 14:43:17 29 C 22 %
1385 21-08-2020 14:53:17 30.1 C 21 %
1386 21-08-2020 15:03:17 30.8 C 21 %
1387 21-08-2020 15:13:17 32.1 C 20 %
1388 21-08-2020 15:23:17 32.4 C 20 %
1389 21-08-2020 15:33:17 30.8 C 20 %
1390 21-08-2020 15:43:17 30.6 C 20 %
1391 21-08-2020 15:53:17 30.1 C 20 %
1392 21-08-2020 16:03:17 29.8 C 21 %
1393 21-08-2020 16:13:18 29.7 C 21 %
1394 21-08-2020 16:23:18 29 C 21 %
1395 21-08-2020 16:33:17 28.4 C 23 %
1396 21-08-2020 16:43:18 28.7 C 22 %
1397 21-08-2020 16:53:17 27.6 C 25 %
1398 21-08-2020 17:03:17 27.5 C 25 %
1399 21-08-2020 17:13:17 27.3 C 25 %
1400 21-08-2020 17:23:17 27.3 C 26 %
Sensor: Nr:Datum:Temp:Feuchte:
Aussen-T/F 1401 21-08-2020 17:33:17 27.3 C 26 %
1402 21-08-2020 17:43:17 27.9 C 25 %
1403 21-08-2020 17:53:17 27.9 C 26 %
1404 21-08-2020 18:03:18 28.2 C 25 %
1405 21-08-2020 18:13:18 28.3 C 23 %
1406 21-08-2020 18:23:17 28.2 C 22 %
1407 21-08-2020 18:33:18 29 C 21 %
1408 21-08-2020 18:43:18 29.2 C 21 %
1409 21-08-2020 18:53:17 29.2 C 21 %
1410 21-08-2020 19:03:17 29 C 21 %
1411 21-08-2020 19:13:18 28.3 C 22 %
1412 21-08-2020 19:24:17 27.7 C 23 %
1413 21-08-2020 19:33:17 27 C 23 %
1414 21-08-2020 19:43:18 26.3 C 25 %
1415 21-08-2020 19:54:17 26.4 C 25 %
1416 21-08-2020 20:03:18 26.5 C 25 %
1417 21-08-2020 20:13:18 26 C 25 %
1418 21-08-2020 20:23:17 25.4 C 26 %
1419 21-08-2020 20:33:17 24.9 C 27 %
1420 21-08-2020 20:43:17 24.6 C 27 %
1421 21-08-2020 20:53:18 24.6 C 27 %
1422 21-08-2020 21:03:18 24.7 C 27 %
1423 21-08-2020 21:13:18 24.7 C 26 %
1424 21-08-2020 21:23:18 24.4 C 26 %
1425 21-08-2020 21:33:17 24.3 C 27 %
Sensor: Nr:Datum:Temp:Feuchte:
Aussen-T/F 1426 21-08-2020 21:43:17 24.5 C 26 %
1427 21-08-2020 21:53:17 23.8 C 28 %
1428 21-08-2020 22:03:17 23.7 C 28 %
1429 21-08-2020 22:13:17 23.5 C 28 %
1430 21-08-2020 22:23:17 23.2 C 29 %
1431 21-08-2020 22:34:17 23.2 C 29 %
1432 21-08-2020 22:44:17 22.9 C 31 %
1433 21-08-2020 22:53:18 22.4 C 31 %
1434 21-08-2020 23:03:18 22.3 C 31 %
1435 21-08-2020 23:13:18 22.3 C 31 %
1436 21-08-2020 23:24:17 22.2 C 32 %
1437 21-08-2020 23:33:18 22 C 32 %
1438 21-08-2020 23:43:18 21.9 C 32 %
1439 21-08-2020 23:53:18 21.9 C 33 %
1440 22-08-2020 00:04:17 21.9 C 33 %
1441 22-08-2020 00:14:17 21.9 C 33 %
1442 22-08-2020 00:24:17 22.2 C 32 %
1443 22-08-2020 00:33:18 22 C 32 %
1444 22-08-2020 00:43:18 21.9 C 33 %
1445 22-08-2020 00:53:17 21.8 C 33 %
1446 22-08-2020 01:03:18 21.7 C 33 %
1447 22-08-2020 01:13:18 21.9 C 33 %
1448 22-08-2020 01:23:17 21.9 C 33 %
1449 22-08-2020 01:33:18 22.1 C 31 %
1450 22-08-2020 01:43:18 21.9 C 32 %
Sensor: Nr:Datum:Temp:Feuchte:
Aussen-T/F 1451 22-08-2020 01:53:17 21.8 C 33 %
1452 22-08-2020 02:03:18 21.7 C 33 %
1453 22-08-2020 02:13:18 21.6 C 33 %
1454 22-08-2020 02:23:18 21.4 C 33 %
1455 22-08-2020 02:34:17 21.4 C 33 %
1456 22-08-2020 02:43:18 21.7 C 33 %
1457 22-08-2020 02:54:17 21.7 C 33 %
1458 22-08-2020 03:04:18 21.7 C 33 %
1459 22-08-2020 03:14:18 21.5 C 33 %
1460 22-08-2020 03:24:17 21.3 C 33 %
1461 22-08-2020 03:34:17 21.1 C 33 %
1462 22-08-2020 03:44:17 21.1 C 33 %
1463 22-08-2020 03:54:17 20.9 C 34 %
1464 22-08-2020 04:04:17 20.7 C 34 %
1465 22-08-2020 04:14:17 20.8 C 34 %
1466 22-08-2020 04:24:17 20.6 C 34 %
1467 22-08-2020 04:34:17 20.6 C 34 %
1468 22-08-2020 04:44:17 20.7 C 34 %
1469 22-08-2020 04:54:17 20.7 C 34 %
1470 22-08-2020 05:04:17 20.5 C 34 %
1471 22-08-2020 05:14:17 20.6 C 35 %
1472 22-08-2020 05:24:17 20.5 C 35 %
1473 22-08-2020 05:34:17 20.6 C 35 %
1474 22-08-2020 05:44:17 21.4 C 33 %
1475 22-08-2020 05:54:17 21.5 C 32 %
Sensor: Nr:Datum:Temp:Feuchte:
Aussen-T/F 1476 22-08-2020 06:04:17 21.3 C 33 %
1477 22-08-2020 06:14:17 21.3 C 33 %
1478 22-08-2020 06:24:17 21.2 C 33 %
1479 22-08-2020 06:34:17 21.6 C 32 %
1480 22-08-2020 06:44:17 21.6 C 32 %
1481 22-08-2020 06:54:18 21.7 C 32 %
1482 22-08-2020 07:04:17 21.9 C 32 %
1483 22-08-2020 07:14:17 21.8 C 32 %
1484 22-08-2020 07:24:17 21.8 C 32 %
1485 22-08-2020 07:34:17 21.8 C 32 %
1486 22-08-2020 07:44:17 21.7 C 32 %
1487 22-08-2020 07:54:17 21.8 C 32 %
1488 22-08-2020 08:04:17 21.9 C 32 %
1489 22-08-2020 08:14:17 21.8 C 32 %
1490 22-08-2020 08:24:17 21.8 C 32 %
1491 22-08-2020 08:34:17 21.9 C 31 %
1492 22-08-2020 08:44:18 21.9 C 31 %
1493 22-08-2020 08:54:16 22 C 30 %
1494 22-08-2020 09:04:17 22.1 C 29 %
1495 22-08-2020 09:14:17 22.3 C 29 %
1496 22-08-2020 09:24:16 22.3 C 28 %
1497 22-08-2020 09:34:16 22.3 C 27 %
1498 22-08-2020 09:44:16 22.4 C 27 %
1499 22-08-2020 09:54:17 22.1 C 27 %
1500 22-08-2020 10:04:17 22.3 C 27 %
Sensor: Nr:Datum:Temp:Feuchte:
Aussen-T/F 1501 22-08-2020 10:14:17 22.5 C 27 %
1502 22-08-2020 10:24:16 22.4 C 26 %
1503 22-08-2020 10:34:16 22.3 C 26 %
1504 22-08-2020 10:44:16 22.2 C 26 %
1505 22-08-2020 10:54:16 22.6 C 26 %
1506 22-08-2020 11:04:17 23 C 25 %
1507 22-08-2020 11:14:17 23.1 C 25 %
1508 22-08-2020 11:24:17 24.2 C 23 %
1509 22-08-2020 11:34:16 24 C 23 %
1510 22-08-2020 11:44:16 23.7 C 24 %
1511 22-08-2020 11:54:17 24.3 C 22 %
1512 22-08-2020 12:04:16 24.4 C 22 %
1513 22-08-2020 12:14:16 23.6 C 23 %
1514 22-08-2020 12:24:16 24 C 22 %
1515 22-08-2020 12:34:17 23.9 C 23 %
1516 22-08-2020 12:44:17 23.9 C 23 %
1517 22-08-2020 12:54:16 24.5 C 22 %
1518 22-08-2020 13:04:16 24.5 C 22 %
1519 22-08-2020 13:14:16 24.5 C 22 %
1520 22-08-2020 13:24:16 24.6 C 22 %
1521 22-08-2020 13:34:17 25.1 C 21 %
1522 22-08-2020 13:44:17 25.2 C 21 %
1523 22-08-2020 13:54:16 26 C 20 %
1524 22-08-2020 14:04:16 26.6 C 20 %
1525 22-08-2020 14:14:16 25.9 C 20 %
Sensor: Nr:Datum:Temp:Feuchte:
Aussen-T/F 1526 22-08-2020 14:24:17 26.8 C 20 %
1527 22-08-2020 14:34:17 28.5 C 20 %
1528 22-08-2020 14:44:17 27.9 C 20 %
1529 22-08-2020 14:54:16 29.5 C 20 %
1530 22-08-2020 15:04:16 27.1 C 20 %
1531 22-08-2020 15:14:16 29.6 C 20 %
1532 22-08-2020 15:24:17 26.8 C 20 %
1533 22-08-2020 15:34:17 27.1 C 20 %
1534 22-08-2020 15:44:17 29.1 C 20 %
1535 22-08-2020 15:54:17 28.3 C 20 %
1536 22-08-2020 16:04:16 28.8 C 20 %
1537 22-08-2020 16:14:16 30.2 C 20 %
1538 22-08-2020 16:24:17 29.6 C 20 %
1539 22-08-2020 16:34:17 30.2 C 20 %
1540 22-08-2020 16:44:17 30 C 20 %
1541 22-08-2020 16:54:16 30.7 C 20 %
1542 22-08-2020 17:04:16 29.2 C 20 %
1543 22-08-2020 17:14:16 29.1 C 20 %
1544 22-08-2020 17:24:16 26.9 C 20 %
1545 22-08-2020 17:34:16 26.7 C 20 %
1546 22-08-2020 17:44:16 26.1 C 20 %
1547 22-08-2020 17:54:16 26.8 C 20 %
1548 22-08-2020 18:04:17 26.1 C 20 %
1549 22-08-2020 18:14:17 25.5 C 20 %
1550 22-08-2020 18:24:16 25.5 C 20 %
Sensor: Nr:Datum:Temp:Feuchte:
Aussen-T/F 1551 22-08-2020 18:34:17 25.2 C 20 %
1552 22-08-2020 18:44:17 25.5 C 20 %
1553 22-08-2020 18:54:16 25.6 C 20 %
1554 22-08-2020 19:04:16 24.9 C 20 %
1555 22-08-2020 19:14:16 24.6 C 20 %
1556 22-08-2020 19:24:16 24.4 C 20 %
1557 22-08-2020 19:34:16 24.1 C 20 %
1558 22-08-2020 19:44:16 24.2 C 20 %
1559 22-08-2020 19:54:16 24 C 20 %
1560 22-08-2020 20:04:16 23.5 C 20 %
1561 22-08-2020 20:14:16 22.4 C 22 %
1562 22-08-2020 20:24:16 22.4 C 22 %
1563 22-08-2020 20:34:16 22.1 C 22 %
1564 22-08-2020 20:44:16 21.7 C 24 %
1565 22-08-2020 20:54:16 21.2 C 25 %
1566 22-08-2020 21:04:17 20.9 C 25 %
1567 22-08-2020 21:14:17 20.5 C 26 %
1568 22-08-2020 21:24:16 20.4 C 26 %
1569 22-08-2020 21:34:16 20.5 C 26 %
1570 22-08-2020 21:44:16 20.4 C 26 %
1571 22-08-2020 21:54:16 20.2 C 27 %
1572 22-08-2020 22:04:16 20.3 C 27 %
1573 22-08-2020 22:14:16 20.1 C 28 %
1574 22-08-2020 22:24:16 20.1 C 27 %
1575 22-08-2020 22:34:16 19.8 C 27 %
Sensor: Nr:Datum:Temp:Feuchte:
Aussen-T/F 1576 22-08-2020 22:44:16 19.4 C 28 %
1577 22-08-2020 22:54:16 19 C 28 %
1578 22-08-2020 23:04:16 18.7 C 29 %
1579 22-08-2020 23:14:16 18.8 C 29 %
1580 22-08-2020 23:24:16 19 C 28 %
1581 22-08-2020 23:34:15 19.1 C 29 %
1582 22-08-2020 23:44:15 18.7 C 30 %
1583 22-08-2020 23:54:16 18.9 C 30 %
1584 23-08-2020 00:04:16 19.1 C 29 %
1585 23-08-2020 00:14:17 19.6 C 28 %
1586 23-08-2020 00:24:16 19.7 C 28 %
1587 23-08-2020 00:34:16 19.7 C 28 %
1588 23-08-2020 00:44:16 19.6 C 28 %
1589 23-08-2020 00:54:16 19.4 C 29 %
1590 23-08-2020 01:04:16 19.1 C 30 %
1591 23-08-2020 01:14:17 18.9 C 31 %
1592 23-08-2020 01:24:16 19 C 30 %
1593 23-08-2020 01:34:16 18.6 C 31 %
1594 23-08-2020 01:44:16 18.7 C 31 %
1595 23-08-2020 01:54:16 18.7 C 31 %
1596 23-08-2020 02:04:15 18.6 C 31 %
1597 23-08-2020 02:14:15 18.3 C 31 %
1598 23-08-2020 02:24:15 18.4 C 32 %
1599 23-08-2020 02:34:16 18.5 C 32 %
1600 23-08-2020 02:44:17 18.4 C 32 %
Sensor: Nr:Datum:Temp:Feuchte:
Aussen-T/F 1601 23-08-2020 02:54:17 18.1 C 33 %
1602 23-08-2020 03:04:18 17.8 C 33 %
1603 23-08-2020 03:14:18 17.4 C 33 %
1604 23-08-2020 03:24:17 17.4 C 33 %
1605 23-08-2020 03:34:18 17.3 C 34 %
1606 23-08-2020 03:44:18 17.3 C 34 %
1607 23-08-2020 03:54:17 17.4 C 34 %
1608 23-08-2020 04:04:18 17.4 C 34 %
1609 23-08-2020 04:14:18 17.5 C 33 %
1610 23-08-2020 04:24:17 17.3 C 34 %
1611 23-08-2020 04:34:17 17.4 C 33 %
1612 23-08-2020 04:44:17 17.2 C 34 %
1613 23-08-2020 04:54:17 17.3 C 34 %
1614 23-08-2020 05:04:18 17.4 C 33 %
1615 23-08-2020 05:14:18 17.8 C 32 %
1616 23-08-2020 05:24:17 17.8 C 32 %
1617 23-08-2020 05:34:18 17.6 C 33 %
1618 23-08-2020 05:44:18 17.4 C 33 %
1619 23-08-2020 05:54:17 17.4 C 33 %
1620 23-08-2020 06:04:17 17.3 C 33 %
1621 23-08-2020 06:14:17 17.2 C 33 %
1622 23-08-2020 06:24:18 17 C 33 %
1623 23-08-2020 06:34:18 16.9 C 34 %
1624 23-08-2020 06:44:18 16.7 C 34 %
1625 23-08-2020 06:54:18 16.4 C 34 %
Sensor: Nr:Datum:Temp:Feuchte:
Aussen-T/F 1626 23-08-2020 07:04:17 16.4 C 34 %
1627 23-08-2020 07:14:17 16.4 C 34 %
1628 23-08-2020 07:24:17 17 C 33 %
1629 23-08-2020 07:34:17 17.4 C 34 %
1630 23-08-2020 07:44:17 17.8 C 34 %
1631 23-08-2020 07:54:17 18 C 33 %
1632 23-08-2020 08:04:18 18.2 C 32 %
1633 23-08-2020 08:14:18 18.7 C 32 %
1634 23-08-2020 08:24:17 19 C 31 %
1635 23-08-2020 08:34:17 19.3 C 31 %
1636 23-08-2020 08:44:17 19.4 C 31 %
1637 23-08-2020 08:54:17 19.6 C 31 %
1638 23-08-2020 09:04:17 19.4 C 31 %
1639 23-08-2020 09:14:17 19.3 C 31 %
1640 23-08-2020 09:24:17 19.3 C 31 %
1641 23-08-2020 09:34:18 20.2 C 30 %
1642 23-08-2020 09:44:18 20.3 C 29 %
1643 23-08-2020 09:54:17 20.5 C 29 %
1644 23-08-2020 10:04:17 20.7 C 29 %
1645 23-08-2020 10:14:17 20.7 C 29 %
1646 23-08-2020 10:24:17 21.2 C 27 %
1647 23-08-2020 10:34:17 21.1 C 26 %
1648 23-08-2020 10:44:17 20.6 C 27 %
1649 23-08-2020 10:54:17 20.4 C 26 %
1650 23-08-2020 11:04:17 21.9 C 25 %
Sensor: Nr:Datum:Temp:Feuchte:
Aussen-T/F 1651 23-08-2020 11:14:17 21.7 C 25 %
1652 23-08-2020 11:24:17 21.3 C 25 %
1653 23-08-2020 11:34:18 21.1 C 25 %
1654 23-08-2020 11:44:18 21.6 C 25 %
1655 23-08-2020 11:54:17 21.3 C 25 %
1656 23-08-2020 12:04:17 21.6 C 25 %
1657 23-08-2020 12:14:17 21.6 C 25 %
1658 23-08-2020 12:24:17 21.3 C 25 %
1659 23-08-2020 12:34:17 21.6 C 25 %
1660 23-08-2020 12:44:17 22.3 C 24 %
1661 23-08-2020 12:54:17 22.1 C 23 %
1662 23-08-2020 13:04:18 21.1 C 23 %
1663 23-08-2020 13:14:18 21.6 C 24 %
1664 23-08-2020 13:24:17 22.7 C 22 %
1665 23-08-2020 13:34:17 21.8 C 22 %
1666 23-08-2020 13:44:17 22.3 C 21 %
1667 23-08-2020 13:54:18 23.2 C 20 %
1668 23-08-2020 14:04:18 24 C 20 %
1669 23-08-2020 14:14:18 22.4 C 20 %
1670 23-08-2020 14:24:17 23.6 C 20 %
1671 23-08-2020 14:34:18 22.9 C 20 %
1672 23-08-2020 14:44:18 23 C 20 %
1673 23-08-2020 14:54:18 22.9 C 20 %
1674 23-08-2020 15:04:17 23.3 C 20 %
1675 23-08-2020 15:14:17 22.9 C 20 %
Sensor: Nr:Datum:Temp:Feuchte:
Aussen-T/F 1676 23-08-2020 15:24:18 23 C 20 %
1677 23-08-2020 15:34:17 23.4 C 20 %
1678 23-08-2020 15:44:17 22.9 C 20 %
1679 23-08-2020 15:54:17 22.8 C 20 %
1680 23-08-2020 16:04:18 24.4 C 20 %
1681 23-08-2020 16:14:18 25.9 C 20 %
1682 23-08-2020 16:24:18 23 C 20 %
1683 23-08-2020 16:34:18 22.5 C 20 %
1684 23-08-2020 16:44:18 22.3 C 20 %
1685 23-08-2020 16:54:17 22.1 C 20 %
1686 23-08-2020 17:04:17 22.1 C 20 %
1687 23-08-2020 17:14:18 22.8 C 20 %
1688 23-08-2020 17:24:17 23.1 C 20 %
1689 23-08-2020 17:34:17 22.9 C 20 %
1690 23-08-2020 17:44:18 22.7 C 20 %
1691 23-08-2020 17:54:17 22 C 21 %
1692 23-08-2020 18:04:17 21.5 C 22 %
1693 23-08-2020 18:14:17 21.3 C 22 %
1694 23-08-2020 18:24:17 21 C 23 %
1695 23-08-2020 18:34:18 20.4 C 25 %
1696 23-08-2020 18:44:18 19.8 C 26 %
1697 23-08-2020 18:54:17 19.8 C 26 %
1698 23-08-2020 19:04:18 19.4 C 27 %
1699 23-08-2020 19:14:18 19 C 28 %
1700 23-08-2020 19:24:17 18.9 C 29 %
Sensor: Nr:Datum:Temp:Feuchte:
Aussen-T/F 1701 23-08-2020 19:34:17 19 C 29 %
1702 23-08-2020 19:44:17 18.7 C 30 %
1703 23-08-2020 19:54:17 18.7 C 30 %
1704 23-08-2020 20:04:18 18.5 C 30 %
1705 23-08-2020 20:14:18 18.4 C 30 %
1706 23-08-2020 20:24:17 18.3 C 30 %
1707 23-08-2020 20:34:17 18.4 C 30 %
1708 23-08-2020 20:44:18 18.2 C 30 %
1709 23-08-2020 20:54:17 18.2 C 30 %
1710 23-08-2020 21:04:18 18.3 C 30 %
1711 23-08-2020 21:14:18 18 C 30 %
1712 23-08-2020 21:24:17 18 C 30 %
1713 23-08-2020 21:34:17 17.8 C 31 %
1714 23-08-2020 21:44:17 17.9 C 31 %
1715 23-08-2020 21:54:17 17.8 C 31 %
1716 23-08-2020 22:04:18 17.8 C 31 %
1717 23-08-2020 22:14:18 17.7 C 31 %
1718 23-08-2020 22:24:17 17.5 C 31 %
1719 23-08-2020 22:34:18 17.4 C 31 %
1720 23-08-2020 22:44:18 17.3 C 31 %
1721 23-08-2020 22:54:17 17.2 C 31 %
1722 23-08-2020 23:04:18 17.2 C 31 %
1723 23-08-2020 23:14:18 17 C 31 %
1724 23-08-2020 23:24:17 16.9 C 32 %
1725 23-08-2020 23:34:18 16.6 C 33 %
Sensor: Nr:Datum:Temp:Feuchte:
Aussen-T/F 1726 23-08-2020 23:44:18 16.9 C 32 %
1727 23-08-2020 23:54:17 17.1 C 32 %
1728 24-08-2020 00:04:17 17.2 C 32 %
1729 24-08-2020 00:14:17 17.1 C 32 %
1730 24-08-2020 00:24:17 17.1 C 32 %
1731 24-08-2020 00:34:17 17 C 32 %
1732 24-08-2020 00:44:17 16.6 C 32 %
1733 24-08-2020 00:54:17 16.2 C 33 %
1734 24-08-2020 01:04:17 16.3 C 33 %
1735 24-08-2020 01:14:17 16.5 C 33 %
1736 24-08-2020 01:24:17 16.6 C 33 %
1737 24-08-2020 01:34:17 16.5 C 33 %
1738 24-08-2020 01:44:17 16.4 C 33 %
1739 24-08-2020 01:54:17 16.6 C 33 %
1740 24-08-2020 02:04:17 16.6 C 33 %
1741 24-08-2020 02:14:17 16.7 C 33 %
1742 24-08-2020 02:24:17 16.7 C 33 %
1743 24-08-2020 02:34:17 16.7 C 33 %
1744 24-08-2020 02:44:17 16.8 C 33 %
1745 24-08-2020 02:54:17 16.7 C 33 %
1746 24-08-2020 03:04:17 16.4 C 33 %
1747 24-08-2020 03:14:17 16.3 C 34 %
1748 24-08-2020 03:24:17 16.3 C 34 %
1749 24-08-2020 03:34:17 16.4 C 34 %
1750 24-08-2020 03:44:17 16.4 C 34 %
Sensor: Nr:Datum:Temp:Feuchte:
Aussen-T/F 1751 24-08-2020 03:54:17 16.1 C 34 %
1752 24-08-2020 04:04:17 16.4 C 34 %
1753 24-08-2020 04:14:17 16.5 C 33 %
1754 24-08-2020 04:24:17 16.4 C 33 %
1755 24-08-2020 04:34:17 16.5 C 33 %
1756 24-08-2020 04:44:17 16.4 C 33 %
1757 24-08-2020 04:54:17 16.4 C 34 %
1758 24-08-2020 05:04:17 16.3 C 34 %
1759 24-08-2020 05:14:17 15.8 C 35 %
1760 24-08-2020 05:24:17 16.1 C 34 %
1761 24-08-2020 05:34:17 15.7 C 35 %
1762 24-08-2020 05:44:17 15.9 C 35 %
1763 24-08-2020 05:54:17 15.8 C 35 %
1764 24-08-2020 06:04:18 15.8 C 35 %
1765 24-08-2020 06:14:18 15.8 C 35 %
1766 24-08-2020 06:24:17 15.8 C 35 %
1767 24-08-2020 06:34:17 15.6 C 35 %
1768 24-08-2020 06:44:17 15.2 C 35 %
1769 24-08-2020 06:54:17 14.7 C 36 %
1770 24-08-2020 07:04:18 14.5 C 36 %
1771 24-08-2020 07:14:18 14.7 C 36 %
1772 24-08-2020 07:24:17 14.5 C 36 %
1773 24-08-2020 07:34:18 14.4 C 36 %
1774 24-08-2020 07:44:18 14.2 C 37 %
1775 24-08-2020 07:54:17 14.3 C 36 %
Sensor: Nr:Datum:Temp:Feuchte:
Aussen-T/F 1776 24-08-2020 08:04:18 14.5 C 36 %
1777 24-08-2020 08:14:18 14.5 C 36 %
1778 24-08-2020 08:24:18 15.2 C 35 %
1779 24-08-2020 08:34:18 15.3 C 34 %
1780 24-08-2020 08:44:18 15.4 C 34 %
1781 24-08-2020 08:54:18 15.9 C 33 %
1782 24-08-2020 09:04:17 16.5 C 32 %
1783 24-08-2020 09:14:17 16.4 C 32 %
1784 24-08-2020 09:24:17 16.6 C 32 %
1785 24-08-2020 09:34:17 16.8 C 32 %
1786 24-08-2020 09:44:17 17 C 31 %
1787 24-08-2020 09:54:17 17.3 C 31 %
1788 24-08-2020 10:04:18 17.7 C 31 %
1789 24-08-2020 10:14:18 18.3 C 30 %
1790 24-08-2020 10:24:17 18.5 C 30 %
1791 24-08-2020 10:34:17 18.5 C 30 %
1792 24-08-2020 10:44:17 19 C 28 %
1793 24-08-2020 10:54:17 18.9 C 29 %
1794 24-08-2020 11:04:18 19.6 C 28 %
1795 24-08-2020 11:14:18 19.6 C 27 %
1796 24-08-2020 11:24:17 19.5 C 28 %
1797 24-08-2020 11:34:17 19.7 C 28 %
1798 24-08-2020 11:44:17 19.9 C 27 %
1799 24-08-2020 11:54:17 19.5 C 27 %
1800 24-08-2020 12:04:18 20.4 C 27 %
Sensor: Nr:Datum:Temp:Feuchte:
Aussen-T/F 1801 24-08-2020 12:14:18 20.6 C 27 %
1802 24-08-2020 12:24:18 19.8 C 27 %
1803 24-08-2020 12:34:17 19.4 C 27 %
1804 24-08-2020 12:44:17 20.8 C 27 %
1805 24-08-2020 12:54:17 21 C 26 %
1806 24-08-2020 13:04:18 21.6 C 25 %
1807 24-08-2020 13:14:18 20.5 C 26 %
1808 24-08-2020 13:24:17 20.4 C 26 %
1809 24-08-2020 13:34:17 19.9 C 27 %
1810 24-08-2020 13:44:17 18.4 C 29 %
1811 24-08-2020 13:54:17 20.2 C 27 %
1812 24-08-2020 14:04:17 22.2 C 25 %
1813 24-08-2020 14:14:17 21.2 C 25 %
1814 24-08-2020 14:24:18 20.7 C 26 %
1815 24-08-2020 14:34:18 21.2 C 25 %
1816 24-08-2020 14:44:18 21.9 C 25 %
1817 24-08-2020 14:54:17 22 C 24 %
1818 24-08-2020 15:04:17 20.9 C 25 %
1819 24-08-2020 15:14:17 23 C 21 %
1820 24-08-2020 15:24:17 22.5 C 22 %
1821 24-08-2020 15:34:17 25.7 C 20 %
1822 24-08-2020 15:44:18 23.9 C 20 %
1823 24-08-2020 15:54:18 23.2 C 20 %
1824 24-08-2020 16:04:17 24.5 C 20 %
1825 24-08-2020 16:14:17 22 C 21 %
Sensor: Nr:Datum:Temp:Feuchte:
Aussen-T/F 1826 24-08-2020 16:24:18 23.7 C 20 %
1827 24-08-2020 16:34:17 23.3 C 20 %
1828 24-08-2020 16:44:17 23.7 C 20 %
1829 24-08-2020 16:54:17 22.6 C 20 %
1830 24-08-2020 17:04:17 22.8 C 20 %
1831 24-08-2020 17:14:17 23.4 C 20 %
1832 24-08-2020 17:24:17 24.9 C 20 %
1833 24-08-2020 17:34:17 25.9 C 20 %
1834 24-08-2020 17:44:17 24.7 C 20 %
1835 24-08-2020 17:54:17 24.7 C 20 %
1836 24-08-2020 18:04:17 23.1 C 20 %
1837 24-08-2020 18:14:17 23.1 C 20 %
1838 24-08-2020 18:24:18 22.3 C 20 %
1839 24-08-2020 18:34:18 22 C 20 %
1840 24-08-2020 18:44:18 21.6 C 21 %
1841 24-08-2020 18:54:17 22.2 C 20 %
1842 24-08-2020 19:04:17 21.4 C 22 %
1843 24-08-2020 19:14:17 20.7 C 23 %
1844 24-08-2020 19:24:17 20.6 C 24 %
1845 24-08-2020 19:34:17 20.8 C 23 %
1846 24-08-2020 19:44:17 20.8 C 23 %
1847 24-08-2020 19:54:18 20.8 C 23 %
1848 24-08-2020 20:04:17 20.7 C 23 %
1849 24-08-2020 20:14:18 20.6 C 25 %
1850 24-08-2020 20:24:17 20.4 C 24 %
Sensor: Nr:Datum:Temp:Feuchte:
Aussen-T/F 1851 24-08-2020 20:34:17 19.7 C 26 %
1852 24-08-2020 20:44:17 19.1 C 27 %
1853 24-08-2020 20:54:18 18.8 C 28 %
1854 24-08-2020 21:04:17 18.5 C 29 %
1855 24-08-2020 21:14:17 18.3 C 29 %
1856 24-08-2020 21:24:17 18 C 30 %
1857 24-08-2020 21:34:17 18.1 C 30 %
1858 24-08-2020 21:44:17 17.9 C 31 %
1859 24-08-2020 21:54:17 17.3 C 31 %
1860 24-08-2020 22:04:17 17.1 C 31 %
1861 24-08-2020 22:14:17 17.2 C 31 %
1862 24-08-2020 22:24:17 17.1 C 31 %
1863 24-08-2020 22:34:17 16.8 C 32 %
1864 24-08-2020 22:44:17 17 C 31 %
1865 24-08-2020 22:54:18 17.1 C 31 %
1866 24-08-2020 23:04:17 17.2 C 31 %
1867 24-08-2020 23:14:17 17.5 C 31 %
1868 24-08-2020 23:24:17 17.6 C 31 %
1869 24-08-2020 23:34:17 17.4 C 31 %
1870 24-08-2020 23:44:18 17.2 C 32 %
1871 24-08-2020 23:54:17 17.1 C 31 %
1872 25-08-2020 00:04:18 17.1 C 31 %
1873 25-08-2020 00:14:18 17 C 32 %
1874 25-08-2020 00:24:17 17 C 32 %
1875 25-08-2020 00:34:18 17.3 C 31 %
Sensor: Nr:Datum:Temp:Feuchte:
Aussen-T/F 1876 25-08-2020 00:44:18 17.4 C 31 %
1877 25-08-2020 00:54:18 17.6 C 31 %
1878 25-08-2020 01:04:17 17.7 C 31 %
1879 25-08-2020 01:14:17 17.4 C 31 %
1880 25-08-2020 01:24:17 17.2 C 32 %
1881 25-08-2020 01:34:18 17.1 C 32 %
1882 25-08-2020 01:44:18 17 C 32 %
1883 25-08-2020 01:54:17 16.9 C 32 %
1884 25-08-2020 02:04:18 16.9 C 32 %
1885 25-08-2020 02:14:18 16.9 C 32 %
1886 25-08-2020 02:24:17 16.1 C 35 %
1887 25-08-2020 02:34:18 16.2 C 35 %
1888 25-08-2020 02:44:18 16.2 C 36 %
1889 25-08-2020 02:54:17 16.1 C 36 %
1890 25-08-2020 03:04:17 16.1 C 35 %
1891 25-08-2020 03:14:17 16 C 35 %
1892 25-08-2020 03:24:17 15.9 C 36 %
1893 25-08-2020 03:34:18 15.8 C 36 %
1894 25-08-2020 03:44:18 15.4 C 36 %
1895 25-08-2020 03:54:18 15.2 C 36 %
1896 25-08-2020 04:04:17 14.8 C 36 %
1897 25-08-2020 04:14:17 14.5 C 37 %
1898 25-08-2020 04:24:17 14.4 C 37 %
1899 25-08-2020 04:34:17 14.2 C 37 %
1900 25-08-2020 04:44:17 13.8 C 38 %
Sensor: Nr:Datum:Temp:Feuchte:
Aussen-T/F 1901 25-08-2020 04:54:17 13.7 C 39 %
1902 25-08-2020 05:04:18 13.2 C 40 %
1903 25-08-2020 05:14:18 13.4 C 40 %
1904 25-08-2020 05:24:17 13.3 C 40 %
1905 25-08-2020 05:34:18 12.9 C 41 %
1906 25-08-2020 05:44:18 12.5 C 42 %
1907 25-08-2020 05:54:17 12.6 C 43 %
1908 25-08-2020 06:04:17 12.6 C 42 %
1909 25-08-2020 06:14:17 12.3 C 42 %
1910 25-08-2020 06:24:17 12.4 C 42 %
1911 25-08-2020 06:34:18 12.2 C 42 %
1912 25-08-2020 06:44:18 12.3 C 43 %
1913 25-08-2020 06:54:17 12.5 C 43 %
1914 25-08-2020 07:04:18 12.8 C 43 %
1915 25-08-2020 07:14:18 13.1 C 41 %
1916 25-08-2020 07:24:17 13.2 C 41 %
1917 25-08-2020 07:34:18 13.7 C 41 %
1918 25-08-2020 07:44:18 14.1 C 39 %
1919 25-08-2020 07:54:17 14.4 C 39 %
1920 25-08-2020 08:04:17 14.9 C 37 %
1921 25-08-2020 08:14:17 15.3 C 36 %
1922 25-08-2020 08:24:17 15.6 C 36 %
1923 25-08-2020 08:34:17 15.6 C 35 %
1924 25-08-2020 08:44:17 16 C 35 %
1925 25-08-2020 08:54:17 16.3 C 35 %
Sensor: Nr:Datum:Temp:Feuchte:
Aussen-T/F 1926 25-08-2020 09:04:17 16.5 C 35 %
1927 25-08-2020 09:14:17 16.5 C 35 %
1928 25-08-2020 09:24:17 16.8 C 34 %
1929 25-08-2020 09:34:18 17 C 33 %
1930 25-08-2020 09:44:18 17.4 C 33 %
1931 25-08-2020 09:54:18 17.7 C 33 %
1932 25-08-2020 10:04:18 18 C 32 %
1933 25-08-2020 10:14:18 18 C 32 %
1934 25-08-2020 10:24:17 18 C 32 %
1935 25-08-2020 10:34:18 18.4 C 32 %
1936 25-08-2020 10:44:18 19.1 C 31 %
1937 25-08-2020 10:54:17 19.6 C 31 %
1938 25-08-2020 11:04:18 20.5 C 30 %
1939 25-08-2020 11:14:18 20.7 C 30 %
1940 25-08-2020 11:24:17 21.6 C 28 %
1941 25-08-2020 11:34:18 23.1 C 25 %
1942 25-08-2020 11:44:18 23 C 23 %
1943 25-08-2020 11:54:18 23.4 C 23 %
1944 25-08-2020 12:04:17 23 C 23 %
1945 25-08-2020 12:14:17 22.9 C 24 %
1946 25-08-2020 12:24:17 22.9 C 23 %
1947 25-08-2020 12:34:18 23.5 C 23 %
1948 25-08-2020 12:44:18 23.9 C 22 %
1949 25-08-2020 12:54:17 24.5 C 22 %
1950 25-08-2020 13:04:18 24 C 22 %
Sensor: Nr:Datum:Temp:Feuchte:
Aussen-T/F 1951 25-08-2020 13:14:18 23.8 C 22 %
1952 25-08-2020 13:24:17 24.6 C 21 %
1953 25-08-2020 13:34:17 24.9 C 21 %
1954 25-08-2020 13:44:17 24.4 C 21 %
1955 25-08-2020 13:54:17 23.8 C 22 %
1956 25-08-2020 14:04:17 23.6 C 22 %
1957 25-08-2020 14:14:18 23.1 C 22 %
1958 25-08-2020 14:24:17 22.7 C 22 %
1959 25-08-2020 14:34:18 22.9 C 22 %
1960 25-08-2020 14:44:18 23.2 C 22 %
1961 25-08-2020 14:54:17 23.1 C 22 %
1962 25-08-2020 15:04:17 23.3 C 22 %
1963 25-08-2020 15:14:17 23.2 C 22 %
1964 25-08-2020 15:24:18 23.1 C 23 %
1965 25-08-2020 15:34:17 22.8 C 24 %
1966 25-08-2020 15:44:17 22.3 C 25 %
1967 25-08-2020 15:54:17 21 C 29 %
1968 25-08-2020 16:04:17 19.9 C 33 %
1969 25-08-2020 16:14:18 19.6 C 35 %
1970 25-08-2020 16:24:17 20.1 C 34 %
1971 25-08-2020 16:34:17 21.6 C 30 %
1972 25-08-2020 16:44:17 21.7 C 31 %
1973 25-08-2020 16:54:17 21.6 C 31 %
1974 25-08-2020 17:04:18 21.6 C 31 %
1975 25-08-2020 17:14:18 21.9 C 31 %
Sensor: Nr:Datum:Temp:Feuchte:
Aussen-T/F 1976 25-08-2020 17:24:17 22.2 C 28 %
1977 25-08-2020 17:34:17 22.5 C 29 %
1978 25-08-2020 17:44:17 23.8 C 25 %
1979 25-08-2020 17:54:17 28.4 C 20 %
1980 25-08-2020 18:04:17 26.5 C 20 %
1981 25-08-2020 18:14:17 25.3 C 20 %
1982 25-08-2020 18:24:18 24.7 C 21 %
1983 25-08-2020 18:34:17 25.3 C 20 %
1984 25-08-2020 18:44:18 25.1 C 20 %
1985 25-08-2020 18:54:17 25.2 C 20 %
1986 25-08-2020 19:04:18 25.1 C 20 %
1987 25-08-2020 19:14:18 24.6 C 21 %
1988 25-08-2020 19:24:17 23.8 C 22 %
1989 25-08-2020 19:34:17 22.9 C 24 %
1990 25-08-2020 19:44:17 22.5 C 25 %
1991 25-08-2020 19:54:17 22.5 C 24 %
1992 25-08-2020 20:04:17 22.5 C 24 %
1993 25-08-2020 20:14:18 22.3 C 24 %
1994 25-08-2020 20:24:17 22.8 C 22 %
1995 25-08-2020 20:34:18 22.5 C 22 %
1996 25-08-2020 20:44:18 22.6 C 23 %
1997 25-08-2020 20:54:18 22.2 C 23 %
1998 25-08-2020 21:04:18 21.8 C 24 %
1999 25-08-2020 21:14:18 21.6 C 24 %
2000 25-08-2020 21:24:17 20.3 C 25 %
Sensor: Nr:Datum:Temp:Feuchte:
Aussen-T/F 2001 25-08-2020 21:34:18 20.3 C 25 %
2002 25-08-2020 21:44:18 20.2 C 25 %
2003 25-08-2020 21:54:17 20 C 25 %
2004 25-08-2020 22:04:17 20.8 C 25 %
2005 25-08-2020 22:14:17 20.4 C 25 %
2006 25-08-2020 22:24:17 20.8 C 24 %
2007 25-08-2020 22:34:17 20.8 C 24 %
2008 25-08-2020 22:44:18 21.2 C 23 %
2009 25-08-2020 22:54:17 20.6 C 24 %
2010 25-08-2020 23:04:17 20.9 C 25 %
2011 25-08-2020 23:14:17 21 C 23 %
2012 25-08-2020 23:24:17 20.7 C 25 %
2013 25-08-2020 23:34:17 20.3 C 25 %
2014 25-08-2020 23:44:17 20.4 C 25 %
2015 25-08-2020 23:54:17 20.2 C 25 %
2016 26-08-2020 00:04:17 21.2 C 24 %
2017 26-08-2020 00:14:17 21.4 C 24 %
2018 26-08-2020 00:24:17 21.7 C 24 %
2019 26-08-2020 00:34:18 21.5 C 24 %
2020 26-08-2020 00:44:18 21.2 C 25 %
2021 26-08-2020 00:54:18 20.8 C 26 %
2022 26-08-2020 01:04:18 21.4 C 25 %
2023 26-08-2020 01:14:18 21.9 C 25 %
2024 26-08-2020 01:24:17 21.4 C 25 %
2025 26-08-2020 01:34:17 21.9 C 25 %
Sensor: Nr:Datum:Temp:Feuchte:
Aussen-T/F 2026 26-08-2020 01:44:17 22.7 C 25 %
2027 26-08-2020 01:54:17 22.7 C 25 %
2028 26-08-2020 02:04:17 22.9 C 25 %
2029 26-08-2020 02:14:17 22.7 C 25 %
2030 26-08-2020 02:24:17 22.9 C 25 %
2031 26-08-2020 02:34:17 22.4 C 25 %
2032 26-08-2020 02:44:18 22 C 25 %
2033 26-08-2020 02:54:17 22.6 C 25 %
2034 26-08-2020 03:04:18 22.3 C 25 %
2035 26-08-2020 03:14:18 22.3 C 25 %
2036 26-08-2020 03:24:17 21.9 C 26 %
2037 26-08-2020 03:34:17 21.9 C 25 %
2038 26-08-2020 03:44:17 21.4 C 25 %
2039 26-08-2020 03:54:17 21.1 C 25 %
2040 26-08-2020 04:04:18 21 C 25 %
2041 26-08-2020 04:14:18 20.8 C 26 %
2042 26-08-2020 04:24:17 20.6 C 26 %
2043 26-08-2020 04:34:17 20.2 C 26 %
2044 26-08-2020 04:44:17 20.5 C 25 %
2045 26-08-2020 04:54:17 20.5 C 25 %
2046 26-08-2020 05:04:17 20.4 C 25 %
2047 26-08-2020 05:14:17 20.3 C 25 %
2048 26-08-2020 05:24:17 20.2 C 25 %
2049 26-08-2020 05:34:17 20 C 25 %
2050 26-08-2020 05:44:17 20 C 24 %
Sensor: Nr:Datum:Temp:Feuchte:
Aussen-T/F 2051 26-08-2020 05:54:17 20 C 24 %
2052 26-08-2020 06:04:17 19.9 C 25 %
2053 26-08-2020 06:14:17 19.8 C 25 %
2054 26-08-2020 06:24:17 19.7 C 25 %
2055 26-08-2020 06:34:18 19.6 C 25 %
2056 26-08-2020 06:44:18 19.4 C 25 %
2057 26-08-2020 06:54:17 19.4 C 25 %
2058 26-08-2020 07:04:17 19.4 C 25 %
2059 26-08-2020 07:14:17 19.4 C 25 %
2060 26-08-2020 07:24:17 19.4 C 24 %
2061 26-08-2020 07:34:17 19.4 C 25 %
2062 26-08-2020 07:44:17 19.4 C 25 %
2063 26-08-2020 07:54:17 19.4 C 25 %
2064 26-08-2020 08:04:17 19.5 C 25 %
2065 26-08-2020 08:14:17 19.4 C 25 %
2066 26-08-2020 08:24:17 19.5 C 25 %
2067 26-08-2020 08:34:18 19.5 C 25 %
2068 26-08-2020 08:44:18 19.6 C 25 %
2069 26-08-2020 08:54:17 19.6 C 25 %
2070 26-08-2020 09:04:17 19.5 C 25 %
2071 26-08-2020 09:14:17 19.5 C 25 %
2072 26-08-2020 09:24:17 19.7 C 25 %
2073 26-08-2020 09:34:17 19.8 C 25 %
2074 26-08-2020 09:44:17 19.6 C 25 %
2075 26-08-2020 09:54:18 19.7 C 25 %
Sensor: Nr:Datum:Temp:Feuchte:
Aussen-T/F 2076 26-08-2020 10:04:18 19.7 C 25 %
2077 26-08-2020 10:14:18 19.8 C 25 %
2078 26-08-2020 10:24:17 20 C 25 %
2079 26-08-2020 10:34:18 19.8 C 25 %
2080 26-08-2020 10:44:18 19.7 C 25 %
2081 26-08-2020 10:54:17 19.8 C 25 %
2082 26-08-2020 11:04:18 19.7 C 25 %
2083 26-08-2020 11:14:18 19.7 C 25 %
2084 26-08-2020 11:24:17 20 C 24 %
2085 26-08-2020 11:34:18 20.2 C 24 %
2086 26-08-2020 11:44:18 20.7 C 24 %
2087 26-08-2020 11:54:17 20.7 C 24 %
2088 26-08-2020 12:04:18 20.4 C 24 %
2089 26-08-2020 12:14:18 20.4 C 25 %
2090 26-08-2020 12:24:17 20.2 C 25 %
2091 26-08-2020 12:34:17 20.2 C 25 %
2092 26-08-2020 12:44:17 20.5 C 25 %
2093 26-08-2020 12:54:17 20.7 C 25 %
2094 26-08-2020 13:04:18 21.2 C 24 %
2095 26-08-2020 13:14:18 21.7 C 23 %
2096 26-08-2020 13:24:18 21.4 C 24 %
2097 26-08-2020 13:34:17 22 C 22 %
2098 26-08-2020 13:44:17 22.5 C 22 %
2099 26-08-2020 13:54:17 22.5 C 22 %
2100 26-08-2020 14:04:18 22 C 22 %
Sensor: Nr:Datum:Temp:Feuchte:
Aussen-T/F 2101 26-08-2020 14:14:18 22.4 C 22 %
2102 26-08-2020 14:24:17 22 C 21 %
2103 26-08-2020 14:34:18 24.2 C 20 %
2104 26-08-2020 14:44:18 22.4 C 21 %
2105 26-08-2020 14:54:17 22.3 C 21 %
2106 26-08-2020 15:04:17 22.7 C 21 %
2107 26-08-2020 15:14:17 22.9 C 21 %
2108 26-08-2020 15:24:17 24.5 C 20 %
2109 26-08-2020 15:34:17 24.9 C 20 %
2110 26-08-2020 15:44:17 24.3 C 20 %
2111 26-08-2020 15:54:17 24.3 C 20 %
2112 26-08-2020 16:04:18 23.3 C 20 %
2113 26-08-2020 16:14:18 23.7 C 20 %
2114 26-08-2020 16:24:17 23.3 C 20 %
2115 26-08-2020 16:34:17 24.6 C 20 %
2116 26-08-2020 16:44:17 23.8 C 20 %
2117 26-08-2020 16:54:18 23.3 C 20 %
2118 26-08-2020 17:04:18 23.2 C 20 %
2119 26-08-2020 17:14:18 23.2 C 20 %
2120 26-08-2020 17:24:17 23.2 C 20 %
2121 26-08-2020 17:34:17 23.1 C 20 %
2122 26-08-2020 17:44:17 23 C 20 %
2123 26-08-2020 17:54:17 22.9 C 20 %
2124 26-08-2020 18:04:17 22.9 C 20 %
2125 26-08-2020 18:14:17 22.9 C 20 %
Sensor: Nr:Datum:Temp:Feuchte:
Aussen-T/F 2126 26-08-2020 18:24:17 22.7 C 20 %
2127 26-08-2020 18:34:17 22.6 C 21 %
2128 26-08-2020 18:44:17 22.3 C 21 %
2129 26-08-2020 18:54:17 22.3 C 21 %
2130 26-08-2020 19:04:18 22.1 C 21 %
2131 26-08-2020 19:14:18 21.9 C 22 %
2132 26-08-2020 19:24:17 21.8 C 22 %
2133 26-08-2020 19:34:18 21.7 C 22 %
2134 26-08-2020 19:44:18 21.4 C 22 %
2135 26-08-2020 19:54:17 21.2 C 23 %
2136 26-08-2020 20:04:17 21 C 23 %
2137 26-08-2020 20:14:17 20.9 C 24 %
2138 26-08-2020 20:24:18 20.7 C 25 %
2139 26-08-2020 20:34:17 20.4 C 25 %
2140 26-08-2020 20:44:17 20.3 C 25 %
2141 26-08-2020 20:54:17 20.2 C 25 %
2142 26-08-2020 21:04:17 20 C 25 %
2143 26-08-2020 21:14:17 20 C 25 %
2144 26-08-2020 21:24:17 20 C 25 %
2145 26-08-2020 21:34:18 19.9 C 25 %
2146 26-08-2020 21:44:18 19.7 C 26 %
2147 26-08-2020 21:54:17 19.7 C 25 %
2148 26-08-2020 22:04:18 19.6 C 25 %
2149 26-08-2020 22:14:18 19.6 C 26 %
2150 26-08-2020 22:24:18 19.3 C 26 %
Sensor: Nr:Datum:Temp:Feuchte:
Aussen-T/F 2151 26-08-2020 22:34:17 19.3 C 26 %
2152 26-08-2020 22:44:17 19.1 C 26 %
2153 26-08-2020 22:54:17 19 C 26 %
2154 26-08-2020 23:04:17 19 C 26 %
2155 26-08-2020 23:14:17 18.9 C 27 %
2156 26-08-2020 23:24:17 18.6 C 27 %
2157 26-08-2020 23:34:18 18.7 C 27 %
2158 26-08-2020 23:44:18 18.6 C 27 %
2159 26-08-2020 23:54:18 18.4 C 27 %
2160 27-08-2020 00:04:17 18.4 C 27 %
2161 27-08-2020 00:14:17 18.3 C 27 %
2162 27-08-2020 00:24:17 18 C 28 %
2163 27-08-2020 00:34:17 17.8 C 29 %
2164 27-08-2020 00:44:17 17.8 C 29 %
2165 27-08-2020 00:54:17 17.8 C 29 %
2166 27-08-2020 01:04:18 17.8 C 29 %
2167 27-08-2020 01:14:18 17.6 C 29 %
2168 27-08-2020 01:24:18 16.9 C 30 %
2169 27-08-2020 01:34:18 16.4 C 31 %
2170 27-08-2020 01:44:18 15.9 C 32 %
2171 27-08-2020 01:54:17 16 C 32 %
2172 27-08-2020 02:04:17 15.6 C 33 %
2173 27-08-2020 02:14:17 16.4 C 32 %
2174 27-08-2020 02:24:17 16.4 C 32 %
2175 27-08-2020 02:34:17 16.7 C 32 %
Sensor: Nr:Datum:Temp:Feuchte:
Aussen-T/F 2176 27-08-2020 02:44:17 16.4 C 32 %
2177 27-08-2020 02:54:18 16.2 C 32 %
2178 27-08-2020 03:04:18 15.7 C 33 %
2179 27-08-2020 03:14:18 14.8 C 35 %
2180 27-08-2020 03:24:17 14.7 C 35 %
2181 27-08-2020 03:34:17 14.4 C 35 %
2182 27-08-2020 03:44:18 14 C 36 %
2183 27-08-2020 03:54:17 14.1 C 36 %
2184 27-08-2020 04:04:17 13.7 C 38 %
2185 27-08-2020 04:14:17 13.4 C 38 %
2186 27-08-2020 04:24:17 13.2 C 39 %
2187 27-08-2020 04:34:18 13.3 C 38 %
2188 27-08-2020 04:44:18 13.4 C 38 %
2189 27-08-2020 04:54:17 13.3 C 39 %
2190 27-08-2020 05:04:17 13 C 39 %
2191 27-08-2020 05:14:17 12.6 C 40 %
2192 27-08-2020 05:24:18 12.4 C 41 %
2193 27-08-2020 05:34:18 12.9 C 41 %
2194 27-08-2020 05:44:18 12.8 C 41 %
2195 27-08-2020 05:54:17 12.5 C 41 %
2196 27-08-2020 06:04:17 12.5 C 41 %
2197 27-08-2020 06:14:17 12.5 C 41 %
2198 27-08-2020 06:24:17 12.7 C 41 %
2199 27-08-2020 06:34:18 12.5 C 41 %
2200 27-08-2020 06:44:18 12.5 C 41 %
Sensor: Nr:Datum:Temp:Feuchte:
Aussen-T/F 2201 27-08-2020 06:54:17 12.4 C 41 %
2202 27-08-2020 07:04:18 12.2 C 42 %
2203 27-08-2020 07:14:18 12.2 C 42 %
2204 27-08-2020 07:24:17 12.8 C 41 %
2205 27-08-2020 07:34:17 12.6 C 40 %
2206 27-08-2020 07:44:18 12.7 C 40 %
2207 27-08-2020 07:54:17 13 C 39 %
2208 27-08-2020 08:04:17 13 C 39 %
2209 27-08-2020 08:14:17 13.1 C 39 %
2210 27-08-2020 08:24:17 13.8 C 38 %
2211 27-08-2020 08:34:18 14.1 C 36 %
2212 27-08-2020 08:44:18 14.5 C 36 %
2213 27-08-2020 08:54:17 15.4 C 35 %
2214 27-08-2020 09:04:18 15.9 C 34 %
2215 27-08-2020 09:14:18 16.3 C 33 %
2216 27-08-2020 09:24:18 16.4 C 33 %
2217 27-08-2020 09:34:17 17 C 32 %
2218 27-08-2020 09:44:17 17.5 C 31 %
2219 27-08-2020 09:54:17 17.3 C 32 %
2220 27-08-2020 10:04:17 16.8 C 32 %
2221 27-08-2020 10:14:17 16.9 C 32 %
2222 27-08-2020 10:24:17 17.5 C 32 %
2223 27-08-2020 10:34:17 18 C 31 %
2224 27-08-2020 10:44:17 19.2 C 30 %
2225 27-08-2020 10:54:17 19.7 C 30 %
Sensor: Nr:Datum:Temp:Feuchte:
Aussen-T/F 2226 27-08-2020 11:04:17 20.8 C 28 %
2227 27-08-2020 11:14:17 20 C 28 %
2228 27-08-2020 11:24:18 20.3 C 28 %
2229 27-08-2020 11:34:17 19.7 C 28 %
2230 27-08-2020 11:44:18 20.4 C 28 %
2231 27-08-2020 11:54:17 20.6 C 27 %
2232 27-08-2020 12:04:17 20.4 C 27 %
2233 27-08-2020 12:14:17 20.6 C 27 %
2234 27-08-2020 12:24:17 20.9 C 27 %
2235 27-08-2020 12:34:18 20.6 C 26 %
2236 27-08-2020 12:44:18 21.3 C 26 %
2237 27-08-2020 12:54:17 21.6 C 25 %
2238 27-08-2020 13:04:17 21.7 C 25 %
2239 27-08-2020 13:14:17 21.2 C 25 %
2240 27-08-2020 13:24:17 20.4 C 26 %
2241 27-08-2020 13:34:18 21.1 C 25 %
2242 27-08-2020 13:44:18 21.2 C 25 %
2243 27-08-2020 13:54:17 21.7 C 25 %
2244 27-08-2020 14:04:17 22.3 C 23 %
2245 27-08-2020 14:14:17 22.1 C 23 %
2246 27-08-2020 14:24:18 23.6 C 22 %
2247 27-08-2020 14:34:17 25.6 C 20 %
2248 27-08-2020 14:44:18 25.3 C 20 %
2249 27-08-2020 14:54:17 27.5 C 20 %
2250 27-08-2020 15:04:18 26.2 C 20 %
Sensor: Nr:Datum:Temp:Feuchte:
Aussen-T/F 2251 27-08-2020 15:14:18 28.3 C 20 %
2252 27-08-2020 15:24:17 27.6 C 20 %
2253 27-08-2020 15:34:17 29.9 C 20 %
2254 27-08-2020 15:44:17 29.5 C 20 %
2255 27-08-2020 15:54:17 29.4 C 20 %
2256 27-08-2020 16:04:17 31 C 20 %
2257 27-08-2020 16:14:17 29.2 C 20 %
2258 27-08-2020 16:24:17 29.2 C 20 %
2259 27-08-2020 16:34:17 29.8 C 20 %
2260 27-08-2020 16:44:17 30.5 C 20 %
2261 27-08-2020 16:54:18 27.9 C 20 %
2262 27-08-2020 17:04:18 29.4 C 20 %
2263 27-08-2020 17:14:18 29.5 C 20 %
2264 27-08-2020 17:24:17 29.6 C 20 %
2265 27-08-2020 17:34:18 28.7 C 20 %
2266 27-08-2020 17:44:18 28.8 C 20 %
2267 27-08-2020 17:54:17 28.1 C 20 %
2268 27-08-2020 18:04:18 26 C 20 %
2269 27-08-2020 18:14:18 25.3 C 20 %
2270 27-08-2020 18:24:17 24.8 C 20 %
2271 27-08-2020 18:34:17 25 C 20 %
2272 27-08-2020 18:44:17 24.7 C 20 %
2273 27-08-2020 18:54:17 24.6 C 20 %
2274 27-08-2020 19:04:17 24.4 C 20 %
2275 27-08-2020 19:14:17 24 C 20 %
Sensor: Nr:Datum:Temp:Feuchte:
Aussen-T/F 2276 27-08-2020 19:24:17 23.7 C 20 %
2277 27-08-2020 19:34:17 23.1 C 20 %
2278 27-08-2020 19:44:18 22.5 C 20 %
2279 27-08-2020 19:54:17 20.9 C 23 %
2280 27-08-2020 20:04:18 20.2 C 24 %
2281 27-08-2020 20:14:18 19.8 C 25 %
2282 27-08-2020 20:24:18 19.5 C 25 %
2283 27-08-2020 20:34:17 19 C 25 %
2284 27-08-2020 20:44:17 18.8 C 26 %
2285 27-08-2020 20:54:17 18.5 C 26 %
2286 27-08-2020 21:04:18 18.5 C 26 %
2287 27-08-2020 21:14:18 18.2 C 26 %
2288 27-08-2020 21:24:17 18.2 C 26 %
2289 27-08-2020 21:34:17 18.2 C 26 %
2290 27-08-2020 21:44:17 18.3 C 26 %
2291 27-08-2020 21:54:17 18 C 26 %
2292 27-08-2020 22:04:17 18.1 C 26 %
2293 27-08-2020 22:14:17 17.7 C 27 %
2294 27-08-2020 22:24:17 17.7 C 27 %
2295 27-08-2020 22:34:17 17.2 C 28 %
2296 27-08-2020 22:44:17 17.4 C 29 %
2297 27-08-2020 22:54:18 18 C 27 %
2298 27-08-2020 23:04:17 18.2 C 27 %
2299 27-08-2020 23:14:17 17.4 C 31 %
2300 27-08-2020 23:24:17 17.7 C 31 %
Sensor: Nr:Datum:Temp:Feuchte:
Aussen-T/F 2301 27-08-2020 23:34:17 16.8 C 35 %
2302 27-08-2020 23:44:17 16.4 C 36 %
2303 27-08-2020 23:54:17 16.6 C 36 %
2304 28-08-2020 00:04:18 16.9 C 35 %
2305 28-08-2020 00:14:18 17 C 34 %
2306 28-08-2020 00:24:17 17 C 34 %
2307 28-08-2020 00:34:17 17.1 C 34 %
2308 28-08-2020 00:44:17 17.2 C 32 %
2309 28-08-2020 00:54:17 17.1 C 33 %
2310 28-08-2020 01:04:18 17 C 34 %
2311 28-08-2020 01:14:18 17.1 C 33 %
2312 28-08-2020 01:24:17 17.2 C 33 %
2313 28-08-2020 01:34:18 16.7 C 35 %
2314 28-08-2020 01:44:18 15.9 C 39 %
2315 28-08-2020 01:54:17 15.9 C 41 %
2316 28-08-2020 02:04:18 16.1 C 41 %
2317 28-08-2020 02:14:18 16 C 41 %
2318 28-08-2020 02:24:18 16 C 42 %
2319 28-08-2020 02:34:18 16 C 42 %
2320 28-08-2020 02:44:18 15.8 C 43 %
2321 28-08-2020 02:54:17 15.6 C 42 %
2322 28-08-2020 03:04:18 15.6 C 42 %
2323 28-08-2020 03:14:18 15.5 C 42 %
2324 28-08-2020 03:24:17 15.6 C 42 %
2325 28-08-2020 03:34:17 15.6 C 42 %
Sensor: Nr:Datum:Temp:Feuchte:
Aussen-T/F 2326 28-08-2020 03:44:17 15.6 C 42 %
2327 28-08-2020 03:54:17 15.5 C 42 %
2328 28-08-2020 04:04:17 15.4 C 42 %
2329 28-08-2020 04:14:17 15.5 C 42 %
2330 28-08-2020 04:24:17 15.5 C 42 %
2331 28-08-2020 04:34:17 15.6 C 42 %
2332 28-08-2020 04:44:17 15.5 C 42 %
2333 28-08-2020 04:54:17 15.8 C 41 %
2334 28-08-2020 05:04:18 15.9 C 41 %
2335 28-08-2020 05:14:18 16 C 40 %
2336 28-08-2020 05:24:17 15.6 C 42 %
2337 28-08-2020 05:34:18 15.4 C 42 %
2338 28-08-2020 05:44:18 15.2 C 43 %
2339 28-08-2020 05:54:18 15.3 C 43 %
2340 28-08-2020 06:04:17 15.3 C 42 %
2341 28-08-2020 06:14:17 15.5 C 42 %
2342 28-08-2020 06:24:17 15.5 C 42 %
2343 28-08-2020 06:34:18 15.5 C 42 %
2344 28-08-2020 06:44:18 15.6 C 41 %
2345 28-08-2020 06:54:17 15.5 C 42 %
2346 28-08-2020 07:04:18 15.5 C 42 %
2347 28-08-2020 07:14:18 15.5 C 42 %
2348 28-08-2020 07:24:17 15.5 C 42 %
2349 28-08-2020 07:34:18 15.9 C 40 %
2350 28-08-2020 07:44:18 15.8 C 41 %
Sensor: Nr:Datum:Temp:Feuchte:
Aussen-T/F 2351 28-08-2020 07:54:18 16 C 40 %
2352 28-08-2020 08:04:18 16.4 C 39 %
2353 28-08-2020 08:14:18 16.6 C 38 %
2354 28-08-2020 08:24:18 16.9 C 36 %
2355 28-08-2020 08:34:17 17 C 36 %
2356 28-08-2020 08:44:17 17.5 C 35 %
2357 28-08-2020 08:54:17 17.5 C 35 %
2358 28-08-2020 09:04:17 17.6 C 35 %
2359 28-08-2020 09:14:17 17.9 C 34 %
2360 28-08-2020 09:24:18 17.8 C 34 %
2361 28-08-2020 09:34:17 18.1 C 33 %
2362 28-08-2020 09:44:17 18.1 C 33 %
2363 28-08-2020 09:54:17 18.2 C 33 %
2364 28-08-2020 10:04:18 18.8 C 32 %
2365 28-08-2020 10:14:18 19.4 C 31 %
2366 28-08-2020 10:24:17 19.8 C 30 %
2367 28-08-2020 10:34:17 19.8 C 29 %
2368 28-08-2020 10:44:18 20 C 28 %
2369 28-08-2020 10:54:17 20.4 C 28 %
2370 28-08-2020 11:04:18 21.2 C 27 %
2371 28-08-2020 11:14:18 20.7 C 28 %
2372 28-08-2020 11:24:18 20.6 C 28 %
2373 28-08-2020 11:34:18 21.9 C 27 %
2374 28-08-2020 11:44:18 22.5 C 25 %
2375 28-08-2020 11:54:17 22.8 C 25 %
Sensor: Nr:Datum:Temp:Feuchte:
Aussen-T/F 2376 28-08-2020 12:04:17 22.9 C 25 %
2377 28-08-2020 12:14:17 22 C 25 %
2378 28-08-2020 12:24:17 22.4 C 25 %
2379 28-08-2020 12:34:17 21.5 C 26 %
2380 28-08-2020 12:44:17 21.3 C 26 %
2381 28-08-2020 12:54:17 21.8 C 26 %
2382 28-08-2020 13:04:18 22.1 C 25 %
2383 28-08-2020 13:14:18 21.8 C 26 %
2384 28-08-2020 13:24:17 21.5 C 26 %
2385 28-08-2020 13:34:18 21.6 C 26 %
2386 28-08-2020 13:44:18 21.7 C 25 %
2387 28-08-2020 13:54:17 21.5 C 26 %
2388 28-08-2020 14:04:17 22.2 C 25 %
2389 28-08-2020 14:14:17 22.5 C 25 %
2390 28-08-2020 14:24:17 22.9 C 25 %
2391 28-08-2020 14:34:18 22.7 C 25 %
2392 28-08-2020 14:44:18 22.5 C 25 %
2393 28-08-2020 14:54:17 22.5 C 25 %
2394 28-08-2020 15:04:18 21.9 C 25 %
2395 28-08-2020 15:14:18 22.7 C 25 %
2396 28-08-2020 15:24:18 22.7 C 25 %
2397 28-08-2020 15:34:17 23.8 C 23 %
2398 28-08-2020 15:44:18 24.5 C 22 %
2399 28-08-2020 15:54:18 22.9 C 24 %
2400 28-08-2020 16:04:17 23 C 23 %
Sensor: Nr:Datum:Temp:Feuchte:
Aussen-T/F 2401 28-08-2020 16:14:18 22.9 C 24 %
2402 28-08-2020 16:24:17 22 C 24 %
2403 28-08-2020 16:34:18 23.7 C 23 %
2404 28-08-2020 16:44:18 24.7 C 22 %
2405 28-08-2020 16:54:17 24.6 C 22 %
2406 28-08-2020 17:04:17 26 C 21 %
2407 28-08-2020 17:14:17 23.9 C 22 %
2408 28-08-2020 17:24:17 23.4 C 22 %
2409 28-08-2020 17:34:18 23.7 C 21 %
2410 28-08-2020 17:44:18 23 C 22 %
2411 28-08-2020 17:54:17 23.4 C 21 %
2412 28-08-2020 18:04:18 23.1 C 21 %
2413 28-08-2020 18:14:18 22 C 22 %
2414 28-08-2020 18:24:18 21.6 C 23 %
2415 28-08-2020 18:34:18 21.3 C 23 %
2416 28-08-2020 18:44:18 20.9 C 24 %
2417 28-08-2020 18:54:17 20.7 C 25 %
2418 28-08-2020 19:04:18 20.7 C 23 %
2419 28-08-2020 19:14:18 20.5 C 23 %
2420 28-08-2020 19:24:17 20.4 C 23 %
2421 28-08-2020 19:34:18 20.5 C 23 %
2422 28-08-2020 19:44:18 20.5 C 23 %
2423 28-08-2020 19:54:18 19.7 C 25 %
2424 28-08-2020 20:04:18 19.5 C 25 %
2425 28-08-2020 20:14:18 19.3 C 26 %
Sensor: Nr:Datum:Temp:Feuchte:
Aussen-T/F 2426 28-08-2020 20:24:17 19.1 C 25 %
2427 28-08-2020 20:34:17 18.2 C 26 %
2428 28-08-2020 20:44:17 16.2 C 30 %
2429 28-08-2020 20:54:17 15 C 34 %
2430 28-08-2020 21:04:18 14.2 C 37 %
2431 28-08-2020 21:14:18 13.8 C 40 %
2432 28-08-2020 21:24:17 14.2 C 38 %
2433 28-08-2020 21:34:18 14.1 C 38 %
2434 28-08-2020 21:44:18 13.6 C 40 %
2435 28-08-2020 21:54:18 13.3 C 41 %
2436 28-08-2020 22:04:17 13.2 C 40 %
2437 28-08-2020 22:14:17 13.4 C 39 %
2438 28-08-2020 22:24:18 13.5 C 38 %
2439 28-08-2020 22:34:17 13.4 C 39 %
2440 28-08-2020 22:44:17 13 C 40 %
2441 28-08-2020 22:54:17 13.2 C 40 %
2442 28-08-2020 23:04:18 12.9 C 41 %
2443 28-08-2020 23:14:18 12.3 C 41 %
2444 28-08-2020 23:24:17 12.6 C 41 %
2445 28-08-2020 23:34:17 12.4 C 41 %
2446 28-08-2020 23:44:17 12.5 C 41 %
2447 28-08-2020 23:54:17 12.4 C 41 %
2448 29-08-2020 00:04:18 12.5 C 41 %
2449 29-08-2020 00:14:18 12.5 C 40 %
2450 29-08-2020 00:24:17 12.7 C 40 %
Sensor: Nr:Datum:Temp:Feuchte:
Aussen-T/F 2451 29-08-2020 00:34:18 12.6 C 41 %
2452 29-08-2020 00:44:18 12.8 C 40 %
2453 29-08-2020 00:54:17 12.5 C 41 %
2454 29-08-2020 01:04:18 12.7 C 41 %
2455 29-08-2020 01:14:18 12.7 C 40 %
2456 29-08-2020 01:24:17 12.2 C 41 %
2457 29-08-2020 01:34:18 12.5 C 41 %
2458 29-08-2020 01:44:18 12.2 C 41 %
2459 29-08-2020 01:54:18 11.7 C 42 %
2460 29-08-2020 02:04:17 11.8 C 44 %
2461 29-08-2020 02:14:17 12.1 C 42 %
2462 29-08-2020 02:24:17 12.1 C 41 %
2463 29-08-2020 02:34:18 11.8 C 43 %
2464 29-08-2020 02:44:18 11.7 C 44 %
2465 29-08-2020 02:54:17 12 C 42 %
2466 29-08-2020 03:04:17 12 C 41 %
2467 29-08-2020 03:14:17 11.5 C 42 %
2468 29-08-2020 03:24:18 11.2 C 43 %
2469 29-08-2020 03:34:17 11.3 C 45 %
2470 29-08-2020 03:44:17 11.7 C 44 %
2471 29-08-2020 03:54:17 12 C 41 %
2472 29-08-2020 04:04:17 12 C 41 %
2473 29-08-2020 04:14:17 11.7 C 42 %
2474 29-08-2020 04:24:17 11.5 C 43 %
2475 29-08-2020 04:34:18 11.3 C 43 %
Sensor: Nr:Datum:Temp:Feuchte:
Aussen-T/F 2476 29-08-2020 04:44:18 11.2 C 43 %
2477 29-08-2020 04:54:17 10.9 C 45 %
2478 29-08-2020 05:04:17 10.8 C 45 %
2479 29-08-2020 05:14:17 11 C 44 %
2480 29-08-2020 05:24:17 11.1 C 43 %
2481 29-08-2020 05:34:18 10.7 C 45 %
2482 29-08-2020 05:44:18 10.5 C 46 %
2483 29-08-2020 05:54:17 10.4 C 46 %
2484 29-08-2020 06:04:18 10.6 C 46 %
2485 29-08-2020 06:14:18 10.4 C 46 %
2486 29-08-2020 06:24:18 10.6 C 46 %
2487 29-08-2020 06:34:17 10.7 C 45 %
2488 29-08-2020 06:44:17 10.8 C 45 %
2489 29-08-2020 06:54:18 10.9 C 45 %
2490 29-08-2020 07:04:17 11 C 44 %
2491 29-08-2020 07:14:17 10.8 C 45 %
2492 29-08-2020 07:24:17 11 C 44 %
2493 29-08-2020 07:34:17 11.1 C 44 %
2494 29-08-2020 07:44:17 11 C 44 %
2495 29-08-2020 07:54:17 11.4 C 45 %
2496 29-08-2020 08:04:17 11.8 C 45 %
2497 29-08-2020 08:14:17 12.1 C 43 %
2498 29-08-2020 08:24:18 12.4 C 43 %
2499 29-08-2020 08:34:18 12.7 C 41 %
2500 29-08-2020 08:44:18 13.4 C 39 %
Sensor: Nr:Datum:Temp:Feuchte:
Aussen-T/F 2501 29-08-2020 08:54:18 13.8 C 38 %
2502 29-08-2020 09:04:17 14.5 C 36 %
2503 29-08-2020 09:14:17 15 C 35 %
2504 29-08-2020 09:24:17 15.4 C 34 %
2505 29-08-2020 09:34:17 15.2 C 34 %
2506 29-08-2020 09:44:18 15.7 C 34 %
2507 29-08-2020 09:54:17 16 C 33 %
2508 29-08-2020 10:04:17 16.5 C 32 %
2509 29-08-2020 10:14:17 16.7 C 32 %
2510 29-08-2020 10:24:17 16.7 C 32 %
2511 29-08-2020 10:34:17 16.6 C 32 %
2512 29-08-2020 10:44:17 17.1 C 32 %
2513 29-08-2020 10:54:17 17.6 C 31 %
2514 29-08-2020 11:04:18 18.1 C 31 %
2515 29-08-2020 11:14:18 17.8 C 31 %
2516 29-08-2020 11:24:17 18.4 C 30 %
2517 29-08-2020 11:34:18 18.5 C 30 %
2518 29-08-2020 11:44:18 19.1 C 29 %
2519 29-08-2020 11:54:18 19.7 C 29 %
2520 29-08-2020 12:04:17 19.7 C 28 %
2521 29-08-2020 12:14:17 19 C 28 %
2522 29-08-2020 12:24:17 18.7 C 29 %
2523 29-08-2020 12:34:18 19.4 C 28 %
2524 29-08-2020 12:44:18 19.1 C 28 %
2525 29-08-2020 12:54:17 20 C 27 %
Sensor: Nr:Datum:Temp:Feuchte:
Aussen-T/F 2526 29-08-2020 13:04:17 19.4 C 28 %
2527 29-08-2020 13:14:17 19.7 C 28 %
2528 29-08-2020 13:24:17 20.2 C 27 %
2529 29-08-2020 13:34:18 20 C 27 %
2530 29-08-2020 13:44:18 20 C 27 %
2531 29-08-2020 13:54:17 19.7 C 27 %
2532 29-08-2020 14:04:18 20.5 C 26 %
2533 29-08-2020 14:14:18 20.6 C 26 %
2534 29-08-2020 14:24:18 21.3 C 25 %
2535 29-08-2020 14:34:18 25.2 C 20 %
2536 29-08-2020 14:44:18 25.9 C 20 %
2537 29-08-2020 14:54:17 26.1 C 20 %
2538 29-08-2020 15:04:18 24.7 C 20 %
2539 29-08-2020 15:14:18 26.6 C 20 %
2540 29-08-2020 15:24:17 28.3 C 20 %
2541 29-08-2020 15:34:18 23.2 C 20 %
2542 29-08-2020 15:44:18 23.3 C 20 %
2543 29-08-2020 15:54:17 25.9 C 20 %
2544 29-08-2020 16:04:17 27.7 C 20 %
2545 29-08-2020 16:14:17 27.9 C 20 %
2546 29-08-2020 16:24:17 27.1 C 20 %
2547 29-08-2020 16:34:18 27.9 C 20 %
2548 29-08-2020 16:44:18 24.1 C 20 %
2549 29-08-2020 16:54:17 23.7 C 20 %
2550 29-08-2020 17:04:17 26.8 C 20 %
Sensor: Nr:Datum:Temp:Feuchte:
Aussen-T/F 2551 29-08-2020 17:14:17 29.2 C 20 %
2552 29-08-2020 17:24:17 24 C 20 %
2553 29-08-2020 17:34:18 23.5 C 20 %
2554 29-08-2020 17:44:18 22.5 C 20 %
2555 29-08-2020 17:54:17 25.2 C 20 %
2556 29-08-2020 18:04:17 22.3 C 20 %
2557 29-08-2020 18:14:17 21.5 C 22 %
2558 29-08-2020 18:24:17 21.1 C 21 %
2559 29-08-2020 18:34:18 21.1 C 23 %
2560 29-08-2020 18:44:18 20.4 C 25 %
2561 29-08-2020 18:54:17 21.4 C 22 %
2562 29-08-2020 19:04:17 21.2 C 22 %
2563 29-08-2020 19:14:17 21.4 C 22 %
2564 29-08-2020 19:24:17 21.3 C 23 %
2565 29-08-2020 19:34:17 21 C 23 %
2566 29-08-2020 19:44:17 20.8 C 25 %
2567 29-08-2020 19:54:17 20.5 C 25 %
2568 29-08-2020 20:04:17 19.5 C 26 %
2569 29-08-2020 20:14:17 19.5 C 26 %
2570 29-08-2020 20:24:17 19.4 C 27 %
2571 29-08-2020 20:34:17 19.1 C 27 %
2572 29-08-2020 20:44:17 19 C 27 %
2573 29-08-2020 20:54:17 19 C 27 %
2574 29-08-2020 21:04:17 18.9 C 28 %
2575 29-08-2020 21:14:17 17.5 C 30 %
Sensor: Nr:Datum:Temp:Feuchte:
Aussen-T/F 2576 29-08-2020 21:24:17 16.9 C 33 %
2577 29-08-2020 21:34:17 15.3 C 37 %
2578 29-08-2020 21:44:17 15 C 37 %
2579 29-08-2020 21:54:17 14.4 C 39 %
2580 29-08-2020 22:04:18 14.3 C 39 %
2581 29-08-2020 22:14:18 14.1 C 41 %
2582 29-08-2020 22:24:18 14.1 C 42 %
2583 29-08-2020 22:34:17 13.7 C 41 %
2584 29-08-2020 22:44:18 13.4 C 41 %
2585 29-08-2020 22:54:17 13.1 C 41 %
2586 29-08-2020 23:04:17 13.1 C 42 %
2587 29-08-2020 23:14:17 13 C 42 %
2588 29-08-2020 23:24:18 13.2 C 43 %
2589 29-08-2020 23:34:18 13.2 C 43 %
2590 29-08-2020 23:44:18 13.4 C 42 %
2591 29-08-2020 23:54:17 13.4 C 41 %
2592 30-08-2020 00:04:18 12.9 C 43 %
2593 30-08-2020 00:14:18 12.7 C 44 %
2594 30-08-2020 00:24:18 12.5 C 44 %
2595 30-08-2020 00:34:17 12.7 C 44 %
2596 30-08-2020 00:44:18 12.7 C 44 %
2597 30-08-2020 00:54:17 12.4 C 44 %
2598 30-08-2020 01:04:18 11.8 C 45 %
2599 30-08-2020 01:14:18 12.1 C 44 %
2600 30-08-2020 01:24:18 12 C 44 %
Sensor: Nr:Datum:Temp:Feuchte:
Aussen-T/F 2601 30-08-2020 01:34:18 11.7 C 45 %
2602 30-08-2020 01:44:18 11.7 C 45 %
2603 30-08-2020 01:54:17 11.6 C 45 %
2604 30-08-2020 02:04:17 11.2 C 45 %
2605 30-08-2020 02:14:18 11 C 45 %
2606 30-08-2020 02:24:17 11.4 C 45 %
2607 30-08-2020 02:34:18 11.1 C 45 %
2608 30-08-2020 02:44:18 11 C 45 %
2609 30-08-2020 02:54:17 10.8 C 45 %
2610 30-08-2020 03:04:17 10.8 C 45 %
2611 30-08-2020 03:14:18 10.6 C 45 %
2612 30-08-2020 03:24:17 10.6 C 45 %
2613 30-08-2020 03:34:18 10.6 C 45 %
2614 30-08-2020 03:44:18 10.5 C 45 %
2615 30-08-2020 03:54:17 10.1 C 45 %
2616 30-08-2020 04:04:18 10.1 C 45 %
2617 30-08-2020 04:14:18 10.1 C 45 %
2618 30-08-2020 04:24:17 10.1 C 45 %
2619 30-08-2020 04:34:18 10.5 C 45 %
2620 30-08-2020 04:44:18 10.4 C 45 %
2621 30-08-2020 04:54:17 10.6 C 45 %
2622 30-08-2020 05:04:17 10.8 C 45 %
2623 30-08-2020 05:14:17 10.9 C 45 %
2624 30-08-2020 05:24:18 10.8 C 45 %
2625 30-08-2020 05:34:18 10.6 C 45 %
Sensor: Nr:Datum:Temp:Feuchte:
Aussen-T/F 2626 30-08-2020 05:44:18 10.2 C 45 %
2627 30-08-2020 05:54:18 10.1 C 45 %
2628 30-08-2020 06:04:17 10.2 C 45 %
2629 30-08-2020 06:14:18 10.3 C 45 %
2630 30-08-2020 06:24:17 10.5 C 45 %
2631 30-08-2020 06:34:17 10.5 C 45 %
2632 30-08-2020 06:44:18 10.4 C 45 %
2633 30-08-2020 06:54:18 10.5 C 45 %
2634 30-08-2020 07:04:17 10.7 C 45 %
2635 30-08-2020 07:14:17 10.9 C 45 %
2636 30-08-2020 07:24:17 10.8 C 45 %
2637 30-08-2020 07:34:17 11.2 C 44 %
2638 30-08-2020 07:44:18 11.4 C 44 %
2639 30-08-2020 07:54:17 11.5 C 44 %
2640 30-08-2020 08:04:18 11.6 C 44 %
2641 30-08-2020 08:14:18 11.8 C 44 %
2642 30-08-2020 08:24:18 11.8 C 44 %
2643 30-08-2020 08:34:17 12 C 43 %
2644 30-08-2020 08:44:17 12.4 C 43 %
2645 30-08-2020 08:54:17 12.6 C 43 %
2646 30-08-2020 09:04:17 13.2 C 41 %
2647 30-08-2020 09:14:17 13.5 C 41 %
2648 30-08-2020 09:24:17 14.2 C 39 %
2649 30-08-2020 09:34:17 14.3 C 37 %
2650 30-08-2020 09:44:17 14.7 C 37 %
Sensor: Nr:Datum:Temp:Feuchte:
Aussen-T/F 2651 30-08-2020 09:54:17 15 C 36 %
2652 30-08-2020 10:04:17 15.5 C 36 %
2653 30-08-2020 10:14:17 15.8 C 35 %
2654 30-08-2020 10:24:17 15.8 C 35 %
2655 30-08-2020 10:34:17 16.3 C 34 %
2656 30-08-2020 10:44:17 16.5 C 33 %
2657 30-08-2020 10:54:17 16.5 C 34 %
2658 30-08-2020 11:04:17 16.3 C 34 %
2659 30-08-2020 11:14:18 17.1 C 33 %
2660 30-08-2020 11:24:18 17.3 C 32 %
2661 30-08-2020 11:34:17 17.8 C 32 %
2662 30-08-2020 11:44:17 18 C 31 %
2663 30-08-2020 11:54:17 17.8 C 32 %
2664 30-08-2020 12:04:17 17.7 C 32 %
2665 30-08-2020 12:14:17 18.1 C 31 %
2666 30-08-2020 12:24:17 17.8 C 31 %
2667 30-08-2020 12:34:18 18.5 C 30 %
2668 30-08-2020 12:44:18 18.7 C 31 %
2669 30-08-2020 12:54:17 18.9 C 30 %
2670 30-08-2020 13:04:17 19.3 C 30 %
2671 30-08-2020 13:14:18 19.9 C 30 %
2672 30-08-2020 13:24:17 19.6 C 30 %
2673 30-08-2020 13:34:18 19.8 C 29 %
2674 30-08-2020 13:44:18 20.1 C 29 %
2675 30-08-2020 13:54:18 19.4 C 29 %
Sensor: Nr:Datum:Temp:Feuchte:
Aussen-T/F 2676 30-08-2020 14:04:17 20.6 C 28 %
2677 30-08-2020 14:14:17 21 C 27 %
2678 30-08-2020 14:24:18 20.9 C 28 %
2679 30-08-2020 14:34:17 21.4 C 26 %
2680 30-08-2020 14:44:17 21.8 C 26 %
2681 30-08-2020 14:54:17 22.7 C 25 %
2682 30-08-2020 15:04:17 23.1 C 24 %
2683 30-08-2020 15:14:17 22.7 C 24 %
2684 30-08-2020 15:24:17 23.7 C 23 %
2685 30-08-2020 15:34:18 24.8 C 21 %
2686 30-08-2020 15:44:18 26.1 C 20 %
2687 30-08-2020 15:54:17 28.7 C 20 %
2688 30-08-2020 16:04:18 28.1 C 20 %
2689 30-08-2020 16:14:18 24.8 C 20 %
2690 30-08-2020 16:24:17 22.9 C 20 %
2691 30-08-2020 16:34:17 22.8 C 20 %
2692 30-08-2020 16:44:18 23.3 C 20 %
2693 30-08-2020 16:54:17 23.4 C 20 %
2694 30-08-2020 17:04:17 22.8 C 21 %
2695 30-08-2020 17:14:17 22.1 C 21 %
2696 30-08-2020 17:24:17 23.3 C 20 %
2697 30-08-2020 17:34:17 23.9 C 20 %
2698 30-08-2020 17:44:18 24.7 C 20 %
2699 30-08-2020 17:54:17 23.7 C 20 %
2700 30-08-2020 18:04:17 22 C 20 %
Sensor: Nr:Datum:Temp:Feuchte:
Aussen-T/F 2701 30-08-2020 18:14:18 22.6 C 20 %
2702 30-08-2020 18:24:17 22.5 C 20 %
2703 30-08-2020 18:34:17 22 C 21 %
2704 30-08-2020 18:44:17 21.8 C 21 %
2705 30-08-2020 18:54:17 21.3 C 21 %
2706 30-08-2020 19:04:17 21.2 C 21 %
2707 30-08-2020 19:14:17 21 C 22 %
2708 30-08-2020 19:24:17 20.6 C 25 %
2709 30-08-2020 19:34:17 20.3 C 25 %
2710 30-08-2020 19:44:17 19.5 C 25 %
2711 30-08-2020 19:54:17 18.9 C 27 %
2712 30-08-2020 20:04:18 18.4 C 28 %
2713 30-08-2020 20:14:18 18.3 C 28 %
2714 30-08-2020 20:24:18 17.9 C 29 %
2715 30-08-2020 20:34:18 18.6 C 28 %
2716 30-08-2020 20:44:18 19.1 C 27 %
2717 30-08-2020 20:54:18 19.1 C 28 %
2718 30-08-2020 21:04:18 18.9 C 29 %
2719 30-08-2020 21:14:18 18.8 C 29 %
2720 30-08-2020 21:24:17 18.9 C 29 %
2721 30-08-2020 21:34:17 18.6 C 30 %
2722 30-08-2020 21:44:17 18.3 C 30 %
2723 30-08-2020 21:54:17 17.9 C 31 %
2724 30-08-2020 22:04:17 17.8 C 31 %
2725 30-08-2020 22:14:17 17.8 C 31 %
Sensor: Nr:Datum:Temp:Feuchte:
Aussen-T/F 2726 30-08-2020 22:24:18 17.5 C 31 %
2727 30-08-2020 22:34:18 17.3 C 32 %
2728 30-08-2020 22:44:18 17.1 C 32 %
2729 30-08-2020 22:54:18 17 C 32 %
2730 30-08-2020 23:04:18 17 C 32 %
2731 30-08-2020 23:14:18 16.7 C 33 %
2732 30-08-2020 23:24:17 16.8 C 33 %
2733 30-08-2020 23:34:17 16.8 C 33 %
2734 30-08-2020 23:44:17 16.7 C 33 %
2735 30-08-2020 23:54:17 16.2 C 34 %
2736 31-08-2020 00:04:17 16.3 C 34 %
2737 31-08-2020 00:14:17 16.3 C 34 %
2738 31-08-2020 00:24:17 15.9 C 35 %
2739 31-08-2020 00:34:17 15.9 C 35 %
2740 31-08-2020 00:44:18 15.8 C 35 %
2741 31-08-2020 00:54:17 15.7 C 35 %
2742 31-08-2020 01:04:17 15.8 C 35 %
2743 31-08-2020 01:14:17 15.9 C 35 %
2744 31-08-2020 01:24:17 16.1 C 35 %
2745 31-08-2020 01:34:17 15.9 C 35 %
2746 31-08-2020 01:44:17 15.4 C 36 %
2747 31-08-2020 01:54:17 15.2 C 36 %
2748 31-08-2020 02:04:17 15.2 C 36 %
2749 31-08-2020 02:14:17 15.5 C 36 %
2750 31-08-2020 02:24:17 15.6 C 36 %
Sensor: Nr:Datum:Temp:Feuchte:
Aussen-T/F 2751 31-08-2020 02:34:17 15.8 C 36 %
2752 31-08-2020 02:44:17 15.7 C 36 %
2753 31-08-2020 02:54:17 15.5 C 36 %
2754 31-08-2020 03:04:17 14.8 C 37 %
2755 31-08-2020 03:14:17 14.2 C 37 %
2756 31-08-2020 03:24:17 13.5 C 39 %
2757 31-08-2020 03:34:17 13.5 C 39 %
2758 31-08-2020 03:44:18 13.3 C 40 %
2759 31-08-2020 03:54:17 13.6 C 40 %
2760 31-08-2020 04:04:18 13.9 C 40 %
2761 31-08-2020 04:14:18 14 C 38 %
2762 31-08-2020 04:24:17 13.6 C 40 %
2763 31-08-2020 04:34:18 13.6 C 40 %
2764 31-08-2020 04:44:18 13.1 C 40 %
2765 31-08-2020 04:54:17 13.1 C 41 %
2766 31-08-2020 05:04:17 12.8 C 41 %
2767 31-08-2020 05:14:17 12.5 C 42 %
2768 31-08-2020 05:24:18 12.5 C 43 %
2769 31-08-2020 05:34:18 12.7 C 43 %
2770 31-08-2020 05:44:18 12.2 C 42 %
2771 31-08-2020 05:54:17 12.7 C 42 %
2772 31-08-2020 06:04:17 12.5 C 42 %
2773 31-08-2020 06:14:17 12.2 C 43 %
2774 31-08-2020 06:24:17 12 C 43 %
2775 31-08-2020 06:34:17 12.4 C 44 %
Sensor: Nr:Datum:Temp:Feuchte:
Aussen-T/F 2776 31-08-2020 06:44:17 12.7 C 44 %
2777 31-08-2020 06:54:17 13 C 42 %
2778 31-08-2020 07:04:17 13.2 C 41 %
2779 31-08-2020 07:14:18 13.4 C 41 %
2780 31-08-2020 07:24:17 13.7 C 40 %
2781 31-08-2020 07:34:18 13.7 C 40 %
2782 31-08-2020 07:44:18 14 C 39 %
2783 31-08-2020 07:54:18 14.3 C 38 %
2784 31-08-2020 08:04:18 14.3 C 38 %
2785 31-08-2020 08:14:18 14.7 C 38 %
2786 31-08-2020 08:24:17 15.2 C 37 %
2787 31-08-2020 08:34:17 15.7 C 36 %
2788 31-08-2020 08:44:18 15.8 C 36 %
2789 31-08-2020 08:54:17 15.7 C 36 %
2790 31-08-2020 09:04:18 16.2 C 35 %
2791 31-08-2020 09:14:18 16.2 C 35 %
2792 31-08-2020 09:24:17 16.3 C 35 %
2793 31-08-2020 09:34:17 16.4 C 35 %
2794 31-08-2020 09:44:18 16.8 C 35 %
2795 31-08-2020 09:54:18 17.2 C 34 %
2796 31-08-2020 10:04:17 17.2 C 34 %
2797 31-08-2020 10:14:17 17.2 C 34 %
2798 31-08-2020 10:24:17 17.4 C 34 %
2799 31-08-2020 10:34:17 17.4 C 34 %
2800 31-08-2020 10:44:17 17.8 C 34 %
Sensor: Nr:Datum:Temp:Feuchte:
Aussen-T/F 2801 31-08-2020 10:54:18 18.1 C 33 %
2802 31-08-2020 11:04:18 18.2 C 32 %
2803 31-08-2020 11:14:18 18.5 C 32 %
2804 31-08-2020 11:24:17 19.2 C 31 %
2805 31-08-2020 11:34:18 20 C 30 %
2806 31-08-2020 11:44:18 20.4 C 30 %
2807 31-08-2020 11:54:17 21 C 28 %
2808 31-08-2020 12:04:18 21.3 C 29 %
2809 31-08-2020 12:14:18 21 C 29 %
2810 31-08-2020 12:24:17 20.3 C 30 %
2811 31-08-2020 12:34:17 21.6 C 28 %
2812 31-08-2020 12:44:17 20.7 C 30 %
2813 31-08-2020 12:54:17 21 C 28 %
2814 31-08-2020 13:04:17 21.8 C 29 %
2815 31-08-2020 13:14:17 21.3 C 29 %
2816 31-08-2020 13:24:17 21.2 C 29 %
2817 31-08-2020 13:34:18 21 C 28 %
2818 31-08-2020 13:44:18 20.4 C 30 %
2819 31-08-2020 13:54:18 20.8 C 30 %
2820 31-08-2020 14:04:18 20.6 C 30 %
2821 31-08-2020 14:14:18 19.3 C 30 %
2822 31-08-2020 14:24:17 17.2 C 36 %
2823 31-08-2020 14:34:17 16.6 C 40 %
2824 31-08-2020 14:44:17 16.3 C 41 %
2825 31-08-2020 14:54:17 16.1 C 42 %
Sensor: Nr:Datum:Temp:Feuchte:
Aussen-T/F 2826 31-08-2020 15:04:18 15.5 C 41 %
2827 31-08-2020 15:14:18 15.6 C 42 %
2828 31-08-2020 15:24:17 16 C 40 %
2829 31-08-2020 15:34:18 16.4 C 40 %
2830 31-08-2020 15:44:18 16.5 C 39 %
2831 31-08-2020 15:54:17 16.6 C 40 %
2832 31-08-2020 16:04:18 16.7 C 39 %
2833 31-08-2020 16:14:18 16.9 C 39 %
2834 31-08-2020 16:24:17 17.7 C 38 %
2835 31-08-2020 16:34:18 17.5 C 37 %
2836 31-08-2020 16:44:18 17.4 C 37 %
2837 31-08-2020 16:54:17 17 C 38 %
2838 31-08-2020 17:04:17 16.6 C 40 %
2839 31-08-2020 17:14:17 16.1 C 40 %
2840 31-08-2020 17:24:17 16 C 41 %
2841 31-08-2020 17:34:17 15.9 C 42 %
2842 31-08-2020 17:44:17 16 C 42 %
2843 31-08-2020 17:54:17 15.9 C 42 %
2844 31-08-2020 18:04:17 15.9 C 43 %
2845 31-08-2020 18:14:18 15.8 C 42 %
2846 31-08-2020 18:24:17 16 C 41 %
2847 31-08-2020 18:34:17 16.1 C 40 %
2848 31-08-2020 18:44:17 15.9 C 40 %
2849 31-08-2020 18:54:17 15.7 C 42 %
2850 31-08-2020 19:04:18 15.6 C 43 %
Sensor: Nr:Datum:Temp:Feuchte:
Aussen-T/F 2851 31-08-2020 19:14:18 15.1 C 43 %
2852 31-08-2020 19:24:17 14.8 C 43 %
2853 31-08-2020 19:34:17 14.8 C 43 %
2854 31-08-2020 19:44:17 14.8 C 43 %
2855 31-08-2020 19:54:17 14.7 C 43 %
2856 31-08-2020 20:04:18 14.7 C 43 %
2857 31-08-2020 20:14:18 14.5 C 43 %
2858 31-08-2020 20:24:17 14.5 C 43 %
2859 31-08-2020 20:34:18 14.4 C 43 %
2860 31-08-2020 20:44:18 14.4 C 42 %
2861 31-08-2020 20:54:18 14.4 C 42 %
2862 31-08-2020 21:04:18 14.3 C 42 %
2863 31-08-2020 21:14:18 14.2 C 42 %
2864 31-08-2020 21:24:18 14.2 C 42 %
2865 31-08-2020 21:34:17 14.2 C 42 %
2866 31-08-2020 21:44:17 14.2 C 42 %
2867 31-08-2020 21:54:17 14.2 C 42 %
2868 31-08-2020 22:04:17 14.2 C 42 %
2869 31-08-2020 22:14:17 14.2 C 42 %
2870 31-08-2020 22:24:17 14.2 C 42 %
2871 31-08-2020 22:34:17 14.2 C 42 %
2872 31-08-2020 22:44:17 14.1 C 42 %
2873 31-08-2020 22:54:18 14.2 C 42 %
2874 31-08-2020 23:04:17 14.3 C 42 %
2875 31-08-2020 23:14:17 14.2 C 42 %
Sensor: Nr:Datum:Temp:Feuchte:
Aussen-T/F 2876 31-08-2020 23:24:17 14.1 C 42 %
2877 31-08-2020 23:34:17 14 C 42 %
2878 31-08-2020 23:44:17 13.9 C 42 %
2879 31-08-2020 23:54:18 13.9 C 42 %
2880 01-09-2020 00:04:17 13.8 C 42 %
2881 01-09-2020 00:14:17 13.8 C 42 %
2882 01-09-2020 00:24:17 13.8 C 42 %
2883 01-09-2020 00:34:17 13.8 C 42 %
2884 01-09-2020 00:44:18 13.8 C 42 %
2885 01-09-2020 00:54:17 13.8 C 42 %
2886 01-09-2020 01:04:17 13.8 C 42 %
2887 01-09-2020 01:14:17 13.8 C 42 %
2888 01-09-2020 01:24:18 13.7 C 41 %
2889 01-09-2020 01:34:17 13.7 C 41 %
2890 01-09-2020 01:44:18 13.8 C 41 %
2891 01-09-2020 01:54:17 13.6 C 41 %
2892 01-09-2020 02:04:18 13.5 C 41 %
2893 01-09-2020 02:14:18 13.5 C 41 %
2894 01-09-2020 02:24:17 13.4 C 41 %
2895 01-09-2020 02:34:17 13.2 C 41 %
2896 01-09-2020 02:44:17 12.8 C 42 %
2897 01-09-2020 02:54:17 12.6 C 42 %
2898 01-09-2020 03:04:18 12.9 C 42 %
2899 01-09-2020 03:14:18 12.9 C 42 %
2900 01-09-2020 03:24:17 13.1 C 41 %
Sensor: Nr:Datum:Temp:Feuchte:
Aussen-T/F 2901 01-09-2020 03:34:18 13 C 41 %
2902 01-09-2020 03:44:18 12.9 C 42 %
2903 01-09-2020 03:54:17 12.7 C 42 %
2904 01-09-2020 04:04:18 12.8 C 42 %
2905 01-09-2020 04:14:18 12.8 C 42 %
2906 01-09-2020 04:24:17 12.7 C 42 %
2907 01-09-2020 04:34:17 12.6 C 42 %
2908 01-09-2020 04:44:17 12.5 C 42 %
2909 01-09-2020 04:54:18 12.5 C 42 %
2910 01-09-2020 05:04:17 12.5 C 42 %
2911 01-09-2020 05:14:17 12.4 C 42 %
2912 01-09-2020 05:24:17 12.2 C 42 %
2913 01-09-2020 05:34:17 12.1 C 42 %
2914 01-09-2020 05:44:17 12 C 42 %
2915 01-09-2020 05:54:17 12 C 42 %
2916 01-09-2020 06:04:17 11.9 C 42 %
2917 01-09-2020 06:14:17 11.8 C 42 %
2918 01-09-2020 06:24:17 11.8 C 42 %
2919 01-09-2020 06:34:17 11.8 C 42 %
2920 01-09-2020 06:44:17 11.9 C 42 %
2921 01-09-2020 06:54:18 12.1 C 42 %
2922 01-09-2020 07:04:17 12.2 C 41 %
2923 01-09-2020 07:14:17 12.2 C 41 %
2924 01-09-2020 07:24:17 12.3 C 41 %
2925 01-09-2020 07:34:17 12.3 C 41 %
Sensor: Nr:Datum:Temp:Feuchte:
Aussen-T/F 2926 01-09-2020 07:44:17 12 C 41 %
2927 01-09-2020 07:54:18 12.7 C 42 %
2928 01-09-2020 08:04:18 12.8 C 42 %
2929 01-09-2020 08:14:18 13.1 C 41 %
2930 01-09-2020 08:24:17 13.3 C 41 %
2931 01-09-2020 08:34:17 13.4 C 41 %
2932 01-09-2020 08:44:17 13.7 C 41 %
2933 01-09-2020 08:54:17 13.8 C 42 %
2934 01-09-2020 09:04:17 13.9 C 42 %
2935 01-09-2020 09:14:17 14.1 C 42 %
2936 01-09-2020 09:24:17 14.3 C 40 %
2937 01-09-2020 09:34:17 14.7 C 41 %
2938 01-09-2020 09:44:17 14.9 C 40 %
2939 01-09-2020 09:54:18 15.1 C 40 %
2940 01-09-2020 10:04:17 15.4 C 38 %
2941 01-09-2020 10:14:17 15.6 C 37 %
2942 01-09-2020 10:24:17 15.7 C 37 %
2943 01-09-2020 10:34:18 15.7 C 36 %
2944 01-09-2020 10:44:18 16.3 C 35 %
2945 01-09-2020 10:54:17 16.8 C 35 %
2946 01-09-2020 11:04:17 17.3 C 34 %
2947 01-09-2020 11:14:17 17.6 C 33 %
2948 01-09-2020 11:24:17 18.1 C 33 %
2949 01-09-2020 11:34:17 18 C 32 %
2950 01-09-2020 11:44:17 18.8 C 32 %
Sensor: Nr:Datum:Temp:Feuchte:
Aussen-T/F 2951 01-09-2020 11:54:17 18.1 C 31 %
2952 01-09-2020 12:04:17 18.1 C 31 %
2953 01-09-2020 12:14:18 18.1 C 32 %
2954 01-09-2020 12:24:17 19.1 C 31 %
2955 01-09-2020 12:34:17 19.4 C 30 %
2956 01-09-2020 12:44:17 19.4 C 31 %
2957 01-09-2020 12:54:17 19.8 C 30 %
2958 01-09-2020 13:04:17 19.6 C 30 %
2959 01-09-2020 13:14:17 19.2 C 30 %
2960 01-09-2020 13:24:17 20.6 C 29 %
2961 01-09-2020 13:34:17 21 C 27 %
2962 01-09-2020 13:44:17 21.3 C 26 %
2963 01-09-2020 13:54:17 21 C 25 %
2964 01-09-2020 14:04:17 21.3 C 25 %
2965 01-09-2020 14:14:17 20.8 C 25 %
2966 01-09-2020 14:24:17 20.7 C 26 %
2967 01-09-2020 14:34:17 22.7 C 24 %
2968 01-09-2020 14:44:17 23.5 C 22 %
2969 01-09-2020 14:54:17 22.4 C 21 %
2970 01-09-2020 15:04:18 22.9 C 21 %
2971 01-09-2020 15:14:18 22.8 C 21 %
2972 01-09-2020 15:24:17 22.9 C 23 %
2973 01-09-2020 15:34:18 26 C 20 %
2974 01-09-2020 15:44:18 23.9 C 20 %
2975 01-09-2020 15:54:17 21.1 C 23 %
Sensor: Nr:Datum:Temp:Feuchte:
Aussen-T/F 2976 01-09-2020 16:04:17 19.7 C 26 %
2977 01-09-2020 16:14:17 17.5 C 32 %
2978 01-09-2020 16:24:17 17 C 35 %
2979 01-09-2020 16:34:17 16.8 C 34 %
2980 01-09-2020 16:44:17 17.7 C 32 %
2981 01-09-2020 16:54:17 17.7 C 32 %
2982 01-09-2020 17:04:18 17.6 C 32 %
2983 01-09-2020 17:14:18 17.6 C 32 %
2984 01-09-2020 17:24:18 17.4 C 32 %
2985 01-09-2020 17:34:18 16.7 C 33 %
2986 01-09-2020 17:44:18 16.6 C 34 %
2987 01-09-2020 17:54:17 16.2 C 35 %
2988 01-09-2020 18:04:17 16 C 35 %
2989 01-09-2020 18:14:17 16.1 C 35 %
2990 01-09-2020 18:24:17 16.1 C 35 %
2991 01-09-2020 18:34:17 15.8 C 35 %
2992 01-09-2020 18:44:18 15.8 C 35 %
2993 01-09-2020 18:54:17 15.8 C 35 %
2994 01-09-2020 19:04:17 15.8 C 36 %
2995 01-09-2020 19:14:17 16.5 C 35 %
2996 01-09-2020 19:24:18 16.7 C 35 %
2997 01-09-2020 19:34:17 16.6 C 35 %
2998 01-09-2020 19:44:17 16.2 C 35 %
2999 01-09-2020 19:54:17 15.5 C 36 %
3000 01-09-2020 20:04:17 14.5 C 38 %
Sensor: Nr:Datum:Temp:Feuchte:
Aussen-T/F 3001 01-09-2020 20:14:17 14.5 C 38 %
3002 01-09-2020 20:24:17 14.5 C 37 %
3003 01-09-2020 20:34:18 14.4 C 38 %
3004 01-09-2020 20:44:18 14.1 C 37 %
3005 01-09-2020 20:54:18 14.1 C 38 %
3006 01-09-2020 21:04:18 14.2 C 37 %
3007 01-09-2020 21:14:18 14.2 C 38 %
3008 01-09-2020 21:24:18 14.1 C 37 %
3009 01-09-2020 21:34:17 14 C 38 %
3010 01-09-2020 21:44:17 14 C 38 %
3011 01-09-2020 21:54:17 13.9 C 40 %
3012 01-09-2020 22:04:17 13.8 C 40 %
3013 01-09-2020 22:14:17 13.4 C 40 %
3014 01-09-2020 22:24:18 13.1 C 40 %
3015 01-09-2020 22:34:17 12.8 C 41 %
3016 01-09-2020 22:44:17 12.8 C 42 %
3017 01-09-2020 22:54:17 13 C 41 %
3018 01-09-2020 23:04:17 13.2 C 41 %
3019 01-09-2020 23:14:17 13.1 C 41 %
3020 01-09-2020 23:24:17 13.1 C 41 %
3021 01-09-2020 23:34:17 13.1 C 41 %
3022 01-09-2020 23:44:17 13.1 C 41 %
3023 01-09-2020 23:54:17 13.2 C 41 %
3024 02-09-2020 00:04:18 13.2 C 41 %
3025 02-09-2020 00:14:18 13.1 C 41 %
Sensor: Nr:Datum:Temp:Feuchte:
Aussen-T/F 3026 02-09-2020 00:24:17 13.2 C 41 %
3027 02-09-2020 00:34:18 13 C 41 %
3028 02-09-2020 00:44:18 13.1 C 41 %
3029 02-09-2020 00:54:17 13.1 C 41 %
3030 02-09-2020 01:04:18 13.2 C 41 %
3031 02-09-2020 01:14:18 13.1 C 41 %
3032 02-09-2020 01:24:17 13.1 C 41 %
3033 02-09-2020 01:34:18 13.1 C 41 %
3034 02-09-2020 01:44:18 13 C 41 %
3035 02-09-2020 01:54:17 12.9 C 42 %
3036 02-09-2020 02:04:18 12.8 C 42 %
3037 02-09-2020 02:14:18 12.6 C 42 %
3038 02-09-2020 02:24:17 12.3 C 43 %
3039 02-09-2020 02:34:17 12.2 C 43 %
3040 02-09-2020 02:44:17 12.4 C 43 %
3041 02-09-2020 02:54:17 12.9 C 41 %
3042 02-09-2020 03:04:18 12.9 C 41 %
3043 02-09-2020 03:14:18 13 C 40 %
3044 02-09-2020 03:24:17 12.8 C 42 %
3045 02-09-2020 03:34:17 12.8 C 42 %
3046 02-09-2020 03:44:17 12.9 C 41 %
3047 02-09-2020 03:54:17 12.8 C 42 %
3048 02-09-2020 04:04:17 12.5 C 42 %
3049 02-09-2020 04:14:17 12.3 C 43 %
3050 02-09-2020 04:24:17 12.3 C 44 %
Sensor: Nr:Datum:Temp:Feuchte:
Aussen-T/F 3051 02-09-2020 04:34:18 12.2 C 44 %
3052 02-09-2020 04:44:18 12.3 C 44 %
3053 02-09-2020 04:54:17 12.2 C 44 %
3054 02-09-2020 05:04:17 12.1 C 44 %
3055 02-09-2020 05:14:17 12.2 C 44 %
3056 02-09-2020 05:24:17 12.1 C 44 %
3057 02-09-2020 05:34:17 12.2 C 44 %
3058 02-09-2020 05:44:17 12.2 C 44 %
3059 02-09-2020 05:54:17 12.3 C 44 %
3060 02-09-2020 06:14:17 12.2 C 43 %
3061 02-09-2020 06:14:18 12.1 C 44 %
3062 02-09-2020 06:24:18 12 C 44 %
3063 02-09-2020 06:44:17 11.7 C 44 %
3064 02-09-2020 06:44:17 11.6 C 45 %
3065 02-09-2020 06:54:17 11.2 C 45 %
3066 02-09-2020 07:04:18 11.2 C 45 %
3067 02-09-2020 07:14:18 11.3 C 44 %
3068 02-09-2020 07:24:18 11.1 C 44 %
3069 02-09-2020 07:34:18 11 C 45 %
3070 02-09-2020 07:44:18 11 C 45 %
3071 02-09-2020 07:54:17 11.2 C 44 %
3072 02-09-2020 08:04:18 11.1 C 44 %
3073 02-09-2020 08:14:18 11.1 C 44 %
3074 02-09-2020 08:25:17 11.1 C 44 %
3075 02-09-2020 08:34:17 11.2 C 45 %
Sensor: Nr:Datum:Temp:Feuchte:
Aussen-T/F 3076 02-09-2020 08:44:17 11.5 C 45 %
3077 02-09-2020 08:54:17 12.2 C 43 %
3078 02-09-2020 09:04:17 12.8 C 42 %
3079 02-09-2020 09:14:17 13 C 40 %
3080 02-09-2020 09:24:17 13.5 C 40 %
3081 02-09-2020 09:34:17 14.1 C 36 %
3082 02-09-2020 09:44:17 14.6 C 36 %
3083 02-09-2020 09:54:17 15 C 36 %
3084 02-09-2020 10:04:18 15.2 C 35 %
3085 02-09-2020 10:14:18 15.1 C 35 %
3086 02-09-2020 10:24:17 15.2 C 35 %
3087 02-09-2020 10:34:18 15.4 C 35 %
3088 02-09-2020 10:44:18 15.8 C 34 %
3089 02-09-2020 10:54:17 16.2 C 33 %
3090 02-09-2020 11:04:18 17.1 C 32 %
3091 02-09-2020 11:14:18 17.4 C 32 %
3092 02-09-2020 11:24:17 18 C 30 %
3093 02-09-2020 11:35:17 18 C 30 %
3094 02-09-2020 11:45:17 17.7 C 31 %
3095 02-09-2020 11:55:17 18.1 C 30 %
3096 02-09-2020 12:04:18 18 C 30 %
3097 02-09-2020 12:14:18 17 C 32 %
3098 02-09-2020 12:25:17 16.5 C 34 %
3099 02-09-2020 12:34:18 16.6 C 34 %
3100 02-09-2020 12:44:18 17.6 C 31 %
Sensor: Nr:Datum:Temp:Feuchte:
Aussen-T/F 3101 02-09-2020 12:55:17 18.6 C 30 %
3102 02-09-2020 13:04:18 18.8 C 28 %
3103 02-09-2020 13:14:18 19 C 27 %
3104 02-09-2020 13:24:18 19.1 C 26 %
3105 02-09-2020 13:35:17 19.1 C 27 %
3106 02-09-2020 13:45:17 18.3 C 30 %
3107 02-09-2020 13:55:17 18.9 C 27 %
3108 02-09-2020 14:05:17 19.8 C 26 %
3109 02-09-2020 14:15:17 19.8 C 26 %
3110 02-09-2020 14:25:17 20.6 C 25 %
3111 02-09-2020 14:34:18 26 C 20 %
3112 02-09-2020 14:44:18 29.2 C 20 %
3113 02-09-2020 14:55:17 26.5 C 20 %
3114 02-09-2020 15:05:18 27 C 20 %
3115 02-09-2020 15:15:18 27.5 C 20 %
3116 02-09-2020 15:24:18 28.8 C 20 %
3117 02-09-2020 15:34:18 28 C 20 %
3118 02-09-2020 15:44:18 27 C 20 %
3119 02-09-2020 15:55:17 29.6 C 20 %
3120 02-09-2020 16:05:18 26.5 C 20 %
3121 02-09-2020 16:15:17 28.5 C 20 %
3122 02-09-2020 16:25:17 27.1 C 20 %
3123 02-09-2020 16:44:18 23.8 C 20 %
3124 02-09-2020 16:45:18 27.6 C 20 %
3125 02-09-2020 16:55:18 29.7 C 20 %
Sensor: Nr:Datum:Temp:Feuchte:
Aussen-T/F 3126 02-09-2020 17:05:17 23.6 C 20 %
3127 02-09-2020 17:15:17 26.8 C 20 %
3128 02-09-2020 17:25:17 28.3 C 20 %
3129 02-09-2020 17:35:18 26.5 C 20 %
3130 02-09-2020 17:45:17 22.8 C 20 %
3131 02-09-2020 17:55:17 20.3 C 24 %
3132 02-09-2020 18:05:18 19.5 C 26 %
3133 02-09-2020 18:15:17 19.7 C 26 %
3134 02-09-2020 18:25:17 19.6 C 27 %
3135 02-09-2020 18:35:17 19.9 C 27 %
3136 02-09-2020 18:45:17 19.7 C 27 %
3137 02-09-2020 18:55:17 19.4 C 27 %
3138 02-09-2020 19:05:17 19.2 C 26 %
3139 02-09-2020 19:15:17 18.7 C 28 %
3140 02-09-2020 19:25:17 18.3 C 27 %
3141 02-09-2020 19:35:17 17.5 C 28 %
3142 02-09-2020 19:45:17 17.3 C 28 %
3143 02-09-2020 19:55:17 17.2 C 28 %
3144 02-09-2020 20:05:17 16.7 C 28 %
3145 02-09-2020 20:15:17 16.6 C 28 %
3146 02-09-2020 20:25:17 16.3 C 28 %
3147 02-09-2020 20:35:17 15.9 C 29 %
3148 02-09-2020 20:45:17 15.8 C 30 %
3149 02-09-2020 20:55:17 15.5 C 30 %
3150 02-09-2020 21:05:18 15.5 C 30 %
Sensor: Nr:Datum:Temp:Feuchte:
Aussen-T/F 3151 02-09-2020 21:15:18 14.5 C 32 %
3152 02-09-2020 21:25:18 13.8 C 34 %
3153 02-09-2020 21:35:17 14.2 C 33 %
3154 02-09-2020 21:45:17 14.2 C 33 %
3155 02-09-2020 21:55:17 14.2 C 35 %
3156 02-09-2020 22:05:17 14.1 C 35 %
3157 02-09-2020 22:15:17 14.3 C 35 %
3158 02-09-2020 22:25:17 14.4 C 35 %
3159 02-09-2020 22:35:18 14.2 C 35 %
3160 02-09-2020 22:45:18 13.8 C 36 %
3161 02-09-2020 22:55:18 13.7 C 36 %
3162 02-09-2020 23:05:18 13.7 C 36 %
3163 02-09-2020 23:15:17 13.6 C 36 %
3164 02-09-2020 23:25:17 13.2 C 35 %
3165 02-09-2020 23:35:17 13 C 35 %
3166 02-09-2020 23:45:18 12.8 C 36 %
3167 02-09-2020 23:55:18 12.4 C 36 %
3168 03-09-2020 00:05:18 12.3 C 37 %
3169 03-09-2020 00:15:18 11.8 C 38 %
3170 03-09-2020 00:25:18 11.5 C 39 %
3171 03-09-2020 00:35:17 11.5 C 39 %
3172 03-09-2020 00:45:17 11.4 C 39 %
3173 03-09-2020 00:55:17 11.3 C 39 %
3174 03-09-2020 01:05:17 11.2 C 39 %
3175 03-09-2020 01:15:18 11.3 C 39 %
Sensor: Nr:Datum:Temp:Feuchte:
Aussen-T/F 3176 03-09-2020 01:25:18 10.9 C 40 %
3177 03-09-2020 01:35:17 10.6 C 41 %
3178 03-09-2020 01:45:17 10.4 C 41 %
3179 03-09-2020 01:55:17 10.4 C 41 %
3180 03-09-2020 02:05:18 10.1 C 41 %
3181 03-09-2020 02:15:18 9.9 C 42 %
3182 03-09-2020 02:25:18 10 C 42 %
3183 03-09-2020 02:35:18 9.7 C 43 %
3184 03-09-2020 02:45:17 10.1 C 43 %
3185 03-09-2020 02:55:17 9.9 C 44 %
3186 03-09-2020 03:05:17 10.1 C 43 %
3187 03-09-2020 03:15:17 9.9 C 42 %
3188 03-09-2020 03:25:17 9.7 C 43 %
3189 03-09-2020 03:35:18 10 C 42 %
3190 03-09-2020 03:45:17 10.2 C 42 %
3191 03-09-2020 03:55:17 9.8 C 43 %
3192 03-09-2020 04:05:17 9.7 C 44 %
3193 03-09-2020 04:15:17 9.7 C 44 %
3194 03-09-2020 04:25:17 9.8 C 45 %
3195 03-09-2020 04:35:17 9.9 C 44 %
3196 03-09-2020 04:45:17 9.7 C 44 %
3197 03-09-2020 04:55:17 9.6 C 45 %
3198 03-09-2020 05:05:18 9.5 C 43 %
3199 03-09-2020 05:15:17 9.5 C 44 %
3200 03-09-2020 05:25:17 9.7 C 44 %
Sensor: Nr:Datum:Temp:Feuchte:
Aussen-T/F 3201 03-09-2020 05:35:17 9.8 C 44 %
3202 03-09-2020 05:45:17 9.9 C 44 %
3203 03-09-2020 05:55:17 9.9 C 44 %
3204 03-09-2020 06:05:17 10.1 C 43 %
3205 03-09-2020 06:15:17 10 C 43 %
3206 03-09-2020 06:25:17 9.9 C 44 %
3207 03-09-2020 06:35:17 10 C 43 %
3208 03-09-2020 06:45:18 10 C 43 %
3209 03-09-2020 06:55:18 10.2 C 43 %
3210 03-09-2020 07:05:18 10.3 C 43 %
3211 03-09-2020 07:15:18 10.4 C 42 %
3212 03-09-2020 07:25:18 10.5 C 43 %
3213 03-09-2020 07:35:18 10.6 C 42 %
3214 03-09-2020 07:45:17 10.7 C 42 %
3215 03-09-2020 07:55:17 11.1 C 40 %
3216 03-09-2020 08:05:17 11.2 C 40 %
3217 03-09-2020 08:15:17 11.5 C 39 %
3218 03-09-2020 08:25:17 12.1 C 38 %
3219 03-09-2020 08:35:17 12.3 C 37 %
3220 03-09-2020 08:45:18 12.4 C 37 %
3221 03-09-2020 08:55:18 12.4 C 37 %
3222 03-09-2020 09:05:17 12.6 C 37 %
3223 03-09-2020 09:15:17 13.3 C 36 %
3224 03-09-2020 09:25:17 13.7 C 36 %
3225 03-09-2020 09:35:17 14 C 35 %
Sensor: Nr:Datum:Temp:Feuchte:
Aussen-T/F 3226 03-09-2020 09:45:18 14.4 C 35 %
3227 03-09-2020 09:55:18 14.6 C 35 %
3228 03-09-2020 10:05:18 14.9 C 34 %
3229 03-09-2020 10:15:17 15.5 C 33 %
3230 03-09-2020 10:25:17 16.3 C 32 %
3231 03-09-2020 10:35:18 16.7 C 32 %
3232 03-09-2020 10:45:17 17 C 31 %
3233 03-09-2020 10:55:18 17.7 C 31 %
3234 03-09-2020 11:05:17 18.7 C 30 %
3235 03-09-2020 11:15:17 19.6 C 29 %
3236 03-09-2020 11:25:17 19.2 C 28 %
3237 03-09-2020 11:35:18 20 C 28 %
3238 03-09-2020 11:45:17 19.5 C 28 %
3239 03-09-2020 11:55:17 19.6 C 28 %
3240 03-09-2020 12:05:17 20.4 C 27 %
3241 03-09-2020 12:15:18 20.7 C 27 %
3242 03-09-2020 12:25:18 21.3 C 26 %
3243 03-09-2020 12:35:17 21.8 C 26 %
3244 03-09-2020 12:45:17 21.3 C 25 %
3245 03-09-2020 12:55:17 20.5 C 26 %
3246 03-09-2020 13:05:18 19.8 C 27 %
3247 03-09-2020 13:15:17 20 C 26 %
3248 03-09-2020 13:25:17 18.8 C 28 %
3249 03-09-2020 13:35:17 17.6 C 31 %
3250 03-09-2020 13:45:17 17.1 C 33 %
Sensor: Nr:Datum:Temp:Feuchte:
Aussen-T/F 3251 03-09-2020 13:55:17 17.1 C 34 %
3252 03-09-2020 14:05:17 17.5 C 32 %
3253 03-09-2020 14:15:18 17.5 C 32 %
3254 03-09-2020 14:25:18 17.4 C 32 %
3255 03-09-2020 14:35:17 17.9 C 32 %
3256 03-09-2020 14:45:18 18.2 C 31 %
3257 03-09-2020 14:55:18 18.1 C 31 %
3258 03-09-2020 15:05:17 17.8 C 32 %
3259 03-09-2020 15:15:17 17.2 C 34 %
3260 03-09-2020 15:25:17 17.3 C 34 %
3261 03-09-2020 15:35:18 18 C 32 %
3262 03-09-2020 15:45:17 18.3 C 31 %
3263 03-09-2020 15:55:17 16.3 C 35 %
3264 03-09-2020 16:05:18 15.6 C 37 %
3265 03-09-2020 16:15:17 15.7 C 40 %
3266 03-09-2020 16:25:17 15.8 C 40 %
3267 03-09-2020 16:35:18 15.8 C 40 %
3268 03-09-2020 16:45:18 15.5 C 41 %
3269 03-09-2020 16:55:18 15.6 C 40 %
3270 03-09-2020 17:05:18 15.8 C 41 %
3271 03-09-2020 17:15:17 15.5 C 39 %
3272 03-09-2020 17:25:17 16 C 39 %
3273 03-09-2020 17:35:17 16.3 C 39 %
3274 03-09-2020 17:45:17 16.2 C 39 %
3275 03-09-2020 17:55:17 16.2 C 38 %
Sensor: Nr:Datum:Temp:Feuchte:
Aussen-T/F 3276 03-09-2020 18:05:17 16.4 C 38 %
3277 03-09-2020 18:15:18 16.5 C 39 %
3278 03-09-2020 18:25:18 16.5 C 40 %
3279 03-09-2020 18:35:17 16.2 C 40 %
3280 03-09-2020 18:45:18 16.1 C 40 %
3281 03-09-2020 18:55:18 16.3 C 41 %
3282 03-09-2020 19:05:18 15.7 C 41 %
3283 03-09-2020 19:15:17 15.5 C 42 %
3284 03-09-2020 19:25:17 15.5 C 42 %
3285 03-09-2020 19:35:17 15.4 C 42 %
3286 03-09-2020 19:45:18 15.4 C 42 %
3287 03-09-2020 19:55:18 15.4 C 42 %
3288 03-09-2020 20:05:18 15.3 C 42 %
3289 03-09-2020 20:15:18 15.3 C 42 %
3290 03-09-2020 20:25:18 15.2 C 41 %
3291 03-09-2020 20:35:17 15.2 C 41 %
3292 03-09-2020 20:45:17 15.1 C 41 %
3293 03-09-2020 20:55:17 15.1 C 41 %
3294 03-09-2020 21:05:17 15.1 C 40 %
3295 03-09-2020 21:15:17 15.3 C 40 %
3296 03-09-2020 21:25:17 15.4 C 40 %
3297 03-09-2020 21:35:18 15.5 C 40 %
3298 03-09-2020 21:45:17 15.6 C 39 %
3299 03-09-2020 21:55:17 15.6 C 40 %
3300 03-09-2020 22:05:17 15.8 C 39 %
Sensor: Nr:Datum:Temp:Feuchte:
Aussen-T/F 3301 03-09-2020 22:15:18 16 C 38 %
3302 03-09-2020 22:25:18 15.8 C 40 %
3303 03-09-2020 22:35:18 15.8 C 40 %
3304 03-09-2020 22:45:18 15.9 C 40 %
3305 03-09-2020 22:55:18 15.7 C 40 %
3306 03-09-2020 23:05:17 15.6 C 40 %
3307 03-09-2020 23:15:17 15.7 C 40 %
3308 03-09-2020 23:25:17 15.7 C 40 %
3309 03-09-2020 23:35:17 15.7 C 40 %
3310 03-09-2020 23:45:17 15.9 C 40 %
3311 03-09-2020 23:55:17 15.7 C 40 %
3312 04-09-2020 00:05:17 15.7 C 40 %
3313 04-09-2020 00:15:17 15.6 C 41 %
3314 04-09-2020 00:25:18 15.6 C 41 %
3315 04-09-2020 00:35:17 15.8 C 40 %
3316 04-09-2020 00:45:17 15.9 C 41 %
3317 04-09-2020 00:55:17 15.8 C 40 %
3318 04-09-2020 01:05:18 15.7 C 41 %
3319 04-09-2020 01:15:18 15.5 C 41 %
3320 04-09-2020 01:25:18 15.6 C 40 %
3321 04-09-2020 01:35:17 15.9 C 40 %
3322 04-09-2020 01:45:17 15.9 C 39 %
3323 04-09-2020 01:55:17 15.6 C 40 %
3324 04-09-2020 02:05:17 15.7 C 39 %
3325 04-09-2020 02:15:18 15.6 C 39 %
Sensor: Nr:Datum:Temp:Feuchte:
Aussen-T/F 3326 04-09-2020 02:25:18 16 C 38 %
3327 04-09-2020 02:35:18 16.4 C 37 %
3328 04-09-2020 02:45:17 16.7 C 37 %
3329 04-09-2020 02:55:17 16.7 C 37 %
3330 04-09-2020 03:05:18 16.5 C 38 %
3331 04-09-2020 03:15:17 16.7 C 37 %
3332 04-09-2020 03:25:17 16.6 C 38 %
3333 04-09-2020 03:35:18 16.8 C 37 %
3334 04-09-2020 03:45:17 16.7 C 37 %
3335 04-09-2020 03:55:17 16.7 C 37 %
3336 04-09-2020 04:05:17 16.6 C 37 %
3337 04-09-2020 04:15:17 16.7 C 36 %
3338 04-09-2020 04:25:17 16.6 C 38 %
3339 04-09-2020 04:35:17 16.5 C 38 %
3340 04-09-2020 04:45:18 16.4 C 38 %
3341 04-09-2020 04:55:18 16.7 C 37 %
3342 04-09-2020 05:05:17 16.6 C 37 %
3343 04-09-2020 05:15:17 16.6 C 37 %
3344 04-09-2020 05:25:17 16.5 C 38 %
3345 04-09-2020 05:35:18 16.4 C 38 %
3346 04-09-2020 05:45:17 16.4 C 38 %
3347 04-09-2020 05:55:18 16.3 C 39 %
3348 04-09-2020 06:05:18 16.5 C 37 %
3349 04-09-2020 06:15:18 16.9 C 36 %
3350 04-09-2020 06:25:18 16.8 C 37 %
Sensor: Nr:Datum:Temp:Feuchte:
Aussen-T/F 3351 04-09-2020 06:35:17 16.8 C 36 %
3352 04-09-2020 06:45:17 16.7 C 37 %
3353 04-09-2020 06:55:17 16.6 C 37 %
3354 04-09-2020 07:05:17 16.8 C 36 %
3355 04-09-2020 07:15:18 16.8 C 37 %
3356 04-09-2020 07:25:18 16.7 C 37 %
3357 04-09-2020 07:35:18 16.7 C 37 %
3358 04-09-2020 07:45:18 16.8 C 37 %
3359 04-09-2020 07:55:18 16.8 C 37 %
3360 04-09-2020 08:05:18 17 C 37 %
3361 04-09-2020 08:15:17 17.2 C 36 %
3362 04-09-2020 08:25:17 17.4 C 36 %
3363 04-09-2020 08:35:17 17.7 C 35 %
3364 04-09-2020 08:45:18 17.9 C 35 %
3365 04-09-2020 08:55:18 18.2 C 34 %
3366 04-09-2020 09:05:17 18.7 C 34 %
3367 04-09-2020 09:15:17 19.2 C 32 %
3368 04-09-2020 09:25:17 19.3 C 32 %
3369 04-09-2020 09:35:18 19.2 C 33 %
3370 04-09-2020 09:45:17 19.2 C 33 %
3371 04-09-2020 09:55:17 19.2 C 32 %
3372 04-09-2020 10:05:17 19.4 C 32 %
3373 04-09-2020 10:15:17 19.7 C 32 %
3374 04-09-2020 10:25:17 19.8 C 32 %
3375 04-09-2020 10:35:18 19.9 C 33 %
Sensor: Nr:Datum:Temp:Feuchte:
Aussen-T/F 3376 04-09-2020 10:45:17 20.2 C 32 %
3377 04-09-2020 10:55:17 20.4 C 32 %
3378 04-09-2020 11:05:17 20.7 C 32 %
3379 04-09-2020 11:15:17 21.5 C 30 %
3380 04-09-2020 11:25:17 22.1 C 29 %
3381 04-09-2020 11:35:18 21.9 C 29 %
3382 04-09-2020 11:45:17 22.1 C 28 %
3383 04-09-2020 11:55:17 22.3 C 27 %
3384 04-09-2020 12:05:18 23 C 26 %
3385 04-09-2020 12:15:17 23.3 C 26 %
3386 04-09-2020 12:25:17 23.3 C 26 %
3387 04-09-2020 12:35:17 23.9 C 26 %
3388 04-09-2020 12:45:17 24.2 C 26 %
3389 04-09-2020 12:55:17 24.7 C 25 %
3390 04-09-2020 13:05:18 24.9 C 25 %
3391 04-09-2020 13:15:17 25.4 C 25 %
3392 04-09-2020 13:25:18 25.7 C 24 %
3393 04-09-2020 13:35:17 26.5 C 23 %
3394 04-09-2020 13:45:17 26.8 C 23 %
3395 04-09-2020 13:55:17 27 C 23 %
3396 04-09-2020 14:05:17 26.8 C 23 %
3397 04-09-2020 14:15:17 26.8 C 23 %
3398 04-09-2020 14:25:17 26.9 C 23 %
3399 04-09-2020 14:35:17 27.6 C 22 %
3400 04-09-2020 14:45:18 28.4 C 21 %
Sensor: Nr:Datum:Temp:Feuchte:
Aussen-T/F 3401 04-09-2020 14:55:18 27 C 22 %
3402 04-09-2020 15:05:18 26.4 C 22 %
3403 04-09-2020 15:15:17 26.4 C 22 %
3404 04-09-2020 15:25:17 26.8 C 22 %
3405 04-09-2020 15:35:17 27.4 C 22 %
3406 04-09-2020 15:45:17 27.2 C 22 %
3407 04-09-2020 15:55:17 27.4 C 22 %
3408 04-09-2020 16:05:17 27.9 C 21 %
3409 04-09-2020 16:15:17 28.2 C 21 %
3410 04-09-2020 16:25:17 27.4 C 21 %
3411 04-09-2020 16:35:17 28.4 C 21 %
3412 04-09-2020 16:45:17 29.6 C 21 %
3413 04-09-2020 16:55:17 29.6 C 20 %
3414 04-09-2020 17:05:17 33.2 C 20 %
3415 04-09-2020 17:15:17 31.4 C 20 %
3416 04-09-2020 17:25:17 32.4 C 20 %
3417 04-09-2020 17:35:17 28.4 C 20 %
3418 04-09-2020 17:45:17 27.2 C 22 %
3419 04-09-2020 17:55:17 26.3 C 24 %
3420 04-09-2020 18:05:18 25.7 C 24 %
3421 04-09-2020 18:15:17 25.5 C 24 %
3422 04-09-2020 18:25:17 25.7 C 25 %
3423 04-09-2020 18:35:17 25.6 C 25 %
3424 04-09-2020 18:45:17 24.8 C 26 %
3425 04-09-2020 18:55:17 24.2 C 26 %
Sensor: Nr:Datum:Temp:Feuchte:
Aussen-T/F 3426 04-09-2020 19:05:17 24 C 27 %
3427 04-09-2020 19:15:17 23.7 C 28 %
3428 04-09-2020 19:25:17 23.3 C 28 %
3429 04-09-2020 19:35:18 23.1 C 28 %
3430 04-09-2020 19:45:18 22.8 C 30 %
3431 04-09-2020 19:55:18 22.1 C 31 %
3432 04-09-2020 20:05:18 21.7 C 32 %
3433 04-09-2020 20:15:17 20.6 C 35 %
3434 04-09-2020 20:25:17 20.1 C 35 %
3435 04-09-2020 20:35:18 19.7 C 36 %
3436 04-09-2020 20:45:17 19.7 C 37 %
3437 04-09-2020 20:55:17 19.9 C 37 %
3438 04-09-2020 21:05:17 20 C 36 %
3439 04-09-2020 21:15:17 20.3 C 35 %
3440 04-09-2020 21:25:17 20.2 C 35 %
3441 04-09-2020 21:35:18 20 C 35 %
3442 04-09-2020 21:45:17 20 C 35 %
3443 04-09-2020 21:55:17 20 C 35 %
3444 04-09-2020 22:05:18 19.8 C 36 %
3445 04-09-2020 22:15:18 19.7 C 36 %
3446 04-09-2020 22:25:18 19.1 C 37 %
3447 04-09-2020 22:35:18 18.5 C 38 %
3448 04-09-2020 22:45:18 18.6 C 38 %
3449 04-09-2020 22:55:18 18.7 C 38 %
3450 04-09-2020 23:05:17 19 C 37 %
Sensor: Nr:Datum:Temp:Feuchte:
Aussen-T/F 3451 04-09-2020 23:15:18 18.9 C 38 %
3452 04-09-2020 23:25:18 18.8 C 38 %
3453 04-09-2020 23:35:18 18.7 C 38 %
3454 04-09-2020 23:45:17 18.5 C 38 %
3455 04-09-2020 23:55:18 18.2 C 39 %
3456 05-09-2020 00:05:18 17.7 C 40 %
3457 05-09-2020 00:15:17 17.3 C 40 %
3458 05-09-2020 00:25:17 17.4 C 40 %
3459 05-09-2020 00:35:17 17.2 C 40 %
3460 05-09-2020 00:45:17 16.9 C 41 %
3461 05-09-2020 00:55:17 16.8 C 41 %
3462 05-09-2020 01:05:17 16.5 C 41 %
3463 05-09-2020 01:15:17 16.4 C 42 %
3464 05-09-2020 01:25:17 15.8 C 42 %
3465 05-09-2020 01:35:17 15.6 C 42 %
3466 05-09-2020 01:45:17 15.4 C 42 %
3467 05-09-2020 01:55:17 15.6 C 42 %
3468 05-09-2020 02:05:17 15.3 C 42 %
3469 05-09-2020 02:15:17 15.3 C 42 %
3470 05-09-2020 02:25:17 15.4 C 42 %
3471 05-09-2020 02:35:18 15.6 C 42 %
3472 05-09-2020 02:45:17 15.6 C 42 %
3473 05-09-2020 02:55:17 15.5 C 42 %
3474 05-09-2020 03:05:18 15.7 C 42 %
3475 05-09-2020 03:15:17 15.7 C 42 %
Sensor: Nr:Datum:Temp:Feuchte:
Aussen-T/F 3476 05-09-2020 03:25:17 15.8 C 42 %
3477 05-09-2020 03:35:17 16.1 C 41 %
3478 05-09-2020 03:45:17 16.3 C 41 %
3479 05-09-2020 03:55:17 16.2 C 41 %
3480 05-09-2020 04:05:18 16.4 C 41 %
3481 05-09-2020 04:15:18 16.6 C 41 %
3482 05-09-2020 04:25:18 16.6 C 41 %
3483 05-09-2020 04:35:18 16.6 C 41 %
3484 05-09-2020 04:45:17 16.7 C 41 %
3485 05-09-2020 04:55:17 16.8 C 41 %
3486 05-09-2020 05:05:18 16.8 C 41 %
3487 05-09-2020 05:15:17 16.9 C 41 %
3488 05-09-2020 05:25:17 16.8 C 41 %
3489 05-09-2020 05:35:17 16.8 C 41 %
3490 05-09-2020 05:45:17 16.8 C 41 %
3491 05-09-2020 05:55:18 16.9 C 42 %
3492 05-09-2020 06:05:17 16.8 C 41 %
3493 05-09-2020 06:15:17 16.9 C 40 %
3494 05-09-2020 06:25:17 16.8 C 37 %
3495 05-09-2020 06:35:18 16.6 C 35 %
3496 05-09-2020 06:45:18 16.4 C 34 %
3497 05-09-2020 06:55:18 16.2 C 34 %
3498 05-09-2020 07:05:17 16 C 34 %
3499 05-09-2020 07:15:17 15.9 C 35 %
3500 05-09-2020 07:25:18 15.8 C 35 %
Sensor: Nr:Datum:Temp:Feuchte:
Aussen-T/F 3501 05-09-2020 07:35:18 15.7 C 35 %
3502 05-09-2020 07:45:17 15.6 C 35 %
3503 05-09-2020 07:55:17 15.5 C 35 %
3504 05-09-2020 08:05:17 15.6 C 35 %
3505 05-09-2020 08:15:17 15.5 C 35 %
3506 05-09-2020 08:25:17 15.5 C 35 %
3507 05-09-2020 08:35:18 15.4 C 35 %
3508 05-09-2020 08:45:18 15.5 C 35 %
3509 05-09-2020 08:55:18 16 C 35 %
3510 05-09-2020 09:05:18 16.7 C 34 %
3511 05-09-2020 09:15:17 17 C 33 %
3512 05-09-2020 09:25:17 16.5 C 33 %
3513 05-09-2020 09:35:18 16 C 34 %
3514 05-09-2020 09:45:17 16.8 C 34 %
3515 05-09-2020 09:55:17 16.4 C 33 %
3516 05-09-2020 10:05:17 16.3 C 34 %
3517 05-09-2020 10:15:17 16.5 C 34 %
3518 05-09-2020 10:25:17 17.5 C 32 %
3519 05-09-2020 10:35:17 18 C 31 %
3520 05-09-2020 10:45:17 17.2 C 33 %
3521 05-09-2020 10:55:17 17.4 C 32 %
3522 05-09-2020 11:05:17 18.3 C 31 %
3523 05-09-2020 11:15:17 18.8 C 31 %
3524 05-09-2020 11:25:17 18.9 C 31 %
3525 05-09-2020 11:35:17 19.5 C 30 %
Sensor: Nr:Datum:Temp:Feuchte:
Aussen-T/F 3526 05-09-2020 11:45:17 18.9 C 30 %
3527 05-09-2020 11:55:17 18.7 C 30 %
3528 05-09-2020 12:05:17 18.8 C 30 %
3529 05-09-2020 12:15:17 19.2 C 30 %
3530 05-09-2020 12:25:18 18.8 C 30 %
3531 05-09-2020 12:35:18 19.7 C 29 %
3532 05-09-2020 12:45:17 19 C 29 %
3533 05-09-2020 12:55:17 19.3 C 30 %
3534 05-09-2020 13:05:17 19.6 C 29 %
3535 05-09-2020 13:15:17 19.8 C 29 %
3536 05-09-2020 13:25:17 19.8 C 29 %
3537 05-09-2020 13:35:17 19.7 C 29 %
3538 05-09-2020 13:45:17 19.2 C 29 %
3539 05-09-2020 13:55:17 20 C 28 %
3540 05-09-2020 14:05:18 19.8 C 28 %
3541 05-09-2020 14:15:17 20 C 27 %
3542 05-09-2020 14:25:18 20.4 C 27 %
3543 05-09-2020 14:35:18 19.4 C 28 %
3544 05-09-2020 14:45:17 19.3 C 29 %
3545 05-09-2020 14:55:17 18.7 C 30 %
3546 05-09-2020 15:05:17 17.9 C 30 %
3547 05-09-2020 15:15:17 18.1 C 30 %
3548 05-09-2020 15:25:17 18 C 30 %
3549 05-09-2020 15:35:17 19 C 29 %
3550 05-09-2020 15:45:17 21.6 C 26 %
Sensor: Nr:Datum:Temp:Feuchte:
Aussen-T/F 3551 05-09-2020 15:55:17 19.3 C 27 %
3552 05-09-2020 16:05:17 19.1 C 27 %
3553 05-09-2020 16:15:18 19.4 C 27 %
3554 05-09-2020 16:25:18 20.5 C 26 %
3555 05-09-2020 16:35:18 21.1 C 25 %
3556 05-09-2020 16:45:17 20 C 26 %
3557 05-09-2020 16:55:17 20 C 26 %
3558 05-09-2020 17:05:17 20.4 C 26 %
3559 05-09-2020 17:15:17 20.8 C 25 %
3560 05-09-2020 17:25:17 21.1 C 25 %
3561 05-09-2020 17:35:17 20.5 C 25 %
3562 05-09-2020 17:45:17 21.3 C 23 %
3563 05-09-2020 17:55:17 20 C 25 %
3564 05-09-2020 18:05:18 19.8 C 25 %
3565 05-09-2020 18:15:17 20 C 25 %
3566 05-09-2020 18:25:17 20.2 C 24 %
3567 05-09-2020 18:35:17 19.8 C 24 %
3568 05-09-2020 18:45:17 19.5 C 23 %
3569 05-09-2020 18:55:17 18.6 C 25 %
3570 05-09-2020 19:05:17 18.7 C 24 %
3571 05-09-2020 19:15:17 18.9 C 26 %
3572 05-09-2020 19:25:17 18.6 C 25 %
3573 05-09-2020 19:35:17 18 C 26 %
3574 05-09-2020 19:45:17 16.5 C 26 %
3575 05-09-2020 19:55:17 16.5 C 27 %
Sensor: Nr:Datum:Temp:Feuchte:
Aussen-T/F 3576 05-09-2020 20:05:17 16.6 C 26 %
3577 05-09-2020 20:15:18 16.8 C 26 %
3578 05-09-2020 20:25:18 16.3 C 27 %
3579 05-09-2020 20:35:17 15.6 C 30 %
3580 05-09-2020 20:45:17 14.8 C 31 %
3581 05-09-2020 20:55:17 14.8 C 31 %
3582 05-09-2020 21:05:17 14.4 C 32 %
3583 05-09-2020 21:15:18 14.2 C 32 %
3584 05-09-2020 21:25:18 14 C 32 %
3585 05-09-2020 21:35:18 14 C 32 %
3586 05-09-2020 21:45:17 13.6 C 33 %
3587 05-09-2020 21:55:17 13.8 C 33 %
3588 05-09-2020 22:05:17 13.8 C 33 %
3589 05-09-2020 22:15:17 14.1 C 32 %
3590 05-09-2020 22:25:17 13.9 C 33 %
3591 05-09-2020 22:35:18 14.1 C 32 %
3592 05-09-2020 22:45:18 13.7 C 33 %
3593 05-09-2020 22:55:18 13.3 C 34 %
3594 05-09-2020 23:05:17 13.2 C 34 %
3595 05-09-2020 23:15:17 13.1 C 34 %
3596 05-09-2020 23:25:17 13 C 35 %
3597 05-09-2020 23:35:18 13 C 35 %
3598 05-09-2020 23:45:17 12.9 C 35 %
3599 05-09-2020 23:55:17 13 C 35 %
3600 06-09-2020 00:05:17 12.9 C 35 %
Sensor: Nr:Datum:Temp:Feuchte:
Aussen-T/F 3601 06-09-2020 00:15:18 12.7 C 35 %
3602 06-09-2020 00:25:18 12.2 C 36 %
3603 06-09-2020 00:35:18 11.9 C 38 %
3604 06-09-2020 00:45:17 11.8 C 38 %
3605 06-09-2020 00:55:17 11.7 C 39 %
3606 06-09-2020 01:05:17 11.5 C 39 %
3607 06-09-2020 01:15:18 11.6 C 39 %
3608 06-09-2020 01:25:18 11.5 C 39 %
3609 06-09-2020 01:35:18 11.1 C 40 %
3610 06-09-2020 01:45:17 10.8 C 41 %
3611 06-09-2020 01:55:17 10.6 C 40 %
3612 06-09-2020 02:05:18 10.4 C 40 %
3613 06-09-2020 02:15:18 10.2 C 41 %
3614 06-09-2020 02:25:18 10.1 C 41 %
3615 06-09-2020 02:35:17 10 C 41 %
3616 06-09-2020 02:45:18 9.9 C 41 %
3617 06-09-2020 02:55:18 9.6 C 42 %
3618 06-09-2020 03:05:18 9.3 C 43 %
3619 06-09-2020 03:15:17 9.3 C 43 %
3620 06-09-2020 03:25:17 9.2 C 44 %
3621 06-09-2020 03:35:17 8.7 C 44 %
3622 06-09-2020 03:45:17 8.7 C 45 %
3623 06-09-2020 03:55:17 8.5 C 45 %
3624 06-09-2020 04:05:18 8.9 C 46 %
3625 06-09-2020 04:15:18 8.7 C 45 %
Sensor: Nr:Datum:Temp:Feuchte:
Aussen-T/F 3626 06-09-2020 04:25:18 8.6 C 45 %
3627 06-09-2020 04:35:18 8.4 C 45 %
3628 06-09-2020 04:45:17 8.5 C 45 %
3629 06-09-2020 04:55:17 8.5 C 45 %
3630 06-09-2020 05:05:18 8.4 C 45 %
3631 06-09-2020 05:15:17 8.2 C 45 %
3632 06-09-2020 05:25:17 8.4 C 45 %
3633 06-09-2020 05:35:17 8.3 C 46 %
3634 06-09-2020 05:45:17 7.9 C 46 %
3635 06-09-2020 05:55:17 7.9 C 46 %
3636 06-09-2020 06:05:18 7.6 C 46 %
3637 06-09-2020 06:15:17 7.5 C 46 %
3638 06-09-2020 06:25:17 7.5 C 46 %
3639 06-09-2020 06:35:18 7.7 C 46 %
3640 06-09-2020 06:45:17 7.6 C 46 %
3641 06-09-2020 06:55:18 7.4 C 46 %
3642 06-09-2020 07:05:18 7.5 C 46 %
3643 06-09-2020 07:15:18 7.9 C 46 %
3644 06-09-2020 07:25:18 7.6 C 46 %
3645 06-09-2020 07:35:17 7.8 C 46 %
3646 06-09-2020 07:45:17 7.6 C 46 %
3647 06-09-2020 07:55:18 7.5 C 46 %
3648 06-09-2020 08:05:18 7.6 C 46 %
3649 06-09-2020 08:15:17 7.6 C 46 %
3650 06-09-2020 08:25:17 7.8 C 46 %
Sensor: Nr:Datum:Temp:Feuchte:
Aussen-T/F 3651 06-09-2020 08:35:17 8 C 46 %
3652 06-09-2020 08:45:17 8.3 C 46 %
3653 06-09-2020 08:55:17 8.4 C 45 %
3654 06-09-2020 09:05:17 8.7 C 45 %
3655 06-09-2020 09:15:17 8.8 C 45 %
3656 06-09-2020 09:25:17 9.1 C 44 %
3657 06-09-2020 09:35:17 9.3 C 44 %
3658 06-09-2020 09:45:17 9.5 C 44 %
3659 06-09-2020 09:55:17 10.1 C 42 %
3660 06-09-2020 10:05:17 10.2 C 42 %
3661 06-09-2020 10:15:17 10.7 C 41 %
3662 06-09-2020 10:25:18 11.5 C 39 %
3663 06-09-2020 10:35:18 12 C 38 %
3664 06-09-2020 10:45:17 12.7 C 38 %
3665 06-09-2020 10:55:17 13.2 C 36 %
3666 06-09-2020 11:05:17 14.1 C 36 %
3667 06-09-2020 11:15:17 15 C 33 %
3668 06-09-2020 11:25:17 15.4 C 32 %
3669 06-09-2020 11:35:18 16.2 C 30 %
3670 06-09-2020 11:45:18 16.5 C 29 %
3671 06-09-2020 11:55:18 16.7 C 29 %
3672 06-09-2020 12:05:18 16.6 C 29 %
3673 06-09-2020 12:15:18 17.2 C 28 %
3674 06-09-2020 12:25:18 17.1 C 28 %
3675 06-09-2020 12:35:18 17.1 C 27 %
Sensor: Nr:Datum:Temp:Feuchte:
Aussen-T/F 3676 06-09-2020 12:45:18 17.4 C 27 %
3677 06-09-2020 12:55:18 17.4 C 27 %
3678 06-09-2020 13:05:18 17.7 C 27 %
3679 06-09-2020 13:15:17 18.1 C 26 %
3680 06-09-2020 13:25:18 17.7 C 26 %
3681 06-09-2020 13:35:18 17.9 C 26 %
3682 06-09-2020 13:45:17 19 C 25 %
3683 06-09-2020 13:55:17 19.3 C 24 %
3684 06-09-2020 14:05:17 19.8 C 23 %
3685 06-09-2020 14:15:18 21.1 C 22 %
3686 06-09-2020 14:25:18 21.1 C 21 %
3687 06-09-2020 14:35:18 21.6 C 21 %
3688 06-09-2020 14:45:17 24.2 C 20 %
3689 06-09-2020 14:55:17 21.6 C 20 %
3690 06-09-2020 15:05:18 20.9 C 21 %
3691 06-09-2020 15:15:17 21 C 20 %
3692 06-09-2020 15:25:17 24.3 C 20 %
3693 06-09-2020 15:35:18 21.3 C 20 %
3694 06-09-2020 15:45:17 21 C 20 %
3695 06-09-2020 15:55:17 19.3 C 21 %
3696 06-09-2020 16:05:17 19 C 21 %
3697 06-09-2020 16:15:17 18.9 C 22 %
3698 06-09-2020 16:25:17 18.8 C 22 %
3699 06-09-2020 16:35:18 19.1 C 21 %
3700 06-09-2020 16:45:17 19.3 C 21 %
Sensor: Nr:Datum:Temp:Feuchte:
Aussen-T/F 3701 06-09-2020 16:55:17 19.6 C 21 %
3702 06-09-2020 17:05:18 19.6 C 21 %
3703 06-09-2020 17:15:17 19.8 C 21 %
3704 06-09-2020 17:25:18 19.4 C 21 %
3705 06-09-2020 17:35:17 18.9 C 23 %
3706 06-09-2020 17:45:17 18.7 C 23 %
3707 06-09-2020 17:55:17 18.6 C 23 %
3708 06-09-2020 18:05:18 18.7 C 23 %
3709 06-09-2020 18:15:17 19.3 C 22 %
3710 06-09-2020 18:25:17 19.5 C 21 %
3711 06-09-2020 18:35:17 19.1 C 21 %
3712 06-09-2020 18:45:18 18.7 C 22 %
3713 06-09-2020 18:55:18 18.5 C 22 %
3714 06-09-2020 19:05:18 18.2 C 22 %
3715 06-09-2020 19:15:17 17.9 C 23 %
3716 06-09-2020 19:25:18 17.4 C 25 %
3717 06-09-2020 19:35:17 16.7 C 26 %
3718 06-09-2020 19:45:17 15.4 C 28 %
3719 06-09-2020 19:55:17 15.1 C 28 %
3720 06-09-2020 20:05:17 14.5 C 30 %
3721 06-09-2020 20:15:17 14.6 C 29 %
3722 06-09-2020 20:25:17 14.2 C 29 %
3723 06-09-2020 20:35:18 13.8 C 30 %
3724 06-09-2020 20:45:17 13.5 C 30 %
3725 06-09-2020 20:55:17 13.3 C 31 %
Sensor: Nr:Datum:Temp:Feuchte:
Aussen-T/F 3726 06-09-2020 21:05:18 13 C 31 %
3727 06-09-2020 21:15:17 12.4 C 34 %
3728 06-09-2020 21:25:18 12.4 C 34 %
3729 06-09-2020 21:35:18 12.3 C 35 %
3730 06-09-2020 21:45:18 12.1 C 35 %
3731 06-09-2020 21:55:18 12 C 35 %
3732 06-09-2020 22:05:17 12.2 C 35 %
3733 06-09-2020 22:15:17 12.2 C 35 %
3734 06-09-2020 22:25:17 12.3 C 35 %
3735 06-09-2020 22:35:18 12.4 C 35 %
3736 06-09-2020 22:45:18 12.4 C 35 %
3737 06-09-2020 22:55:18 12.3 C 35 %
3738 06-09-2020 23:05:19 12.3 C 35 %
3739 06-09-2020 23:15:18 12.5 C 35 %
3740 06-09-2020 23:25:18 12.4 C 35 %
3741 06-09-2020 23:35:18 12.9 C 35 %
3742 06-09-2020 23:45:18 12.9 C 35 %
3743 06-09-2020 23:55:18 12.7 C 35 %
3744 07-09-2020 00:05:18 12.6 C 35 %
3745 07-09-2020 00:15:18 12.6 C 35 %
3746 07-09-2020 00:25:18 12.6 C 35 %
3747 07-09-2020 00:35:18 12.5 C 35 %
3748 07-09-2020 00:45:18 12.5 C 35 %
3749 07-09-2020 00:55:18 12.4 C 35 %
3750 07-09-2020 01:05:18 12.2 C 36 %
Sensor: Nr:Datum:Temp:Feuchte:
Aussen-T/F 3751 07-09-2020 01:15:18 12.2 C 36 %
3752 07-09-2020 01:25:18 11.9 C 37 %
3753 07-09-2020 01:35:18 11.5 C 37 %
3754 07-09-2020 01:45:17 11.2 C 37 %
3755 07-09-2020 01:55:18 11 C 37 %
3756 07-09-2020 02:05:18 10.3 C 39 %
3757 07-09-2020 02:15:18 10.1 C 40 %
3758 07-09-2020 02:25:18 9.7 C 41 %
3759 07-09-2020 02:35:18 9.6 C 41 %
3760 07-09-2020 02:45:17 9.3 C 41 %
3761 07-09-2020 02:55:18 8.9 C 42 %
3762 07-09-2020 03:05:17 8.9 C 42 %
3763 07-09-2020 03:15:17 9.2 C 42 %
3764 07-09-2020 03:25:18 8.7 C 43 %
3765 07-09-2020 03:35:18 8.8 C 43 %
3766 07-09-2020 03:45:18 8.4 C 43 %
3767 07-09-2020 03:55:18 8.3 C 44 %
3768 07-09-2020 04:05:18 8.5 C 45 %
3769 07-09-2020 04:15:18 8.3 C 44 %
3770 07-09-2020 04:25:18 8.3 C 44 %
3771 07-09-2020 04:35:17 8 C 44 %
3772 07-09-2020 04:45:18 7.9 C 45 %
3773 07-09-2020 04:55:18 8 C 45 %
3774 07-09-2020 05:05:18 7.9 C 45 %
3775 07-09-2020 05:15:18 7.9 C 45 %
Sensor: Nr:Datum:Temp:Feuchte:
Aussen-T/F 3776 07-09-2020 05:25:18 7.8 C 45 %
3777 07-09-2020 05:35:18 7.5 C 45 %
3778 07-09-2020 05:45:18 7.7 C 46 %
3779 07-09-2020 05:55:18 7.4 C 46 %
3780 07-09-2020 06:05:18 7.5 C 46 %
3781 07-09-2020 06:15:17 7.2 C 46 %
3782 07-09-2020 06:25:17 7.4 C 46 %
3783 07-09-2020 06:35:18 7.2 C 46 %
3784 07-09-2020 06:45:18 7.3 C 46 %
3785 07-09-2020 06:55:18 7.3 C 46 %
3786 07-09-2020 07:05:18 7.1 C 46 %
3787 07-09-2020 07:15:18 6.9 C 47 %
3788 07-09-2020 07:25:18 7.1 C 46 %
3789 07-09-2020 07:35:18 7.1 C 46 %
3790 07-09-2020 07:45:18 7.4 C 46 %
3791 07-09-2020 07:55:18 7.4 C 46 %
3792 07-09-2020 08:05:18 7.5 C 46 %
3793 07-09-2020 08:15:18 7.6 C 46 %
3794 07-09-2020 08:25:18 7.7 C 46 %
3795 07-09-2020 08:35:18 8.1 C 45 %
3796 07-09-2020 08:45:18 8.1 C 45 %
3797 07-09-2020 08:55:18 8.3 C 45 %
3798 07-09-2020 09:05:18 8.5 C 45 %
3799 07-09-2020 09:15:18 8.7 C 45 %
3800 07-09-2020 09:25:18 9.1 C 44 %
Sensor: Nr:Datum:Temp:Feuchte:
Aussen-T/F 3801 07-09-2020 09:35:18 9.5 C 43 %
3802 07-09-2020 09:45:18 9.7 C 42 %
3803 07-09-2020 09:55:18 10.3 C 41 %
3804 07-09-2020 10:05:18 10.4 C 41 %
3805 07-09-2020 10:15:17 10.8 C 41 %
3806 07-09-2020 10:25:17 11.1 C 40 %
3807 07-09-2020 10:35:18 11.6 C 40 %
3808 07-09-2020 10:45:17 12.3 C 39 %
3809 07-09-2020 10:55:17 13 C 37 %
3810 07-09-2020 11:05:17 14.2 C 35 %
3811 07-09-2020 11:15:17 14.3 C 35 %
3812 07-09-2020 11:25:17 14.9 C 35 %
3813 07-09-2020 11:35:17 16 C 32 %
3814 07-09-2020 11:45:17 15.5 C 33 %
3815 07-09-2020 11:55:17 16.5 C 31 %
3816 07-09-2020 12:05:17 16.5 C 31 %
3817 07-09-2020 12:15:17 17.2 C 30 %
3818 07-09-2020 12:25:17 16.8 C 30 %
3819 07-09-2020 12:35:18 16.9 C 30 %
3820 07-09-2020 12:45:17 16.9 C 30 %
3821 07-09-2020 12:55:17 17.3 C 29 %
3822 07-09-2020 13:05:17 17.4 C 29 %
3823 07-09-2020 13:15:17 17.5 C 28 %
3824 07-09-2020 13:25:17 17.8 C 28 %
3825 07-09-2020 13:35:17 17.9 C 28 %
Sensor: Nr:Datum:Temp:Feuchte:
Aussen-T/F 3826 07-09-2020 13:45:18 18 C 26 %
3827 07-09-2020 13:55:18 18.3 C 26 %
3828 07-09-2020 14:05:17 18.9 C 25 %
3829 07-09-2020 14:15:17 19.7 C 25 %
3830 07-09-2020 14:25:17 20.2 C 23 %
3831 07-09-2020 14:35:17 25.5 C 20 %
3832 07-09-2020 14:45:17 24.4 C 20 %
3833 07-09-2020 14:55:17 25.1 C 20 %
3834 07-09-2020 15:05:17 25.7 C 20 %
3835 07-09-2020 15:15:17 26 C 20 %
3836 07-09-2020 15:25:17 27.5 C 20 %
3837 07-09-2020 15:35:18 28.3 C 20 %
3838 07-09-2020 15:45:17 29.3 C 20 %
3839 07-09-2020 15:55:17 27.5 C 20 %
3840 07-09-2020 16:05:17 28.5 C 20 %
3841 07-09-2020 16:15:17 28.8 C 20 %
3842 07-09-2020 16:25:17 30.5 C 20 %
3843 07-09-2020 16:35:17 28.9 C 20 %
3844 07-09-2020 16:45:18 26.3 C 20 %
3845 07-09-2020 16:55:18 23.4 C 20 %
3846 07-09-2020 17:05:18 24.9 C 20 %
3847 07-09-2020 17:15:18 26.9 C 20 %
3848 07-09-2020 17:25:18 27.3 C 20 %
3849 07-09-2020 17:35:17 27.5 C 20 %
3850 07-09-2020 17:45:17 26.2 C 20 %
Sensor: Nr:Datum:Temp:Feuchte:
Aussen-T/F 3851 07-09-2020 17:55:17 23.7 C 20 %
3852 07-09-2020 18:05:17 22.3 C 20 %
3853 07-09-2020 18:15:18 20.6 C 22 %
3854 07-09-2020 18:25:18 20.7 C 23 %
3855 07-09-2020 18:35:18 21.5 C 21 %
3856 07-09-2020 18:45:17 21.5 C 20 %
3857 07-09-2020 18:55:17 21.3 C 20 %
3858 07-09-2020 19:05:17 20.7 C 22 %
3859 07-09-2020 19:15:17 19.5 C 25 %
3860 07-09-2020 19:25:17 18.8 C 25 %
3861 07-09-2020 19:35:17 18.3 C 25 %
3862 07-09-2020 19:45:18 17.9 C 26 %
3863 07-09-2020 19:55:18 17.7 C 25 %
3864 07-09-2020 20:05:18 17.3 C 26 %
3865 07-09-2020 20:15:17 16.6 C 26 %
3866 07-09-2020 20:25:17 16.1 C 27 %
3867 07-09-2020 20:35:17 15.5 C 28 %
3868 07-09-2020 20:45:17 14.9 C 30 %
3869 07-09-2020 20:55:17 14.9 C 30 %
3870 07-09-2020 21:05:18 14.5 C 31 %
3871 07-09-2020 21:15:17 13.8 C 32 %
3872 07-09-2020 21:25:17 13.1 C 33 %
3873 07-09-2020 21:35:18 12.9 C 34 %
3874 07-09-2020 21:45:17 12.6 C 35 %
3875 07-09-2020 21:55:17 12.4 C 35 %
Sensor: Nr:Datum:Temp:Feuchte:
Aussen-T/F 3876 07-09-2020 22:05:17 12.4 C 35 %
3877 07-09-2020 22:15:18 12.1 C 35 %
3878 07-09-2020 22:25:18 11.9 C 36 %
3879 07-09-2020 22:35:17 11.6 C 37 %
3880 07-09-2020 22:45:17 11.5 C 37 %
3881 07-09-2020 22:55:17 11.4 C 37 %
3882 07-09-2020 23:05:18 11.4 C 37 %
3883 07-09-2020 23:15:17 11.1 C 37 %
3884 07-09-2020 23:25:17 11.2 C 37 %
3885 07-09-2020 23:35:17 10.9 C 38 %
3886 07-09-2020 23:45:18 10.9 C 39 %
3887 07-09-2020 23:55:18 10.9 C 39 %
3888 08-09-2020 00:05:17 10.5 C 39 %
3889 08-09-2020 00:15:18 10.2 C 39 %
3890 08-09-2020 00:25:18 10.2 C 39 %
3891 08-09-2020 00:35:17 10.1 C 40 %
3892 08-09-2020 00:45:18 10.2 C 40 %
3893 08-09-2020 00:55:18 9.9 C 40 %
3894 08-09-2020 01:05:17 9.9 C 41 %
3895 08-09-2020 01:15:17 10.2 C 40 %
3896 08-09-2020 01:25:17 9.8 C 40 %
3897 08-09-2020 01:35:18 9.4 C 41 %
3898 08-09-2020 01:45:17 9.5 C 41 %
3899 08-09-2020 01:55:17 9.5 C 41 %
3900 08-09-2020 02:05:18 9.3 C 42 %
Sensor: Nr:Datum:Temp:Feuchte:
Aussen-T/F 3901 08-09-2020 02:15:17 9.2 C 42 %
3902 08-09-2020 02:25:17 9 C 42 %
3903 08-09-2020 02:35:18 9.2 C 42 %
3904 08-09-2020 02:45:17 9.1 C 41 %
3905 08-09-2020 02:55:17 9.1 C 42 %
3906 08-09-2020 03:05:17 9.1 C 42 %
3907 08-09-2020 03:15:17 9.2 C 42 %
3908 08-09-2020 03:25:17 8.7 C 42 %
3909 08-09-2020 03:35:18 8.5 C 43 %
3910 08-09-2020 03:45:17 8.8 C 43 %
3911 08-09-2020 03:55:17 8.5 C 42 %
3912 08-09-2020 04:05:18 8.6 C 43 %
3913 08-09-2020 04:15:17 8.4 C 43 %
3914 08-09-2020 04:25:18 8.4 C 44 %
3915 08-09-2020 04:35:17 8.2 C 44 %
3916 08-09-2020 04:45:17 8.1 C 45 %
3917 08-09-2020 04:55:17 8 C 44 %
3918 08-09-2020 05:05:17 8.1 C 45 %
3919 08-09-2020 05:15:17 8.2 C 45 %
3920 08-09-2020 05:25:17 8.1 C 44 %
3921 08-09-2020 05:35:17 8 C 44 %
3922 08-09-2020 05:45:17 8 C 44 %
3923 08-09-2020 05:55:17 7.8 C 45 %
3924 08-09-2020 06:05:17 7.5 C 45 %
3925 08-09-2020 06:15:17 7.6 C 46 %
Sensor: Nr:Datum:Temp:Feuchte:
Aussen-T/F 3926 08-09-2020 06:25:17 7.7 C 45 %
3927 08-09-2020 06:35:17 7.7 C 45 %
3928 08-09-2020 06:45:17 7.5 C 44 %
3929 08-09-2020 06:55:17 7.4 C 45 %
3930 08-09-2020 07:05:18 7.5 C 46 %
3931 08-09-2020 07:15:18 7.6 C 45 %
3932 08-09-2020 07:25:18 7.8 C 46 %
3933 08-09-2020 07:35:18 8.1 C 45 %
3934 08-09-2020 07:45:17 8.1 C 44 %
3935 08-09-2020 07:55:17 8.4 C 44 %
3936 08-09-2020 08:05:18 8.5 C 44 %
3937 08-09-2020 08:15:18 8.7 C 44 %
3938 08-09-2020 08:25:18 8.8 C 44 %
3939 08-09-2020 08:35:17 9 C 43 %
3940 08-09-2020 08:45:18 9.1 C 43 %
3941 08-09-2020 08:55:18 9.2 C 43 %
3942 08-09-2020 09:05:18 9.3 C 42 %
3943 08-09-2020 09:15:17 9.9 C 42 %
3944 08-09-2020 09:25:17 10.1 C 40 %
3945 08-09-2020 09:35:18 10.5 C 40 %
3946 08-09-2020 09:45:17 10.9 C 40 %
3947 08-09-2020 09:55:17 11.3 C 39 %
3948 08-09-2020 10:05:18 11.6 C 39 %
3949 08-09-2020 10:15:17 12.2 C 37 %
3950 08-09-2020 10:25:17 13.1 C 36 %
Sensor: Nr:Datum:Temp:Feuchte:
Aussen-T/F 3951 08-09-2020 10:35:18 14.1 C 35 %
3952 08-09-2020 10:45:17 14.6 C 34 %
3953 08-09-2020 10:55:17 15.8 C 32 %
3954 08-09-2020 11:05:17 17.1 C 30 %
3955 08-09-2020 11:15:17 17.3 C 30 %
3956 08-09-2020 11:25:18 18.7 C 28 %
3957 08-09-2020 11:35:18 19.4 C 27 %
3958 08-09-2020 11:45:17 19.6 C 27 %
3959 08-09-2020 11:55:17 20.4 C 26 %
3960 08-09-2020 12:05:17 21.2 C 25 %
3961 08-09-2020 12:15:17 21.6 C 25 %
3962 08-09-2020 12:25:17 21 C 25 %
3963 08-09-2020 12:35:17 21.4 C 25 %
3964 08-09-2020 12:45:17 21.3 C 24 %
3965 08-09-2020 12:55:17 21.6 C 24 %
3966 08-09-2020 13:05:18 21.6 C 24 %
3967 08-09-2020 13:15:17 21.7 C 24 %
3968 08-09-2020 13:25:17 22.1 C 23 %
3969 08-09-2020 13:35:18 22.4 C 23 %
3970 08-09-2020 13:45:17 22.3 C 22 %
3971 08-09-2020 13:55:17 22.8 C 22 %
3972 08-09-2020 14:05:18 22.6 C 22 %
3973 08-09-2020 14:15:17 23.4 C 21 %
3974 08-09-2020 14:25:17 25.7 C 20 %
3975 08-09-2020 14:35:18 28.3 C 20 %
Sensor: Nr:Datum:Temp:Feuchte:
Aussen-T/F 3976 08-09-2020 14:45:17 27.7 C 20 %
3977 08-09-2020 14:55:17 27.9 C 20 %
3978 08-09-2020 15:05:17 29.2 C 20 %
3979 08-09-2020 15:15:17 30.2 C 20 %
3980 08-09-2020 15:25:17 27.8 C 20 %
3981 08-09-2020 15:35:18 29 C 20 %
3982 08-09-2020 15:45:17 30.4 C 20 %
3983 08-09-2020 15:55:17 31.2 C 20 %
3984 08-09-2020 16:05:18 32 C 20 %
3985 08-09-2020 16:15:18 32.8 C 20 %
3986 08-09-2020 16:25:18 32.2 C 20 %
3987 08-09-2020 16:35:18 31.4 C 20 %
3988 08-09-2020 16:45:17 33.3 C 20 %
3989 08-09-2020 16:55:17 30.7 C 20 %
3990 08-09-2020 17:05:17 31.7 C 20 %
3991 08-09-2020 17:15:17 31.7 C 20 %
3992 08-09-2020 17:25:17 32.3 C 20 %
3993 08-09-2020 17:35:17 30.2 C 20 %
3994 08-09-2020 17:45:17 29.5 C 20 %
3995 08-09-2020 17:55:17 27.4 C 20 %
3996 08-09-2020 18:05:18 27.1 C 20 %
3997 08-09-2020 18:15:17 26.8 C 20 %
3998 08-09-2020 18:25:17 26.6 C 20 %
3999 08-09-2020 18:35:18 26.4 C 20 %
4000 08-09-2020 18:45:17 25.9 C 20 %
Sensor: Nr:Datum:Temp:Feuchte:
Aussen-T/F 4001 08-09-2020 18:55:17 25.6 C 20 %
4002 08-09-2020 19:05:18 25.1 C 20 %
4003 08-09-2020 19:15:18 24.5 C 21 %
4004 08-09-2020 19:25:18 24.2 C 21 %
4005 08-09-2020 19:35:18 23.6 C 22 %
4006 08-09-2020 19:45:17 22 C 25 %
4007 08-09-2020 19:55:17 21.4 C 26 %
4008 08-09-2020 20:05:17 20.6 C 28 %
4009 08-09-2020 20:15:17 20.1 C 28 %
4010 08-09-2020 20:25:17 19.9 C 29 %
4011 08-09-2020 20:35:17 19.3 C 30 %
4012 08-09-2020 20:45:17 19.3 C 30 %
4013 08-09-2020 20:55:17 19.1 C 30 %
4014 08-09-2020 21:05:17 19.1 C 30 %
4015 08-09-2020 21:15:17 18.9 C 31 %
4016 08-09-2020 21:25:17 19.1 C 30 %
4017 08-09-2020 21:35:18 19 C 30 %
4018 08-09-2020 21:45:17 18.4 C 31 %
4019 08-09-2020 21:55:17 18.1 C 32 %
4020 08-09-2020 22:05:18 18.3 C 31 %
4021 08-09-2020 22:15:18 17.8 C 33 %
4022 08-09-2020 22:25:18 17.6 C 33 %
4023 08-09-2020 22:35:17 17.2 C 33 %
4024 08-09-2020 22:45:17 17.1 C 33 %
4025 08-09-2020 22:55:17 16.6 C 35 %
Sensor: Nr:Datum:Temp:Feuchte:
Aussen-T/F 4026 08-09-2020 23:05:17 16 C 36 %
4027 08-09-2020 23:15:17 15.7 C 36 %
4028 08-09-2020 23:25:17 15.5 C 37 %
4029 08-09-2020 23:35:18 15.2 C 37 %
4030 08-09-2020 23:45:17 15.2 C 38 %
4031 08-09-2020 23:55:17 15 C 38 %
4032 09-09-2020 00:05:18 14.8 C 39 %
4033 09-09-2020 00:15:17 14.6 C 40 %
4034 09-09-2020 00:25:17 14.5 C 40 %
4035 09-09-2020 00:35:18 14.4 C 40 %
4036 09-09-2020 00:45:17 14.3 C 40 %
4037 09-09-2020 00:55:17 14.1 C 40 %
4038 09-09-2020 01:05:18 14 C 40 %
4039 09-09-2020 01:15:17 14 C 41 %
4040 09-09-2020 01:25:17 13.8 C 42 %
4041 09-09-2020 01:35:17 14 C 41 %
4042 09-09-2020 01:45:17 13.9 C 41 %
4043 09-09-2020 01:55:17 13.7 C 41 %
4044 09-09-2020 02:05:18 13.6 C 42 %
4045 09-09-2020 02:15:17 13.5 C 42 %
4046 09-09-2020 02:25:17 13.3 C 42 %
4047 09-09-2020 02:35:18 13.3 C 42 %
4048 09-09-2020 02:45:17 13.1 C 42 %
4049 09-09-2020 02:55:17 13.2 C 43 %
4050 09-09-2020 03:05:18 13.1 C 42 %
Sensor: Nr:Datum:Temp:Feuchte:
Aussen-T/F 4051 09-09-2020 03:15:17 12.8 C 43 %
4052 09-09-2020 03:25:17 12.7 C 44 %
4053 09-09-2020 03:35:17 12.7 C 44 %
4054 09-09-2020 03:45:17 12.5 C 44 %
4055 09-09-2020 03:55:17 12.4 C 44 %
4056 09-09-2020 04:05:18 12.3 C 44 %
4057 09-09-2020 04:15:17 12.4 C 44 %
4058 09-09-2020 04:25:17 12.4 C 44 %
4059 09-09-2020 04:35:17 12.3 C 44 %
4060 09-09-2020 04:45:17 12.3 C 44 %
4061 09-09-2020 04:55:17 12.3 C 44 %
4062 09-09-2020 05:05:17 12.2 C 44 %
4063 09-09-2020 05:15:17 12.3 C 44 %
4064 09-09-2020 05:25:17 12 C 44 %
4065 09-09-2020 05:35:17 12.2 C 44 %
4066 09-09-2020 05:45:17 12.1 C 44 %
4067 09-09-2020 05:55:18 12 C 43 %
4068 09-09-2020 06:05:18 12.1 C 44 %
4069 09-09-2020 06:15:17 11.7 C 45 %
4070 09-09-2020 06:25:17 11.7 C 45 %
4071 09-09-2020 06:35:17 11.8 C 45 %
4072 09-09-2020 06:45:17 11.7 C 45 %
4073 09-09-2020 06:55:17 11.6 C 45 %
4074 09-09-2020 07:05:18 11.7 C 45 %
4075 09-09-2020 07:15:18 11.8 C 45 %
Sensor: Nr:Datum:Temp:Feuchte:
Aussen-T/F 4076 09-09-2020 07:25:18 11.8 C 45 %
4077 09-09-2020 07:35:18 12.1 C 44 %
4078 09-09-2020 07:45:17 12 C 43 %
4079 09-09-2020 07:55:18 11.9 C 44 %
4080 09-09-2020 08:05:17 12.1 C 43 %
4081 09-09-2020 08:15:17 12.3 C 44 %
4082 09-09-2020 08:25:17 12.5 C 44 %
4083 09-09-2020 08:35:18 12.6 C 44 %
4084 09-09-2020 08:45:17 12.8 C 43 %
4085 09-09-2020 08:55:17 13 C 42 %
4086 09-09-2020 09:05:17 13.1 C 42 %
4087 09-09-2020 09:15:17 13.4 C 42 %
4088 09-09-2020 09:25:17 13.7 C 42 %
4089 09-09-2020 09:35:18 14.2 C 41 %
4090 09-09-2020 09:45:18 15.6 C 38 %
4091 09-09-2020 09:55:18 16.3 C 37 %
4092 09-09-2020 10:05:17 16.8 C 38 %
4093 09-09-2020 10:15:17 18 C 35 %
4094 09-09-2020 10:25:18 19.1 C 32 %
4095 09-09-2020 10:35:17 20.6 C 31 %
4096 09-09-2020 10:45:18 21.1 C 29 %
4097 09-09-2020 10:55:18 21.6 C 29 %
4098 09-09-2020 11:05:18 22 C 27 %
4099 09-09-2020 11:15:17 22.3 C 27 %
4100 09-09-2020 11:25:17 22.9 C 27 %
Sensor: Nr:Datum:Temp:Feuchte:
Aussen-T/F 4101 09-09-2020 11:35:18 23.8 C 26 %
4102 09-09-2020 11:45:18 24.3 C 25 %
4103 09-09-2020 11:55:18 24 C 25 %
4104 09-09-2020 12:05:18 23.7 C 26 %
4105 09-09-2020 12:15:17 23.4 C 26 %
4106 09-09-2020 12:25:17 23.4 C 26 %
4107 09-09-2020 12:35:18 23.3 C 25 %
4108 09-09-2020 12:45:17 23.7 C 26 %
4109 09-09-2020 12:55:17 23.4 C 26 %
4110 09-09-2020 13:05:18 23.5 C 26 %
4111 09-09-2020 13:15:17 23.6 C 26 %
4112 09-09-2020 13:25:17 23.2 C 26 %
4113 09-09-2020 13:35:17 23.4 C 26 %
4114 09-09-2020 13:45:17 23.3 C 26 %
4115 09-09-2020 13:55:17 23.6 C 26 %
4116 09-09-2020 14:05:18 23.5 C 26 %
4117 09-09-2020 14:15:17 24.2 C 25 %
4118 09-09-2020 14:25:17 25.5 C 24 %
4119 09-09-2020 14:35:18 26.1 C 23 %
4120 09-09-2020 14:45:17 25.4 C 23 %
4121 09-09-2020 14:55:17 26.7 C 23 %
4122 09-09-2020 15:05:17 29.8 C 20 %
4123 09-09-2020 15:15:17 29.8 C 20 %
4124 09-09-2020 15:25:17 26.2 C 21 %
4125 09-09-2020 15:35:18 25.6 C 22 %
Sensor: Nr:Datum:Temp:Feuchte:
Aussen-T/F 4126 09-09-2020 15:45:18 24.7 C 23 %
4127 09-09-2020 15:55:18 24.6 C 23 %
4128 09-09-2020 16:05:17 24.6 C 24 %
4129 09-09-2020 16:15:17 24.8 C 23 %
4130 09-09-2020 16:25:17 24.7 C 23 %
4131 09-09-2020 16:35:18 25.1 C 23 %
4132 09-09-2020 16:45:18 24.9 C 24 %
4133 09-09-2020 16:55:18 24.8 C 23 %
4134 09-09-2020 17:05:18 25.2 C 22 %
4135 09-09-2020 17:15:17 25.6 C 22 %
4136 09-09-2020 17:25:17 25.3 C 22 %
4137 09-09-2020 17:35:18 26 C 21 %
4138 09-09-2020 17:45:18 25.1 C 23 %
4139 09-09-2020 17:55:18 25.6 C 23 %
4140 09-09-2020 18:05:18 24.5 C 24 %
4141 09-09-2020 18:15:17 24.3 C 24 %
4142 09-09-2020 18:25:17 23.9 C 25 %
4143 09-09-2020 18:35:18 23.7 C 26 %
4144 09-09-2020 18:45:17 23.9 C 26 %
4145 09-09-2020 18:55:18 23.6 C 25 %
4146 09-09-2020 19:05:18 22.9 C 28 %
4147 09-09-2020 19:15:18 22.4 C 28 %
4148 09-09-2020 19:25:18 21.8 C 30 %
4149 09-09-2020 19:35:17 21.9 C 30 %
4150 09-09-2020 19:45:17 21.7 C 30 %
Sensor: Nr:Datum:Temp:Feuchte:
Aussen-T/F 4151 09-09-2020 19:55:17 21.6 C 30 %
4152 09-09-2020 20:05:18 21.4 C 30 %
4153 09-09-2020 20:15:17 21.1 C 30 %
4154 09-09-2020 20:25:17 20.4 C 31 %
4155 09-09-2020 20:35:18 20.2 C 32 %
4156 09-09-2020 20:45:18 19.9 C 32 %
4157 09-09-2020 20:55:18 19.8 C 32 %
4158 09-09-2020 21:05:17 19.7 C 32 %
4159 09-09-2020 21:15:18 19.6 C 32 %
4160 09-09-2020 21:25:18 19.7 C 32 %
4161 09-09-2020 21:35:18 19.7 C 32 %
4162 09-09-2020 21:45:17 19.7 C 32 %
4163 09-09-2020 21:55:17 19.8 C 32 %
4164 09-09-2020 22:05:17 19.8 C 32 %
4165 09-09-2020 22:15:17 20 C 32 %
4166 09-09-2020 22:25:17 19.9 C 32 %
4167 09-09-2020 22:35:17 19.7 C 33 %
4168 09-09-2020 22:45:18 19.7 C 33 %
4169 09-09-2020 22:55:18 19.8 C 33 %
4170 09-09-2020 23:05:18 19.9 C 32 %
4171 09-09-2020 23:15:17 19.9 C 32 %
4172 09-09-2020 23:25:17 20.4 C 31 %
4173 09-09-2020 23:35:17 20.7 C 31 %
4174 09-09-2020 23:45:17 20.8 C 31 %
4175 09-09-2020 23:55:17 20.9 C 31 %
Sensor: Nr:Datum:Temp:Feuchte:
Aussen-T/F 4176 10-09-2020 00:05:18 20.6 C 32 %
4177 10-09-2020 00:15:17 20.1 C 34 %
4178 10-09-2020 00:25:17 19.9 C 35 %
4179 10-09-2020 00:35:18 19.8 C 35 %
4180 10-09-2020 00:45:17 19.6 C 35 %
4181 10-09-2020 00:55:17 18.8 C 38 %
4182 10-09-2020 01:05:17 18.3 C 40 %
4183 10-09-2020 01:15:17 18.1 C 40 %
4184 10-09-2020 01:25:17 18 C 40 %
4185 10-09-2020 01:35:17 18 C 40 %
4186 10-09-2020 01:45:17 17.8 C 41 %
4187 10-09-2020 01:55:17 17.6 C 41 %
4188 10-09-2020 02:05:17 17.5 C 41 %
4189 10-09-2020 02:15:18 17.4 C 40 %
4190 10-09-2020 02:25:18 17.3 C 38 %
4191 10-09-2020 02:35:18 17.3 C 37 %
4192 10-09-2020 02:45:17 17.2 C 37 %
4193 10-09-2020 02:55:17 17.2 C 37 %
4194 10-09-2020 03:05:17 17.2 C 37 %
4195 10-09-2020 03:15:17 17 C 37 %
4196 10-09-2020 03:25:17 17 C 37 %
4197 10-09-2020 03:35:18 17 C 37 %
4198 10-09-2020 03:45:17 17 C 37 %
4199 10-09-2020 03:55:17 16.9 C 37 %
4200 10-09-2020 04:05:17 16.8 C 38 %
Sensor: Nr:Datum:Temp:Feuchte:
Aussen-T/F 4201 10-09-2020 04:15:17 16.6 C 38 %
4202 10-09-2020 04:25:17 16.6 C 37 %
4203 10-09-2020 04:35:17 16.6 C 36 %
4204 10-09-2020 04:45:17 16.6 C 36 %
4205 10-09-2020 04:55:17 16.6 C 35 %
4206 10-09-2020 05:05:17 16.6 C 35 %
4207 10-09-2020 05:15:17 16.5 C 35 %
4208 10-09-2020 05:25:17 16.3 C 35 %
4209 10-09-2020 05:35:17 16.3 C 35 %
4210 10-09-2020 05:45:17 16.1 C 36 %
4211 10-09-2020 05:55:17 16.2 C 36 %
4212 10-09-2020 06:05:17 16.2 C 36 %
4213 10-09-2020 06:15:17 16.1 C 35 %
4214 10-09-2020 06:25:17 16.2 C 35 %
4215 10-09-2020 06:35:17 15.8 C 36 %
4216 10-09-2020 06:45:18 15.7 C 36 %
4217 10-09-2020 06:55:18 15.5 C 36 %
4218 10-09-2020 07:05:17 15.2 C 37 %
4219 10-09-2020 07:15:18 15.2 C 37 %
4220 10-09-2020 07:25:18 15.3 C 36 %
4221 10-09-2020 07:35:18 15.4 C 36 %
4222 10-09-2020 07:45:17 15.4 C 36 %
4223 10-09-2020 07:55:17 15.4 C 36 %
4224 10-09-2020 08:05:17 15.4 C 36 %
4225 10-09-2020 08:15:17 15.5 C 36 %
Sensor: Nr:Datum:Temp:Feuchte:
Aussen-T/F 4226 10-09-2020 08:25:17 15.7 C 36 %
4227 10-09-2020 08:35:17 15.7 C 36 %
4228 10-09-2020 08:45:17 15.6 C 36 %
4229 10-09-2020 08:55:17 15.8 C 36 %
4230 10-09-2020 09:05:17 15.8 C 36 %
4231 10-09-2020 09:15:17 16.2 C 35 %
4232 10-09-2020 09:25:17 16.1 C 35 %
4233 10-09-2020 09:35:17 16.6 C 35 %
4234 10-09-2020 09:45:17 17 C 34 %
4235 10-09-2020 09:55:17 16.7 C 34 %
4236 10-09-2020 10:05:17 16.3 C 33 %
4237 10-09-2020 10:15:17 16.4 C 33 %
4238 10-09-2020 10:25:17 16.3 C 32 %
4239 10-09-2020 10:35:17 16.6 C 32 %
4240 10-09-2020 10:45:17 17 C 32 %
4241 10-09-2020 10:55:17 18.1 C 30 %
4242 10-09-2020 11:05:18 18.2 C 30 %
4243 10-09-2020 11:15:17 17.9 C 31 %
4244 10-09-2020 11:25:17 18.1 C 30 %
4245 10-09-2020 11:35:17 17.8 C 30 %
4246 10-09-2020 11:45:17 17.7 C 30 %
4247 10-09-2020 11:55:17 17.8 C 30 %
4248 10-09-2020 12:05:17 18.7 C 29 %
4249 10-09-2020 12:15:17 18.9 C 29 %
4250 10-09-2020 12:25:17 19.2 C 28 %
Sensor: Nr:Datum:Temp:Feuchte:
Aussen-T/F 4251 10-09-2020 12:35:17 18.8 C 27 %
4252 10-09-2020 12:45:17 18.3 C 28 %
4253 10-09-2020 12:55:18 18.1 C 27 %
4254 10-09-2020 13:05:18 18.5 C 27 %
4255 10-09-2020 13:15:17 18.3 C 27 %
4256 10-09-2020 13:25:17 18.5 C 27 %
4257 10-09-2020 13:35:18 18.5 C 27 %
4258 10-09-2020 13:45:17 19 C 26 %
4259 10-09-2020 13:55:17 19.3 C 26 %
4260 10-09-2020 14:05:18 19.6 C 26 %
4261 10-09-2020 14:15:17 20.3 C 26 %
4262 10-09-2020 14:25:17 21.8 C 25 %
4263 10-09-2020 14:35:17 24.2 C 21 %
4264 10-09-2020 14:45:17 24.7 C 20 %
4265 10-09-2020 14:55:17 24.1 C 20 %
4266 10-09-2020 15:05:17 26.2 C 20 %
4267 10-09-2020 15:15:18 27.1 C 20 %
4268 10-09-2020 15:25:18 27.9 C 20 %
4269 10-09-2020 15:35:18 27.6 C 20 %
4270 10-09-2020 15:45:17 27 C 20 %
4271 10-09-2020 15:55:17 26.7 C 20 %
4272 10-09-2020 16:05:17 26.2 C 20 %
4273 10-09-2020 16:15:17 28.6 C 20 %
4274 10-09-2020 16:25:17 29.3 C 20 %
4275 10-09-2020 16:35:17 29 C 20 %
Sensor: Nr:Datum:Temp:Feuchte:
Aussen-T/F 4276 10-09-2020 16:45:17 26.8 C 20 %
4277 10-09-2020 16:55:17 26.3 C 20 %
4278 10-09-2020 17:05:17 23.9 C 20 %
4279 10-09-2020 17:15:17 24.3 C 20 %
4280 10-09-2020 17:25:17 25.9 C 20 %
4281 10-09-2020 17:35:18 25.8 C 20 %
4282 10-09-2020 17:45:17 24.4 C 20 %
4283 10-09-2020 17:55:17 23 C 20 %
4284 10-09-2020 18:05:17 22.5 C 20 %
4285 10-09-2020 18:15:17 22.1 C 20 %
4286 10-09-2020 18:25:17 22.1 C 20 %
4287 10-09-2020 18:35:18 21.6 C 21 %
4288 10-09-2020 18:45:18 21.5 C 21 %
4289 10-09-2020 18:55:18 21.2 C 22 %
4290 10-09-2020 19:05:18 21.2 C 21 %
4291 10-09-2020 19:15:17 21 C 21 %
4292 10-09-2020 19:25:17 20.9 C 22 %
4293 10-09-2020 19:35:17 20.7 C 21 %
4294 10-09-2020 19:45:17 20.1 C 23 %
4295 10-09-2020 19:55:17 19 C 24 %
4296 10-09-2020 20:05:17 17.8 C 26 %
4297 10-09-2020 20:15:17 17.3 C 26 %
4298 10-09-2020 20:25:17 17 C 26 %
4299 10-09-2020 20:35:18 16.9 C 26 %
4300 10-09-2020 20:45:17 16.9 C 26 %
Sensor: Nr:Datum:Temp:Feuchte:
Aussen-T/F 4301 10-09-2020 20:55:17 16.7 C 26 %
4302 10-09-2020 21:05:17 16.5 C 27 %
4303 10-09-2020 21:15:17 16.4 C 27 %
4304 10-09-2020 21:25:17 15.9 C 27 %
4305 10-09-2020 21:35:17 15.7 C 28 %
4306 10-09-2020 21:45:17 15.1 C 29 %
4307 10-09-2020 21:55:17 15.2 C 29 %
4308 10-09-2020 22:05:17 14.7 C 30 %
4309 10-09-2020 22:15:17 14.3 C 31 %
4310 10-09-2020 22:25:17 14 C 31 %
4311 10-09-2020 22:35:17 13.5 C 32 %
4312 10-09-2020 22:45:18 13 C 33 %
4313 10-09-2020 22:55:18 12.8 C 34 %
4314 10-09-2020 23:05:17 12.5 C 34 %
4315 10-09-2020 23:15:18 12.4 C 35 %
4316 10-09-2020 23:25:18 12.1 C 35 %
4317 10-09-2020 23:35:17 11.8 C 36 %
4318 10-09-2020 23:45:17 11.8 C 36 %
4319 10-09-2020 23:55:17 11.8 C 36 %
4320 11-09-2020 00:05:18 11.8 C 36 %
4321 11-09-2020 00:15:17 11.8 C 36 %
4322 11-09-2020 00:25:17 12.1 C 35 %
4323 11-09-2020 00:35:18 12.2 C 35 %
4324 11-09-2020 00:45:17 12.1 C 35 %
4325 11-09-2020 00:55:17 12.1 C 36 %
Sensor: Nr:Datum:Temp:Feuchte:
Aussen-T/F 4326 11-09-2020 01:05:18 12.1 C 35 %
4327 11-09-2020 01:15:17 12 C 36 %
4328 11-09-2020 01:25:17 12.1 C 35 %
4329 11-09-2020 01:35:18 11.7 C 36 %
4330 11-09-2020 01:45:17 11.2 C 37 %
4331 11-09-2020 01:55:17 11.2 C 37 %
4332 11-09-2020 02:05:18 10.9 C 38 %
4333 11-09-2020 02:15:18 10.9 C 39 %
4334 11-09-2020 02:25:18 10.7 C 39 %
4335 11-09-2020 02:35:18 10.9 C 39 %
4336 11-09-2020 02:45:17 10.2 C 39 %
4337 11-09-2020 02:55:17 9.9 C 40 %
4338 11-09-2020 03:05:17 10.3 C 40 %
4339 11-09-2020 03:15:17 9.8 C 40 %
4340 11-09-2020 03:25:17 9.7 C 41 %
4341 11-09-2020 03:35:18 9.6 C 41 %
4342 11-09-2020 03:45:17 9.5 C 41 %
4343 11-09-2020 03:55:17 9.3 C 41 %
4344 11-09-2020 04:05:18 9.4 C 42 %
4345 11-09-2020 04:15:17 9 C 42 %
4346 11-09-2020 04:25:17 9 C 43 %
4347 11-09-2020 04:35:17 8.7 C 43 %
4348 11-09-2020 04:45:17 8.7 C 44 %
4349 11-09-2020 04:55:17 8.8 C 43 %
4350 11-09-2020 05:05:18 8.7 C 44 %
Sensor: Nr:Datum:Temp:Feuchte:
Aussen-T/F 4351 11-09-2020 05:15:17 8.4 C 44 %
4352 11-09-2020 05:25:17 8.2 C 44 %
4353 11-09-2020 05:35:18 8.2 C 45 %
4354 11-09-2020 05:45:18 8 C 45 %
4355 11-09-2020 05:55:18 8 C 45 %
4356 11-09-2020 06:05:17 8 C 45 %
4357 11-09-2020 06:15:18 7.9 C 45 %
4358 11-09-2020 06:25:18 7.9 C 45 %
4359 11-09-2020 06:35:17 7.9 C 46 %
4360 11-09-2020 06:45:17 7.7 C 46 %
4361 11-09-2020 06:55:17 7.8 C 46 %
4362 11-09-2020 07:05:17 7.9 C 46 %
4363 11-09-2020 07:15:18 7.9 C 46 %
4364 11-09-2020 07:25:18 8.1 C 45 %
4365 11-09-2020 07:35:18 8 C 45 %
4366 11-09-2020 07:45:17 8 C 45 %
4367 11-09-2020 07:55:17 8.2 C 45 %
4368 11-09-2020 08:05:17 8.1 C 45 %
4369 11-09-2020 08:15:18 8.3 C 45 %
4370 11-09-2020 08:25:18 8.4 C 45 %
4371 11-09-2020 08:35:17 8.5 C 45 %
4372 11-09-2020 08:45:18 8.7 C 45 %
4373 11-09-2020 08:55:18 9 C 45 %
4374 11-09-2020 09:05:17 9.3 C 43 %
4375 11-09-2020 09:15:17 9.6 C 43 %
Sensor: Nr:Datum:Temp:Feuchte:
Aussen-T/F 4376 11-09-2020 09:25:17 9.8 C 43 %
4377 11-09-2020 09:35:18 10.1 C 42 %
4378 11-09-2020 09:45:17 10.4 C 42 %
4379 11-09-2020 09:55:18 10.7 C 42 %
4380 11-09-2020 10:05:18 11.2 C 40 %
4381 11-09-2020 10:15:17 11.6 C 40 %
4382 11-09-2020 10:25:17 12 C 39 %
4383 11-09-2020 10:35:17 12.5 C 38 %
4384 11-09-2020 10:45:17 13.1 C 37 %
4385 11-09-2020 10:55:17 13.7 C 37 %
4386 11-09-2020 11:05:18 14.3 C 35 %
4387 11-09-2020 11:15:17 14.8 C 34 %
4388 11-09-2020 11:25:17 15.5 C 32 %
4389 11-09-2020 11:35:17 16.3 C 31 %
4390 11-09-2020 11:45:17 16.8 C 31 %
4391 11-09-2020 11:55:17 17.4 C 30 %
4392 11-09-2020 12:05:17 17.9 C 30 %
4393 11-09-2020 12:15:17 18.4 C 29 %
4394 11-09-2020 12:25:17 19.3 C 26 %
4395 11-09-2020 12:35:17 18.7 C 27 %
4396 11-09-2020 12:45:17 18.7 C 27 %
4397 11-09-2020 12:55:18 19 C 26 %
4398 11-09-2020 13:05:17 19.6 C 26 %
4399 11-09-2020 13:15:17 19.7 C 25 %
4400 11-09-2020 13:25:17 20 C 25 %
Sensor: Nr:Datum:Temp:Feuchte:
Aussen-T/F 4401 11-09-2020 13:35:18 20.1 C 25 %
4402 11-09-2020 13:45:17 20.3 C 25 %
4403 11-09-2020 13:55:17 20.8 C 25 %
4404 11-09-2020 14:05:18 21 C 24 %
4405 11-09-2020 14:15:18 21.6 C 24 %
4406 11-09-2020 14:25:18 23.6 C 21 %
4407 11-09-2020 14:35:17 24.6 C 20 %
4408 11-09-2020 14:45:17 25.5 C 20 %
4409 11-09-2020 14:55:17 24.9 C 20 %
4410 11-09-2020 15:05:18 27.3 C 20 %
4411 11-09-2020 15:15:17 27.7 C 20 %
4412 11-09-2020 15:25:17 26.9 C 20 %
4413 11-09-2020 15:35:18 28 C 20 %
4414 11-09-2020 15:45:17 28.2 C 20 %
4415 11-09-2020 15:55:18 27.3 C 20 %
4416 11-09-2020 16:05:17 28.6 C 20 %
4417 11-09-2020 16:15:18 27.6 C 20 %
4418 11-09-2020 16:25:18 27.3 C 20 %
4419 11-09-2020 16:35:17 28.2 C 20 %
4420 11-09-2020 16:45:17 27.5 C 20 %
4421 11-09-2020 16:55:17 26.5 C 20 %
4422 11-09-2020 17:05:17 27.5 C 20 %
4423 11-09-2020 17:15:17 26.8 C 20 %
4424 11-09-2020 17:25:17 26.7 C 20 %
4425 11-09-2020 17:35:17 27.1 C 20 %
Sensor: Nr:Datum:Temp:Feuchte:
Aussen-T/F 4426 11-09-2020 17:45:18 25.6 C 20 %
4427 11-09-2020 17:55:18 24.8 C 20 %
4428 11-09-2020 18:05:18 24.1 C 20 %
4429 11-09-2020 18:15:17 24 C 20 %
4430 11-09-2020 18:25:17 23.9 C 20 %
4431 11-09-2020 18:35:17 23 C 21 %
4432 11-09-2020 18:45:17 22.5 C 23 %
4433 11-09-2020 18:55:17 21.9 C 25 %
4434 11-09-2020 19:05:18 21.2 C 25 %
4435 11-09-2020 19:15:17 20.7 C 25 %
4436 11-09-2020 19:25:17 20 C 26 %
4437 11-09-2020 19:35:17 19.8 C 26 %
4438 11-09-2020 19:45:17 19.4 C 26 %
4439 11-09-2020 19:55:17 19.2 C 26 %
4440 11-09-2020 20:05:17 18.7 C 27 %
4441 11-09-2020 20:15:17 18.3 C 27 %
4442 11-09-2020 20:25:17 17.6 C 29 %
4443 11-09-2020 20:35:17 17.4 C 30 %
4444 11-09-2020 20:45:17 16.9 C 30 %
4445 11-09-2020 20:55:17 17.1 C 30 %
4446 11-09-2020 21:05:18 16.6 C 30 %
4447 11-09-2020 21:15:17 16 C 31 %
4448 11-09-2020 21:25:17 15.8 C 32 %
4449 11-09-2020 21:35:17 15.4 C 32 %
4450 11-09-2020 21:45:17 15 C 33 %
Sensor: Nr:Datum:Temp:Feuchte:
Aussen-T/F 4451 11-09-2020 21:55:17 14.8 C 34 %
4452 11-09-2020 22:05:17 14.7 C 34 %
4453 11-09-2020 22:15:18 14.5 C 35 %
4454 11-09-2020 22:25:18 14.8 C 35 %
4455 11-09-2020 22:35:17 14.3 C 35 %
4456 11-09-2020 22:45:18 14 C 35 %
4457 11-09-2020 22:55:18 13.7 C 36 %
4458 11-09-2020 23:05:17 13.7 C 37 %
4459 11-09-2020 23:15:17 13.4 C 37 %
4460 11-09-2020 23:25:17 13.2 C 37 %
4461 11-09-2020 23:35:18 13.1 C 37 %
4462 11-09-2020 23:45:18 12.9 C 38 %
4463 11-09-2020 23:55:18 13 C 37 %
4464 12-09-2020 00:05:18 12.7 C 39 %
4465 12-09-2020 00:15:17 12.4 C 39 %
4466 12-09-2020 00:25:17 12.2 C 39 %
4467 12-09-2020 00:35:18 12.3 C 39 %
4468 12-09-2020 00:45:17 12.3 C 39 %
4469 12-09-2020 00:55:17 12.4 C 40 %
4470 12-09-2020 01:05:17 12.3 C 40 %
4471 12-09-2020 01:15:17 12.1 C 40 %
4472 12-09-2020 01:25:17 12.1 C 40 %
4473 12-09-2020 01:35:17 12.1 C 39 %
4474 12-09-2020 01:45:17 12 C 40 %
4475 12-09-2020 01:55:17 11.7 C 40 %
Sensor: Nr:Datum:Temp:Feuchte:
Aussen-T/F 4476 12-09-2020 02:05:18 11.3 C 41 %
4477 12-09-2020 02:15:17 11.3 C 42 %
4478 12-09-2020 02:25:17 11.1 C 41 %
4479 12-09-2020 02:35:18 11.1 C 42 %
4480 12-09-2020 02:45:18 11.2 C 43 %
4481 12-09-2020 02:55:18 11.2 C 42 %
4482 12-09-2020 03:05:17 11 C 42 %
4483 12-09-2020 03:15:17 10.7 C 43 %
4484 12-09-2020 03:25:18 10.7 C 44 %
4485 12-09-2020 03:35:17 10.8 C 44 %
4486 12-09-2020 03:45:17 10.7 C 43 %
4487 12-09-2020 03:55:18 10.5 C 44 %
4488 12-09-2020 04:05:18 10.7 C 44 %
4489 12-09-2020 04:15:17 10.4 C 44 %
4490 12-09-2020 04:25:17 10.2 C 44 %
4491 12-09-2020 04:35:18 10.3 C 45 %
4492 12-09-2020 04:45:17 10.3 C 45 %
4493 12-09-2020 04:55:17 10.2 C 45 %
4494 12-09-2020 05:05:17 10 C 45 %
4495 12-09-2020 05:15:18 9.8 C 45 %
4496 12-09-2020 05:25:18 9.8 C 45 %
4497 12-09-2020 05:35:17 9.7 C 45 %
4498 12-09-2020 05:45:17 9.6 C 45 %
4499 12-09-2020 05:55:17 9.6 C 46 %
4500 12-09-2020 06:05:17 9.8 C 46 %
Sensor: Nr:Datum:Temp:Feuchte:
Aussen-T/F 4501 12-09-2020 06:15:17 9.6 C 45 %
4502 12-09-2020 06:25:17 9.6 C 46 %
4503 12-09-2020 06:35:17 9.5 C 45 %
4504 12-09-2020 06:45:18 9.9 C 46 %
4505 12-09-2020 06:55:18 9.7 C 45 %
4506 12-09-2020 07:05:17 9.4 C 45 %
4507 12-09-2020 07:15:18 9.6 C 46 %
4508 12-09-2020 07:25:18 9.7 C 46 %
4509 12-09-2020 07:35:17 9.8 C 45 %
4510 12-09-2020 07:45:17 9.9 C 46 %
4511 12-09-2020 07:55:17 10 C 45 %
4512 12-09-2020 08:05:17 10.1 C 45 %
4513 12-09-2020 08:15:17 10.5 C 45 %
4514 12-09-2020 08:25:17 10.9 C 45 %
4515 12-09-2020 08:35:17 11.3 C 43 %
4516 12-09-2020 08:45:17 12 C 41 %
4517 12-09-2020 08:55:17 12.4 C 40 %
4518 12-09-2020 09:05:18 13.1 C 38 %
4519 12-09-2020 09:15:17 13.5 C 37 %
4520 12-09-2020 09:25:17 13.6 C 37 %
4521 12-09-2020 09:35:18 13.8 C 37 %
4522 12-09-2020 09:45:17 14.3 C 36 %
4523 12-09-2020 09:55:17 14.7 C 36 %
4524 12-09-2020 10:05:18 14.8 C 35 %
4525 12-09-2020 10:15:17 14.9 C 35 %
Sensor: Nr:Datum:Temp:Feuchte:
Aussen-T/F 4526 12-09-2020 10:25:18 15.3 C 35 %
4527 12-09-2020 10:35:18 15.9 C 34 %
4528 12-09-2020 10:45:17 17 C 32 %
4529 12-09-2020 10:55:17 17.5 C 32 %
4530 12-09-2020 11:05:18 17.7 C 32 %
4531 12-09-2020 11:15:17 18.1 C 32 %
4532 12-09-2020 11:25:17 18.3 C 31 %
4533 12-09-2020 11:35:17 18.9 C 31 %
4534 12-09-2020 11:45:17 19.6 C 30 %
4535 12-09-2020 11:55:17 20.5 C 30 %
4536 12-09-2020 12:05:18 20.7 C 30 %
4537 12-09-2020 12:15:17 20.7 C 29 %
4538 12-09-2020 12:25:17 21.8 C 27 %
4539 12-09-2020 12:35:18 22.2 C 26 %
4540 12-09-2020 12:45:17 22.1 C 26 %
4541 12-09-2020 12:55:18 23.6 C 24 %
4542 12-09-2020 13:05:17 24.2 C 23 %
4543 12-09-2020 13:15:18 24.9 C 21 %
4544 12-09-2020 13:25:18 25.3 C 21 %
4545 12-09-2020 13:35:18 25.6 C 21 %
4546 12-09-2020 13:45:17 25.8 C 21 %
4547 12-09-2020 13:55:18 25.7 C 21 %
4548 12-09-2020 14:05:18 25.1 C 22 %
4549 12-09-2020 14:15:17 25.1 C 21 %
4550 12-09-2020 14:25:17 26.6 C 21 %
Sensor: Nr:Datum:Temp:Feuchte:
Aussen-T/F 4551 12-09-2020 14:35:18 26.3 C 21 %
4552 12-09-2020 14:45:17 27.8 C 20 %
4553 12-09-2020 14:55:17 28.2 C 20 %
4554 12-09-2020 15:05:18 30.4 C 20 %
4555 12-09-2020 15:15:18 28.9 C 20 %
4556 12-09-2020 15:25:18 29.5 C 20 %
4557 12-09-2020 15:35:17 29.8 C 20 %
4558 12-09-2020 15:45:17 31.5 C 20 %
4559 12-09-2020 15:55:17 29.4 C 20 %
4560 12-09-2020 16:05:18 31.4 C 20 %
4561 12-09-2020 16:15:17 32.6 C 20 %
4562 12-09-2020 16:25:18 28.4 C 20 %
4563 12-09-2020 16:35:17 29.2 C 20 %
4564 12-09-2020 16:45:17 28.8 C 20 %
4565 12-09-2020 16:55:17 30.2 C 20 %
4566 12-09-2020 17:05:18 29.7 C 20 %
4567 12-09-2020 17:15:18 29.8 C 20 %
4568 12-09-2020 17:25:18 28.7 C 20 %
4569 12-09-2020 17:35:18 29 C 20 %
4570 12-09-2020 17:45:17 26.6 C 20 %
4571 12-09-2020 17:55:17 25.3 C 20 %
4572 12-09-2020 18:05:18 25.2 C 21 %
4573 12-09-2020 18:15:17 24.9 C 21 %
4574 12-09-2020 18:25:17 24.9 C 21 %
4575 12-09-2020 18:35:18 24.4 C 21 %
Sensor: Nr:Datum:Temp:Feuchte:
Aussen-T/F 4576 12-09-2020 18:45:17 24.1 C 21 %
4577 12-09-2020 18:55:17 23.8 C 22 %
4578 12-09-2020 19:05:18 23.5 C 23 %
4579 12-09-2020 19:15:17 23.1 C 23 %
4580 12-09-2020 19:25:17 22 C 25 %
4581 12-09-2020 19:35:17 20.5 C 28 %
4582 12-09-2020 19:45:17 19.9 C 30 %
4583 12-09-2020 19:55:17 19.7 C 29 %
4584 12-09-2020 20:05:18 19.3 C 30 %
4585 12-09-2020 20:15:18 19.2 C 30 %
4586 12-09-2020 20:25:18 19.5 C 29 %
4587 12-09-2020 20:35:17 19.3 C 29 %
4588 12-09-2020 20:45:18 18.2 C 30 %
4589 12-09-2020 20:55:18 18.9 C 29 %
4590 12-09-2020 21:05:18 18.7 C 29 %
4591 12-09-2020 21:15:17 17.9 C 30 %
4592 12-09-2020 21:25:17 18 C 29 %
4593 12-09-2020 21:35:17 17.6 C 30 %
4594 12-09-2020 21:45:18 17.3 C 30 %
4595 12-09-2020 21:55:18 17.1 C 30 %
4596 12-09-2020 22:05:17 17.2 C 30 %
4597 12-09-2020 22:15:17 17.5 C 30 %
4598 12-09-2020 22:25:17 16.8 C 30 %
4599 12-09-2020 22:35:17 16.3 C 31 %
4600 12-09-2020 22:45:18 16.3 C 30 %
Sensor: Nr:Datum:Temp:Feuchte:
Aussen-T/F 4601 12-09-2020 22:55:18 16.4 C 30 %
4602 12-09-2020 23:05:18 16.3 C 30 %
4603 12-09-2020 23:15:18 15.7 C 32 %
4604 12-09-2020 23:25:18 15.7 C 32 %
4605 12-09-2020 23:35:17 15.6 C 32 %
4606 12-09-2020 23:45:17 15.1 C 32 %
4607 12-09-2020 23:55:17 14.6 C 34 %
4608 13-09-2020 00:05:18 14.5 C 34 %
4609 13-09-2020 00:15:17 14 C 35 %
4610 13-09-2020 00:25:17 13.5 C 35 %
4611 13-09-2020 00:35:18 13 C 36 %
4612 13-09-2020 00:45:17 12.9 C 38 %
4613 13-09-2020 00:55:17 12.8 C 38 %
4614 13-09-2020 01:05:18 12.6 C 38 %
4615 13-09-2020 01:15:17 12.5 C 38 %
4616 13-09-2020 01:25:17 12.3 C 38 %
4617 13-09-2020 01:35:18 12.4 C 38 %
4618 13-09-2020 01:45:17 12.5 C 39 %
4619 13-09-2020 01:55:17 12.4 C 39 %
4620 13-09-2020 02:05:17 12.4 C 39 %
4621 13-09-2020 02:15:18 12 C 39 %
4622 13-09-2020 02:25:18 11.7 C 40 %
4623 13-09-2020 02:35:17 11.4 C 41 %
4624 13-09-2020 02:45:17 11.5 C 42 %
4625 13-09-2020 02:55:17 11.4 C 42 %
Sensor: Nr:Datum:Temp:Feuchte:
Aussen-T/F 4626 13-09-2020 03:05:17 11.3 C 41 %
4627 13-09-2020 03:15:17 11.3 C 42 %
4628 13-09-2020 03:25:17 11.1 C 42 %
4629 13-09-2020 03:35:17 11.2 C 42 %
4630 13-09-2020 03:45:17 11.1 C 41 %
4631 13-09-2020 03:55:17 11.2 C 42 %
4632 13-09-2020 04:05:17 11.2 C 42 %
4633 13-09-2020 04:15:17 11.1 C 42 %
4634 13-09-2020 04:25:17 11 C 42 %
4635 13-09-2020 04:35:18 11.2 C 42 %
4636 13-09-2020 04:45:17 10.7 C 43 %
4637 13-09-2020 04:55:17 10.8 C 44 %
4638 13-09-2020 05:05:18 10.7 C 44 %
4639 13-09-2020 05:15:17 10.5 C 43 %
4640 13-09-2020 05:25:17 10.4 C 45 %
4641 13-09-2020 05:35:17 10.1 C 44 %
4642 13-09-2020 05:45:17 10 C 45 %
4643 13-09-2020 05:55:17 9.9 C 45 %
4644 13-09-2020 06:05:17 9.9 C 46 %
4645 13-09-2020 06:15:17 10 C 44 %
4646 13-09-2020 06:25:17 9.7 C 45 %
4647 13-09-2020 06:35:18 10.2 C 45 %
4648 13-09-2020 06:45:18 9.9 C 45 %
4649 13-09-2020 06:55:18 9.7 C 46 %
4650 13-09-2020 07:05:17 9.6 C 46 %
Sensor: Nr:Datum:Temp:Feuchte:
Aussen-T/F 4651 13-09-2020 07:15:18 9.5 C 46 %
4652 13-09-2020 07:25:18 9.8 C 46 %
4653 13-09-2020 07:35:17 10 C 45 %
4654 13-09-2020 07:45:17 10 C 45 %
4655 13-09-2020 07:55:17 10.1 C 45 %
4656 13-09-2020 08:05:18 10.1 C 45 %
4657 13-09-2020 08:15:17 10.4 C 45 %
4658 13-09-2020 08:25:17 10.6 C 45 %
4659 13-09-2020 08:35:18 10.6 C 45 %
4660 13-09-2020 08:45:17 10.9 C 45 %
4661